<?xml version="1.0" encoding="UTF-8" standalone="no" ?>
<gpx xmlns="http://www.topografix.com/GPX/1/1" xmlns:xsi="http://www.w3.org/2001/XMLSchema-instance" xsi:schemaLocation="http://www.topografix.com/GPX/1/1 http://www.topografix.com/GPX/1/1/gpx.xsd" version="1.1" creator="VisuGPX - https://www.visugpx.com">
  <metadata>
    <name>nans sous st anne</name>
    <desc><![CDATA[Belle rando du côté de la source du lison]]></desc>
  </metadata>
  <trk>
    <name><![CDATA[nans sous st anne2]]></name>
    <trkseg>
      <trkpt lat="46.97688" lon="5.99905">
        <ele>162.119507</ele>
        <time>2012-06-21T09:30:23Z</time>
      </trkpt>
      <trkpt lat="46.97679" lon="5.99905">
        <ele>168.848755</ele>
        <time>2012-06-21T09:30:39Z</time>
      </trkpt>
      <trkpt lat="46.97679" lon="5.99906">
        <ele>175.577881</ele>
        <time>2012-06-21T09:30:40Z</time>
      </trkpt>
      <trkpt lat="46.97679" lon="5.99906">
        <ele>182.307129</ele>
        <time>2012-06-21T09:30:41Z</time>
      </trkpt>
      <trkpt lat="46.9768" lon="5.99906">
        <ele>188.555786</ele>
        <time>2012-06-21T09:30:42Z</time>
      </trkpt>
      <trkpt lat="46.9768" lon="5.99906">
        <ele>194.804321</ele>
        <time>2012-06-21T09:30:43Z</time>
      </trkpt>
      <trkpt lat="46.9768" lon="5.99906">
        <ele>200.572266</ele>
        <time>2012-06-21T09:30:44Z</time>
      </trkpt>
      <trkpt lat="46.9768" lon="5.99906">
        <ele>206.340088</ele>
        <time>2012-06-21T09:30:45Z</time>
      </trkpt>
      <trkpt lat="46.9768" lon="5.99906">
        <ele>212.108032</ele>
        <time>2012-06-21T09:30:46Z</time>
      </trkpt>
      <trkpt lat="46.9768" lon="5.99905">
        <ele>217.875977</ele>
        <time>2012-06-21T09:30:47Z</time>
      </trkpt>
      <trkpt lat="46.9768" lon="5.99906">
        <ele>222.201782</ele>
        <time>2012-06-21T09:30:48Z</time>
      </trkpt>
      <trkpt lat="46.9768" lon="5.99906">
        <ele>227.489136</ele>
        <time>2012-06-21T09:30:49Z</time>
      </trkpt>
      <trkpt lat="46.9768" lon="5.99906">
        <ele>232.295776</ele>
        <time>2012-06-21T09:30:50Z</time>
      </trkpt>
      <trkpt lat="46.9768" lon="5.99906">
        <ele>237.102295</ele>
        <time>2012-06-21T09:30:51Z</time>
      </trkpt>
      <trkpt lat="46.9768" lon="5.99906">
        <ele>241.428223</ele>
        <time>2012-06-21T09:30:52Z</time>
      </trkpt>
      <trkpt lat="46.97681" lon="5.99906">
        <ele>245.75415</ele>
        <time>2012-06-21T09:30:53Z</time>
      </trkpt>
      <trkpt lat="46.97681" lon="5.99906">
        <ele>250.0802</ele>
        <time>2012-06-21T09:30:54Z</time>
      </trkpt>
      <trkpt lat="46.97682" lon="5.99907">
        <ele>254.406006</ele>
        <time>2012-06-21T09:30:55Z</time>
      </trkpt>
      <trkpt lat="46.97682" lon="5.99907">
        <ele>257.770752</ele>
        <time>2012-06-21T09:30:56Z</time>
      </trkpt>
      <trkpt lat="46.97682" lon="5.99907">
        <ele>262.096558</ele>
        <time>2012-06-21T09:30:57Z</time>
      </trkpt>
      <trkpt lat="46.97682" lon="5.99907">
        <ele>268.825806</ele>
        <time>2012-06-21T09:30:59Z</time>
      </trkpt>
      <trkpt lat="46.97682" lon="5.99907">
        <ele>272.19043</ele>
        <time>2012-06-21T09:31:00Z</time>
      </trkpt>
      <trkpt lat="46.97682" lon="5.99907">
        <ele>275.555054</ele>
        <time>2012-06-21T09:31:01Z</time>
      </trkpt>
      <trkpt lat="46.97682" lon="5.99907">
        <ele>278.919678</ele>
        <time>2012-06-21T09:31:02Z</time>
      </trkpt>
      <trkpt lat="46.97682" lon="5.99907">
        <ele>284.687622</ele>
        <time>2012-06-21T09:31:04Z</time>
      </trkpt>
      <trkpt lat="46.97682" lon="5.99907">
        <ele>289.974854</ele>
        <time>2012-06-21T09:31:06Z</time>
      </trkpt>
      <trkpt lat="46.97682" lon="5.99907">
        <ele>295.261963</ele>
        <time>2012-06-21T09:31:08Z</time>
      </trkpt>
      <trkpt lat="46.97682" lon="5.99907">
        <ele>300.068726</ele>
        <time>2012-06-21T09:31:10Z</time>
      </trkpt>
      <trkpt lat="46.97682" lon="5.99907">
        <ele>369.283691</ele>
        <time>2012-06-21T09:31:11Z</time>
      </trkpt>
      <trkpt lat="46.97682" lon="5.99907">
        <ele>369.764282</ele>
        <time>2012-06-21T09:31:12Z</time>
      </trkpt>
      <trkpt lat="46.97684" lon="5.9991">
        <ele>369.283691</ele>
        <time>2012-06-21T09:31:47Z</time>
      </trkpt>
      <trkpt lat="46.97679" lon="5.99914">
        <ele>369.764282</ele>
        <time>2012-06-21T09:35:07Z</time>
      </trkpt>
      <trkpt lat="46.97685" lon="5.99928">
        <ele>369.283691</ele>
        <time>2012-06-21T09:35:26Z</time>
      </trkpt>
      <trkpt lat="46.97691" lon="5.99931">
        <ele>369.283691</ele>
        <time>2012-06-21T09:35:32Z</time>
      </trkpt>
      <trkpt lat="46.97694" lon="5.99933">
        <ele>369.283691</ele>
        <time>2012-06-21T09:35:35Z</time>
      </trkpt>
      <trkpt lat="46.97695" lon="5.99933">
        <ele>369.283691</ele>
        <time>2012-06-21T09:35:37Z</time>
      </trkpt>
      <trkpt lat="46.97701" lon="5.9994">
        <ele>368.802979</ele>
        <time>2012-06-21T09:35:44Z</time>
      </trkpt>
      <trkpt lat="46.97707" lon="5.99944">
        <ele>368.802979</ele>
        <time>2012-06-21T09:35:51Z</time>
      </trkpt>
      <trkpt lat="46.97713" lon="5.99954">
        <ele>368.322266</ele>
        <time>2012-06-21T09:35:59Z</time>
      </trkpt>
      <trkpt lat="46.97721" lon="5.99959">
        <ele>368.322266</ele>
        <time>2012-06-21T09:36:07Z</time>
      </trkpt>
      <trkpt lat="46.97738" lon="5.99972">
        <ele>367.360962</ele>
        <time>2012-06-21T09:36:22Z</time>
      </trkpt>
      <trkpt lat="46.97758" lon="5.99991">
        <ele>366.880249</ele>
        <time>2012-06-21T09:36:40Z</time>
      </trkpt>
      <trkpt lat="46.97775" lon="5.99995">
        <ele>366.880249</ele>
        <time>2012-06-21T09:36:54Z</time>
      </trkpt>
      <trkpt lat="46.97777" lon="5.99996">
        <ele>366.880249</ele>
        <time>2012-06-21T09:36:57Z</time>
      </trkpt>
      <trkpt lat="46.97793" lon="5.99986">
        <ele>366.880249</ele>
        <time>2012-06-21T09:37:11Z</time>
      </trkpt>
      <trkpt lat="46.978" lon="5.9998">
        <ele>366.880249</ele>
        <time>2012-06-21T09:37:17Z</time>
      </trkpt>
      <trkpt lat="46.97804" lon="5.99979">
        <ele>366.880249</ele>
        <time>2012-06-21T09:37:19Z</time>
      </trkpt>
      <trkpt lat="46.97809" lon="5.99976">
        <ele>366.880249</ele>
        <time>2012-06-21T09:37:23Z</time>
      </trkpt>
      <trkpt lat="46.97813" lon="5.99967">
        <ele>366.880249</ele>
        <time>2012-06-21T09:37:29Z</time>
      </trkpt>
      <trkpt lat="46.97827" lon="5.9995">
        <ele>367.360962</ele>
        <time>2012-06-21T09:37:42Z</time>
      </trkpt>
      <trkpt lat="46.9783" lon="5.99944">
        <ele>367.360962</ele>
        <time>2012-06-21T09:37:48Z</time>
      </trkpt>
      <trkpt lat="46.97835" lon="5.99943">
        <ele>367.841553</ele>
        <time>2012-06-21T09:37:50Z</time>
      </trkpt>
      <trkpt lat="46.97844" lon="5.9993">
        <ele>367.841553</ele>
        <time>2012-06-21T09:38:02Z</time>
      </trkpt>
      <trkpt lat="46.97855" lon="5.99915">
        <ele>368.802979</ele>
        <time>2012-06-21T09:38:14Z</time>
      </trkpt>
      <trkpt lat="46.97873" lon="5.99904">
        <ele>369.283691</ele>
        <time>2012-06-21T09:38:27Z</time>
      </trkpt>
      <trkpt lat="46.97888" lon="5.99883">
        <ele>370.244873</ele>
        <time>2012-06-21T09:38:45Z</time>
      </trkpt>
      <trkpt lat="46.9791" lon="5.99851">
        <ele>368.802979</ele>
        <time>2012-06-21T09:39:09Z</time>
      </trkpt>
      <trkpt lat="46.97925" lon="5.99834">
        <ele>368.322266</ele>
        <time>2012-06-21T09:39:27Z</time>
      </trkpt>
      <trkpt lat="46.97942" lon="5.99826">
        <ele>367.841553</ele>
        <time>2012-06-21T09:39:40Z</time>
      </trkpt>
      <trkpt lat="46.97959" lon="5.99808">
        <ele>367.360962</ele>
        <time>2012-06-21T09:39:57Z</time>
      </trkpt>
      <trkpt lat="46.9796" lon="5.99807">
        <ele>367.360962</ele>
        <time>2012-06-21T09:39:58Z</time>
      </trkpt>
      <trkpt lat="46.97969" lon="5.99798">
        <ele>366.880249</ele>
        <time>2012-06-21T09:40:07Z</time>
      </trkpt>
      <trkpt lat="46.97971" lon="5.99796">
        <ele>366.880249</ele>
        <time>2012-06-21T09:40:09Z</time>
      </trkpt>
      <trkpt lat="46.97978" lon="5.99795">
        <ele>366.880249</ele>
        <time>2012-06-21T09:40:12Z</time>
      </trkpt>
      <trkpt lat="46.97983" lon="5.99795">
        <ele>366.880249</ele>
        <time>2012-06-21T09:40:14Z</time>
      </trkpt>
      <trkpt lat="46.97988" lon="5.99793">
        <ele>366.880249</ele>
        <time>2012-06-21T09:40:17Z</time>
      </trkpt>
      <trkpt lat="46.98007" lon="5.99788">
        <ele>366.399536</ele>
        <time>2012-06-21T09:40:32Z</time>
      </trkpt>
      <trkpt lat="46.98028" lon="5.99774">
        <ele>365.438354</ele>
        <time>2012-06-21T09:40:51Z</time>
      </trkpt>
      <trkpt lat="46.98052" lon="5.99766">
        <ele>365.438354</ele>
        <time>2012-06-21T09:41:06Z</time>
      </trkpt>
      <trkpt lat="46.98056" lon="5.99761">
        <ele>365.438354</ele>
        <time>2012-06-21T09:41:11Z</time>
      </trkpt>
      <trkpt lat="46.98063" lon="5.99759">
        <ele>365.438354</ele>
        <time>2012-06-21T09:41:16Z</time>
      </trkpt>
      <trkpt lat="46.98068" lon="5.99758">
        <ele>365.438354</ele>
        <time>2012-06-21T09:41:19Z</time>
      </trkpt>
      <trkpt lat="46.98082" lon="5.9975">
        <ele>364.957642</ele>
        <time>2012-06-21T09:41:31Z</time>
      </trkpt>
      <trkpt lat="46.98084" lon="5.99748">
        <ele>365.438354</ele>
        <time>2012-06-21T09:41:33Z</time>
      </trkpt>
      <trkpt lat="46.98105" lon="5.9974">
        <ele>364.957642</ele>
        <time>2012-06-21T09:41:47Z</time>
      </trkpt>
      <trkpt lat="46.98108" lon="5.99739">
        <ele>365.438354</ele>
        <time>2012-06-21T09:41:49Z</time>
      </trkpt>
      <trkpt lat="46.98114" lon="5.99736">
        <ele>365.438354</ele>
        <time>2012-06-21T09:41:53Z</time>
      </trkpt>
      <trkpt lat="46.98124" lon="5.9973">
        <ele>365.438354</ele>
        <time>2012-06-21T09:42:03Z</time>
      </trkpt>
      <trkpt lat="46.98136" lon="5.99724">
        <ele>365.438354</ele>
        <time>2012-06-21T09:42:12Z</time>
      </trkpt>
      <trkpt lat="46.98142" lon="5.99723">
        <ele>364.957642</ele>
        <time>2012-06-21T09:42:17Z</time>
      </trkpt>
      <trkpt lat="46.98145" lon="5.99721">
        <ele>365.438354</ele>
        <time>2012-06-21T09:42:20Z</time>
      </trkpt>
      <trkpt lat="46.9817" lon="5.99711">
        <ele>365.438354</ele>
        <time>2012-06-21T09:42:44Z</time>
      </trkpt>
      <trkpt lat="46.98178" lon="5.99708">
        <ele>365.438354</ele>
        <time>2012-06-21T09:42:50Z</time>
      </trkpt>
      <trkpt lat="46.98181" lon="5.99707">
        <ele>364.957642</ele>
        <time>2012-06-21T09:42:52Z</time>
      </trkpt>
      <trkpt lat="46.98203" lon="5.99695">
        <ele>364.957642</ele>
        <time>2012-06-21T09:43:17Z</time>
      </trkpt>
      <trkpt lat="46.98217" lon="5.99687">
        <ele>364.476929</ele>
        <time>2012-06-21T09:43:33Z</time>
      </trkpt>
      <trkpt lat="46.98236" lon="5.99679">
        <ele>364.476929</ele>
        <time>2012-06-21T09:43:59Z</time>
      </trkpt>
      <trkpt lat="46.98258" lon="5.9968">
        <ele>363.996338</ele>
        <time>2012-06-21T09:44:25Z</time>
      </trkpt>
      <trkpt lat="46.98277" lon="5.99691">
        <ele>365.918945</ele>
        <time>2012-06-21T09:44:56Z</time>
      </trkpt>
      <trkpt lat="46.98277" lon="5.99682">
        <ele>367.360962</ele>
        <time>2012-06-21T09:45:21Z</time>
      </trkpt>
      <trkpt lat="46.98318" lon="5.99699">
        <ele>368.802979</ele>
        <time>2012-06-21T09:45:44Z</time>
      </trkpt>
      <trkpt lat="46.98351" lon="5.99715">
        <ele>369.283691</ele>
        <time>2012-06-21T09:45:55Z</time>
      </trkpt>
      <trkpt lat="46.9836" lon="5.99715">
        <ele>369.283691</ele>
        <time>2012-06-21T09:46:02Z</time>
      </trkpt>
      <trkpt lat="46.9837" lon="5.99719">
        <ele>369.764282</ele>
        <time>2012-06-21T09:46:15Z</time>
      </trkpt>
      <trkpt lat="46.98394" lon="5.99738">
        <ele>369.764282</ele>
        <time>2012-06-21T09:46:31Z</time>
      </trkpt>
      <trkpt lat="46.98402" lon="5.99743">
        <ele>369.283691</ele>
        <time>2012-06-21T09:46:45Z</time>
      </trkpt>
      <trkpt lat="46.98409" lon="5.99748">
        <ele>368.322266</ele>
        <time>2012-06-21T09:46:56Z</time>
      </trkpt>
      <trkpt lat="46.98423" lon="5.99754">
        <ele>367.841553</ele>
        <time>2012-06-21T09:47:10Z</time>
      </trkpt>
      <trkpt lat="46.98447" lon="5.9977">
        <ele>365.438354</ele>
        <time>2012-06-21T09:47:29Z</time>
      </trkpt>
      <trkpt lat="46.98467" lon="5.99786">
        <ele>362.554321</ele>
        <time>2012-06-21T09:47:48Z</time>
      </trkpt>
      <trkpt lat="46.98498" lon="5.99804">
        <ele>360.151123</ele>
        <time>2012-06-21T09:48:07Z</time>
      </trkpt>
      <trkpt lat="46.98522" lon="5.99827">
        <ele>358.708984</ele>
        <time>2012-06-21T09:48:24Z</time>
      </trkpt>
      <trkpt lat="46.98542" lon="5.9985">
        <ele>356.786377</ele>
        <time>2012-06-21T09:48:41Z</time>
      </trkpt>
      <trkpt lat="46.98551" lon="5.99868">
        <ele>355.344482</ele>
        <time>2012-06-21T09:48:54Z</time>
      </trkpt>
      <trkpt lat="46.98559" lon="5.99883">
        <ele>354.86377</ele>
        <time>2012-06-21T09:49:08Z</time>
      </trkpt>
      <trkpt lat="46.98567" lon="5.99911">
        <ele>354.383179</ele>
        <time>2012-06-21T09:49:25Z</time>
      </trkpt>
      <trkpt lat="46.98572" lon="5.99929">
        <ele>354.383179</ele>
        <time>2012-06-21T09:49:40Z</time>
      </trkpt>
      <trkpt lat="46.98564" lon="5.99958">
        <ele>355.344482</ele>
        <time>2012-06-21T09:49:58Z</time>
      </trkpt>
      <trkpt lat="46.98564" lon="5.99977">
        <ele>356.786377</ele>
        <time>2012-06-21T09:50:12Z</time>
      </trkpt>
      <trkpt lat="46.98568" lon="5.99991">
        <ele>356.786377</ele>
        <time>2012-06-21T09:50:25Z</time>
      </trkpt>
      <trkpt lat="46.98568" lon="5.99992">
        <ele>356.786377</ele>
        <time>2012-06-21T09:50:26Z</time>
      </trkpt>
      <trkpt lat="46.98568" lon="5.99996">
        <ele>356.305786</ele>
        <time>2012-06-21T09:50:28Z</time>
      </trkpt>
      <trkpt lat="46.98571" lon="6.00019">
        <ele>354.383179</ele>
        <time>2012-06-21T09:50:43Z</time>
      </trkpt>
      <trkpt lat="46.98579" lon="6.00037">
        <ele>352.941162</ele>
        <time>2012-06-21T09:50:56Z</time>
      </trkpt>
      <trkpt lat="46.98584" lon="6.00053">
        <ele>351.499146</ele>
        <time>2012-06-21T09:51:09Z</time>
      </trkpt>
      <trkpt lat="46.98592" lon="6.00064">
        <ele>351.018433</ele>
        <time>2012-06-21T09:51:23Z</time>
      </trkpt>
      <trkpt lat="46.98605" lon="6.00089">
        <ele>352.460571</ele>
        <time>2012-06-21T09:51:50Z</time>
      </trkpt>
      <trkpt lat="46.98622" lon="6.00124">
        <ele>352.941162</ele>
        <time>2012-06-21T09:52:21Z</time>
      </trkpt>
      <trkpt lat="46.98624" lon="6.00141">
        <ele>350.057251</ele>
        <time>2012-06-21T09:52:36Z</time>
      </trkpt>
      <trkpt lat="46.98635" lon="6.00148">
        <ele>347.173218</ele>
        <time>2012-06-21T09:52:49Z</time>
      </trkpt>
      <trkpt lat="46.98647" lon="6.00145">
        <ele>343.808594</ele>
        <time>2012-06-21T09:53:00Z</time>
      </trkpt>
      <trkpt lat="46.98662" lon="6.00132">
        <ele>340.924683</ele>
        <time>2012-06-21T09:53:16Z</time>
      </trkpt>
      <trkpt lat="46.98677" lon="6.00119">
        <ele>337.560059</ele>
        <time>2012-06-21T09:53:30Z</time>
      </trkpt>
      <trkpt lat="46.98679" lon="6.00103">
        <ele>334.195435</ele>
        <time>2012-06-21T09:53:45Z</time>
      </trkpt>
      <trkpt lat="46.98697" lon="6.00101">
        <ele>331.311523</ele>
        <time>2012-06-21T09:54:04Z</time>
      </trkpt>
      <trkpt lat="46.98712" lon="6.00097">
        <ele>327.946777</ele>
        <time>2012-06-21T09:54:21Z</time>
      </trkpt>
      <trkpt lat="46.98747" lon="6.0011">
        <ele>324.582275</ele>
        <time>2012-06-21T09:54:50Z</time>
      </trkpt>
      <trkpt lat="46.98794" lon="6.00124">
        <ele>323.620972</ele>
        <time>2012-06-21T09:55:07Z</time>
      </trkpt>
      <trkpt lat="46.98825" lon="6.00152">
        <ele>321.698364</ele>
        <time>2012-06-21T09:55:31Z</time>
      </trkpt>
      <trkpt lat="46.98848" lon="6.0016">
        <ele>320.256348</ele>
        <time>2012-06-21T09:55:56Z</time>
      </trkpt>
      <trkpt lat="46.98867" lon="6.00187">
        <ele>322.178955</ele>
        <time>2012-06-21T09:56:19Z</time>
      </trkpt>
      <trkpt lat="46.98893" lon="6.00215">
        <ele>323.620972</ele>
        <time>2012-06-21T09:56:43Z</time>
      </trkpt>
      <trkpt lat="46.9892" lon="6.00215">
        <ele>322.178955</ele>
        <time>2012-06-21T09:56:59Z</time>
      </trkpt>
      <trkpt lat="46.98944" lon="6.00209">
        <ele>318.814331</ele>
        <time>2012-06-21T09:57:13Z</time>
      </trkpt>
      <trkpt lat="46.98953" lon="6.00212">
        <ele>315.93042</ele>
        <time>2012-06-21T09:57:28Z</time>
      </trkpt>
      <trkpt lat="46.98956" lon="6.0021">
        <ele>312.565796</ele>
        <time>2012-06-21T09:57:41Z</time>
      </trkpt>
      <trkpt lat="46.98971" lon="6.0022">
        <ele>311.604492</ele>
        <time>2012-06-21T09:58:09Z</time>
      </trkpt>
      <trkpt lat="46.99021" lon="6.00242">
        <ele>309.681885</ele>
        <time>2012-06-21T09:58:35Z</time>
      </trkpt>
      <trkpt lat="46.99052" lon="6.00256">
        <ele>308.239868</ele>
        <time>2012-06-21T09:58:54Z</time>
      </trkpt>
      <trkpt lat="46.99102" lon="6.00266">
        <ele>305.83667</ele>
        <time>2012-06-21T09:59:34Z</time>
      </trkpt>
      <trkpt lat="46.99116" lon="6.00268">
        <ele>304.875244</ele>
        <time>2012-06-21T10:00:00Z</time>
      </trkpt>
      <trkpt lat="46.99137" lon="6.00268">
        <ele>304.875244</ele>
        <time>2012-06-21T10:00:28Z</time>
      </trkpt>
      <trkpt lat="46.9914" lon="6.0027">
        <ele>304.394653</ele>
        <time>2012-06-21T10:00:32Z</time>
      </trkpt>
      <trkpt lat="46.99153" lon="6.00271">
        <ele>300.549316</ele>
        <time>2012-06-21T10:00:48Z</time>
      </trkpt>
      <trkpt lat="46.99167" lon="6.00291">
        <ele>299.588013</ele>
        <time>2012-06-21T10:01:08Z</time>
      </trkpt>
      <trkpt lat="46.99168" lon="6.00293">
        <ele>299.588013</ele>
        <time>2012-06-21T10:01:09Z</time>
      </trkpt>
      <trkpt lat="46.9919" lon="6.00315">
        <ele>298.626709</ele>
        <time>2012-06-21T10:01:30Z</time>
      </trkpt>
      <trkpt lat="46.99205" lon="6.00342">
        <ele>296.223511</ele>
        <time>2012-06-21T10:01:50Z</time>
      </trkpt>
      <trkpt lat="46.99219" lon="6.00366">
        <ele>295.261963</ele>
        <time>2012-06-21T10:02:09Z</time>
      </trkpt>
      <trkpt lat="46.99226" lon="6.00393">
        <ele>297.184692</ele>
        <time>2012-06-21T10:02:31Z</time>
      </trkpt>
      <trkpt lat="46.99231" lon="6.00398">
        <ele>298.626709</ele>
        <time>2012-06-21T10:02:48Z</time>
      </trkpt>
      <trkpt lat="46.99236" lon="6.00406">
        <ele>297.665405</ele>
        <time>2012-06-21T10:03:04Z</time>
      </trkpt>
      <trkpt lat="46.9925" lon="6.00418">
        <ele>294.781372</ele>
        <time>2012-06-21T10:03:27Z</time>
      </trkpt>
      <trkpt lat="46.99244" lon="6.00426">
        <ele>291.416748</ele>
        <time>2012-06-21T10:03:42Z</time>
      </trkpt>
      <trkpt lat="46.99243" lon="6.0043">
        <ele>288.052246</ele>
        <time>2012-06-21T10:03:54Z</time>
      </trkpt>
      <trkpt lat="46.99247" lon="6.00442">
        <ele>285.168213</ele>
        <time>2012-06-21T10:04:06Z</time>
      </trkpt>
      <trkpt lat="46.99252" lon="6.00457">
        <ele>281.803589</ele>
        <time>2012-06-21T10:04:24Z</time>
      </trkpt>
      <trkpt lat="46.99262" lon="6.0047">
        <ele>280.842407</ele>
        <time>2012-06-21T10:04:40Z</time>
      </trkpt>
      <trkpt lat="46.99265" lon="6.00474">
        <ele>279.400269</ele>
        <time>2012-06-21T10:04:58Z</time>
      </trkpt>
      <trkpt lat="46.99271" lon="6.00487">
        <ele>276.035645</ele>
        <time>2012-06-21T10:05:35Z</time>
      </trkpt>
      <trkpt lat="46.9929" lon="6.00482">
        <ele>274.113037</ele>
        <time>2012-06-21T10:06:00Z</time>
      </trkpt>
      <trkpt lat="46.9931" lon="6.0048">
        <ele>272.671143</ele>
        <time>2012-06-21T10:06:21Z</time>
      </trkpt>
      <trkpt lat="46.99325" lon="6.00484">
        <ele>271.229126</ele>
        <time>2012-06-21T10:06:47Z</time>
      </trkpt>
      <trkpt lat="46.99341" lon="6.00487">
        <ele>269.787109</ele>
        <time>2012-06-21T10:07:06Z</time>
      </trkpt>
      <trkpt lat="46.99851" lon="6.00557">
        <ele>269.306519</ele>
        <time>2012-06-21T10:07:37Z</time>
      </trkpt>
      <trkpt lat="46.99883" lon="6.00578">
        <ele>269.306519</ele>
        <time>2012-06-21T10:07:55Z</time>
      </trkpt>
      <trkpt lat="46.99897" lon="6.00569">
        <ele>269.306519</ele>
        <time>2012-06-21T10:08:21Z</time>
      </trkpt>
      <trkpt lat="46.99946" lon="6.00443">
        <ele>269.306519</ele>
        <time>2012-06-21T10:09:04Z</time>
      </trkpt>
      <trkpt lat="46.99973" lon="6.00402">
        <ele>267.864502</ele>
        <time>2012-06-21T10:09:31Z</time>
      </trkpt>
      <trkpt lat="46.99988" lon="6.00377">
        <ele>266.422485</ele>
        <time>2012-06-21T10:09:53Z</time>
      </trkpt>
      <trkpt lat="47.00005" lon="6.00345">
        <ele>265.461304</ele>
        <time>2012-06-21T10:10:19Z</time>
      </trkpt>
      <trkpt lat="47.00019" lon="6.00334">
        <ele>264.019287</ele>
        <time>2012-06-21T10:10:35Z</time>
      </trkpt>
      <trkpt lat="47.00041" lon="6.00283">
        <ele>262.577148</ele>
        <time>2012-06-21T10:11:00Z</time>
      </trkpt>
      <trkpt lat="47.00045" lon="6.00304">
        <ele>260.654541</ele>
        <time>2012-06-21T10:11:49Z</time>
      </trkpt>
      <trkpt lat="47.00044" lon="6.00319">
        <ele>257.770752</ele>
        <time>2012-06-21T10:13:06Z</time>
      </trkpt>
      <trkpt lat="47.00031" lon="6.00331">
        <ele>254.886597</ele>
        <time>2012-06-21T10:17:29Z</time>
      </trkpt>
      <trkpt lat="47.00027" lon="6.00338">
        <ele>254.886597</ele>
        <time>2012-06-21T10:18:16Z</time>
      </trkpt>
      <trkpt lat="47.00038" lon="6.00354">
        <ele>254.886597</ele>
        <time>2012-06-21T10:18:44Z</time>
      </trkpt>
      <trkpt lat="47.00061" lon="6.00368">
        <ele>253.925415</ele>
        <time>2012-06-21T10:19:21Z</time>
      </trkpt>
      <trkpt lat="47.00092" lon="6.00373">
        <ele>253.925415</ele>
        <time>2012-06-21T10:19:51Z</time>
      </trkpt>
      <trkpt lat="47.00103" lon="6.00404">
        <ele>253.925415</ele>
        <time>2012-06-21T10:20:24Z</time>
      </trkpt>
      <trkpt lat="47.00111" lon="6.00438">
        <ele>254.886597</ele>
        <time>2012-06-21T10:20:49Z</time>
      </trkpt>
      <trkpt lat="47.00117" lon="6.00501">
        <ele>254.406006</ele>
        <time>2012-06-21T10:21:22Z</time>
      </trkpt>
      <trkpt lat="47.00127" lon="6.0052">
        <ele>254.406006</ele>
        <time>2012-06-21T10:21:38Z</time>
      </trkpt>
      <trkpt lat="47.00141" lon="6.00532">
        <ele>254.406006</ele>
        <time>2012-06-21T10:21:51Z</time>
      </trkpt>
      <trkpt lat="47.00161" lon="6.00552">
        <ele>254.886597</ele>
        <time>2012-06-21T10:22:19Z</time>
      </trkpt>
      <trkpt lat="47.00181" lon="6.00576">
        <ele>254.886597</ele>
        <time>2012-06-21T10:22:41Z</time>
      </trkpt>
      <trkpt lat="47.00206" lon="6.00592">
        <ele>255.36731</ele>
        <time>2012-06-21T10:23:04Z</time>
      </trkpt>
      <trkpt lat="47.00232" lon="6.00605">
        <ele>254.886597</ele>
        <time>2012-06-21T10:23:28Z</time>
      </trkpt>
      <trkpt lat="47.00269" lon="6.00625">
        <ele>255.36731</ele>
        <time>2012-06-21T10:23:49Z</time>
      </trkpt>
      <trkpt lat="47.00288" lon="6.00642">
        <ele>255.848022</ele>
        <time>2012-06-21T10:24:12Z</time>
      </trkpt>
      <trkpt lat="47.00277" lon="6.00671">
        <ele>256.328735</ele>
        <time>2012-06-21T10:24:29Z</time>
      </trkpt>
      <trkpt lat="47.00276" lon="6.00676">
        <ele>256.328735</ele>
        <time>2012-06-21T10:24:31Z</time>
      </trkpt>
      <trkpt lat="47.00285" lon="6.00713">
        <ele>256.809326</ele>
        <time>2012-06-21T10:24:52Z</time>
      </trkpt>
      <trkpt lat="47.00295" lon="6.00741">
        <ele>256.809326</ele>
        <time>2012-06-21T10:25:13Z</time>
      </trkpt>
      <trkpt lat="47.00302" lon="6.00756">
        <ele>257.770752</ele>
        <time>2012-06-21T10:25:32Z</time>
      </trkpt>
      <trkpt lat="47.00308" lon="6.00767">
        <ele>258.251343</ele>
        <time>2012-06-21T10:25:47Z</time>
      </trkpt>
      <trkpt lat="47.00188" lon="6.00909">
        <ele>258.731934</ele>
        <time>2012-06-21T10:26:10Z</time>
      </trkpt>
      <trkpt lat="47.00188" lon="6.00979">
        <ele>259.693359</ele>
        <time>2012-06-21T10:26:29Z</time>
      </trkpt>
      <trkpt lat="47.00188" lon="6.01011">
        <ele>260.17395</ele>
        <time>2012-06-21T10:26:43Z</time>
      </trkpt>
      <trkpt lat="47.00188" lon="6.01047">
        <ele>261.135254</ele>
        <time>2012-06-21T10:27:02Z</time>
      </trkpt>
      <trkpt lat="47.00179" lon="6.01067">
        <ele>261.615967</ele>
        <time>2012-06-21T10:27:16Z</time>
      </trkpt>
      <trkpt lat="47.00179" lon="6.01104">
        <ele>262.577148</ele>
        <time>2012-06-21T10:27:43Z</time>
      </trkpt>
      <trkpt lat="47.00174" lon="6.01124">
        <ele>263.057861</ele>
        <time>2012-06-21T10:28:01Z</time>
      </trkpt>
      <trkpt lat="47.00185" lon="6.01169">
        <ele>264.980591</ele>
        <time>2012-06-21T10:28:28Z</time>
      </trkpt>
      <trkpt lat="47.00186" lon="6.01201">
        <ele>265.941895</ele>
        <time>2012-06-21T10:28:49Z</time>
      </trkpt>
      <trkpt lat="47.0019" lon="6.01209">
        <ele>266.422485</ele>
        <time>2012-06-21T10:28:54Z</time>
      </trkpt>
      <trkpt lat="47.00197" lon="6.01237">
        <ele>267.383911</ele>
        <time>2012-06-21T10:29:15Z</time>
      </trkpt>
      <trkpt lat="47.00204" lon="6.01254">
        <ele>268.345093</ele>
        <time>2012-06-21T10:29:35Z</time>
      </trkpt>
      <trkpt lat="47.00219" lon="6.01282">
        <ele>268.825806</ele>
        <time>2012-06-21T10:29:54Z</time>
      </trkpt>
      <trkpt lat="47.00226" lon="6.01303">
        <ele>268.825806</ele>
        <time>2012-06-21T10:30:11Z</time>
      </trkpt>
      <trkpt lat="47.00217" lon="6.01321">
        <ele>269.306519</ele>
        <time>2012-06-21T10:30:33Z</time>
      </trkpt>
      <trkpt lat="47.00216" lon="6.01313">
        <ele>271.229126</ele>
        <time>2012-06-21T10:31:09Z</time>
      </trkpt>
      <trkpt lat="47.00214" lon="6.01289">
        <ele>271.709717</ele>
        <time>2012-06-21T10:31:33Z</time>
      </trkpt>
      <trkpt lat="47.00223" lon="6.01322">
        <ele>272.19043</ele>
        <time>2012-06-21T10:31:52Z</time>
      </trkpt>
      <trkpt lat="47.0024" lon="6.01351">
        <ele>272.671143</ele>
        <time>2012-06-21T10:32:15Z</time>
      </trkpt>
      <trkpt lat="47.00241" lon="6.01352">
        <ele>273.151855</ele>
        <time>2012-06-21T10:32:29Z</time>
      </trkpt>
      <trkpt lat="47.00239" lon="6.01355">
        <ele>274.113037</ele>
        <time>2012-06-21T10:32:53Z</time>
      </trkpt>
      <trkpt lat="47.00241" lon="6.0138">
        <ele>275.074463</ele>
        <time>2012-06-21T10:33:26Z</time>
      </trkpt>
      <trkpt lat="47.00241" lon="6.01426">
        <ele>275.555054</ele>
        <time>2012-06-21T10:33:44Z</time>
      </trkpt>
      <trkpt lat="47.00247" lon="6.01505">
        <ele>276.516357</ele>
        <time>2012-06-21T10:34:05Z</time>
      </trkpt>
      <trkpt lat="47.00251" lon="6.01536">
        <ele>276.99707</ele>
        <time>2012-06-21T10:34:18Z</time>
      </trkpt>
      <trkpt lat="47.00261" lon="6.01568">
        <ele>277.477661</ele>
        <time>2012-06-21T10:34:34Z</time>
      </trkpt>
      <trkpt lat="47.00269" lon="6.01585">
        <ele>277.958252</ele>
        <time>2012-06-21T10:34:44Z</time>
      </trkpt>
      <trkpt lat="47.00287" lon="6.0161">
        <ele>279.400269</ele>
        <time>2012-06-21T10:35:09Z</time>
      </trkpt>
      <trkpt lat="47.00298" lon="6.01626">
        <ele>279.400269</ele>
        <time>2012-06-21T10:35:29Z</time>
      </trkpt>
      <trkpt lat="47.00311" lon="6.01624">
        <ele>279.400269</ele>
        <time>2012-06-21T10:35:39Z</time>
      </trkpt>
      <trkpt lat="47.00324" lon="6.01662">
        <ele>279.400269</ele>
        <time>2012-06-21T10:36:02Z</time>
      </trkpt>
      <trkpt lat="47.00332" lon="6.01676">
        <ele>279.400269</ele>
        <time>2012-06-21T10:36:18Z</time>
      </trkpt>
      <trkpt lat="47.00339" lon="6.0169">
        <ele>279.880859</ele>
        <time>2012-06-21T10:36:34Z</time>
      </trkpt>
      <trkpt lat="47.00343" lon="6.01691">
        <ele>279.880859</ele>
        <time>2012-06-21T10:36:37Z</time>
      </trkpt>
      <trkpt lat="47.00361" lon="6.01704">
        <ele>280.361694</ele>
        <time>2012-06-21T10:36:57Z</time>
      </trkpt>
      <trkpt lat="47.00372" lon="6.01729">
        <ele>280.361694</ele>
        <time>2012-06-21T10:37:15Z</time>
      </trkpt>
      <trkpt lat="47.00384" lon="6.01736">
        <ele>280.842407</ele>
        <time>2012-06-21T10:37:34Z</time>
      </trkpt>
      <trkpt lat="47.00393" lon="6.01741">
        <ele>280.842407</ele>
        <time>2012-06-21T10:37:55Z</time>
      </trkpt>
      <trkpt lat="47.00403" lon="6.01758">
        <ele>281.803589</ele>
        <time>2012-06-21T10:38:17Z</time>
      </trkpt>
      <trkpt lat="47.00411" lon="6.01785">
        <ele>282.765015</ele>
        <time>2012-06-21T10:38:32Z</time>
      </trkpt>
      <trkpt lat="47.00419" lon="6.01821">
        <ele>283.726196</ele>
        <time>2012-06-21T10:38:51Z</time>
      </trkpt>
      <trkpt lat="47.00435" lon="6.01869">
        <ele>284.206909</ele>
        <time>2012-06-21T10:39:13Z</time>
      </trkpt>
      <trkpt lat="47.00452" lon="6.01887">
        <ele>285.168213</ele>
        <time>2012-06-21T10:39:32Z</time>
      </trkpt>
      <trkpt lat="47.00471" lon="6.01898">
        <ele>287.09082</ele>
        <time>2012-06-21T10:40:01Z</time>
      </trkpt>
      <trkpt lat="47.00406" lon="6.02143">
        <ele>289.01355</ele>
        <time>2012-06-21T10:40:18Z</time>
      </trkpt>
      <trkpt lat="47.004" lon="6.0213">
        <ele>290.936157</ele>
        <time>2012-06-21T10:40:33Z</time>
      </trkpt>
      <trkpt lat="47.00401" lon="6.02104">
        <ele>292.378174</ele>
        <time>2012-06-21T10:40:48Z</time>
      </trkpt>
      <trkpt lat="47.00405" lon="6.02078">
        <ele>294.300781</ele>
        <time>2012-06-21T10:41:12Z</time>
      </trkpt>
      <trkpt lat="47.00402" lon="6.02068">
        <ele>296.223511</ele>
        <time>2012-06-21T10:41:29Z</time>
      </trkpt>
      <trkpt lat="47.00401" lon="6.0206">
        <ele>297.665405</ele>
        <time>2012-06-21T10:41:43Z</time>
      </trkpt>
      <trkpt lat="47.00399" lon="6.02028">
        <ele>298.626709</ele>
        <time>2012-06-21T10:42:04Z</time>
      </trkpt>
      <trkpt lat="47.00382" lon="6.01998">
        <ele>300.068726</ele>
        <time>2012-06-21T10:42:23Z</time>
      </trkpt>
      <trkpt lat="47.00386" lon="6.01984">
        <ele>301.991333</ele>
        <time>2012-06-21T10:42:40Z</time>
      </trkpt>
      <trkpt lat="47.00362" lon="6.0195">
        <ele>303.433228</ele>
        <time>2012-06-21T10:43:03Z</time>
      </trkpt>
      <trkpt lat="47.00356" lon="6.01927">
        <ele>304.394653</ele>
        <time>2012-06-21T10:43:22Z</time>
      </trkpt>
      <trkpt lat="47.00346" lon="6.01904">
        <ele>305.83667</ele>
        <time>2012-06-21T10:43:43Z</time>
      </trkpt>
      <trkpt lat="47.0034" lon="6.01882">
        <ele>308.239868</ele>
        <time>2012-06-21T10:44:05Z</time>
      </trkpt>
      <trkpt lat="47.00342" lon="6.01864">
        <ele>309.681885</ele>
        <time>2012-06-21T10:44:22Z</time>
      </trkpt>
      <trkpt lat="47.00338" lon="6.01833">
        <ele>312.565796</ele>
        <time>2012-06-21T10:44:48Z</time>
      </trkpt>
      <trkpt lat="47.00336" lon="6.01809">
        <ele>314.488403</ele>
        <time>2012-06-21T10:45:03Z</time>
      </trkpt>
      <trkpt lat="47.00326" lon="6.0178">
        <ele>316.411011</ele>
        <time>2012-06-21T10:45:24Z</time>
      </trkpt>
      <trkpt lat="47.00324" lon="6.01759">
        <ele>317.372437</ele>
        <time>2012-06-21T10:45:42Z</time>
      </trkpt>
      <trkpt lat="47.0032" lon="6.01721">
        <ele>319.775635</ele>
        <time>2012-06-21T10:46:04Z</time>
      </trkpt>
      <trkpt lat="47.00314" lon="6.01691">
        <ele>321.698364</ele>
        <time>2012-06-21T10:46:26Z</time>
      </trkpt>
      <trkpt lat="47.00315" lon="6.01671">
        <ele>322.178955</ele>
        <time>2012-06-21T10:46:41Z</time>
      </trkpt>
      <trkpt lat="47.00313" lon="6.01633">
        <ele>324.101563</ele>
        <time>2012-06-21T10:47:02Z</time>
      </trkpt>
      <trkpt lat="47.00314" lon="6.01595">
        <ele>326.02417</ele>
        <time>2012-06-21T10:47:22Z</time>
      </trkpt>
      <trkpt lat="47.00311" lon="6.01562">
        <ele>327.946777</ele>
        <time>2012-06-21T10:47:44Z</time>
      </trkpt>
      <trkpt lat="47.00321" lon="6.01514">
        <ele>330.35022</ele>
        <time>2012-06-21T10:48:07Z</time>
      </trkpt>
      <trkpt lat="47.00312" lon="6.01464">
        <ele>333.234131</ele>
        <time>2012-06-21T10:48:36Z</time>
      </trkpt>
      <trkpt lat="47.00309" lon="6.0144">
        <ele>335.156738</ele>
        <time>2012-06-21T10:48:55Z</time>
      </trkpt>
      <trkpt lat="47.00307" lon="6.01406">
        <ele>338.040771</ele>
        <time>2012-06-21T10:49:15Z</time>
      </trkpt>
      <trkpt lat="47.00305" lon="6.01366">
        <ele>340.444092</ele>
        <time>2012-06-21T10:49:41Z</time>
      </trkpt>
      <trkpt lat="47.00304" lon="6.01338">
        <ele>342.366699</ele>
        <time>2012-06-21T10:49:58Z</time>
      </trkpt>
      <trkpt lat="47.00293" lon="6.01315">
        <ele>344.77002</ele>
        <time>2012-06-21T10:50:21Z</time>
      </trkpt>
      <trkpt lat="47.00291" lon="6.01315">
        <ele>348.134644</ele>
        <time>2012-06-21T10:50:50Z</time>
      </trkpt>
      <trkpt lat="47.00291" lon="6.01321">
        <ele>351.018433</ele>
        <time>2012-06-21T10:51:32Z</time>
      </trkpt>
      <trkpt lat="47.00292" lon="6.01323">
        <ele>353.902588</ele>
        <time>2012-06-21T10:52:17Z</time>
      </trkpt>
      <trkpt lat="47.00293" lon="6.01326">
        <ele>357.26709</ele>
        <time>2012-06-21T10:53:03Z</time>
      </trkpt>
      <trkpt lat="47.00295" lon="6.01323">
        <ele>360.151123</ele>
        <time>2012-06-21T10:53:49Z</time>
      </trkpt>
      <trkpt lat="47.00294" lon="6.01315">
        <ele>363.035034</ele>
        <time>2012-06-21T10:54:36Z</time>
      </trkpt>
      <trkpt lat="47.00294" lon="6.01317">
        <ele>366.399536</ele>
        <time>2012-06-21T10:55:24Z</time>
      </trkpt>
      <trkpt lat="47.00294" lon="6.01317">
        <ele>369.283691</ele>
        <time>2012-06-21T10:56:12Z</time>
      </trkpt>
      <trkpt lat="47.00294" lon="6.01317">
        <ele>372.16748</ele>
        <time>2012-06-21T10:57:05Z</time>
      </trkpt>
      <trkpt lat="47.00296" lon="6.01319">
        <ele>375.532104</ele>
        <time>2012-06-21T10:57:43Z</time>
      </trkpt>
      <trkpt lat="47.00304" lon="6.01351">
        <ele>377.454834</ele>
        <time>2012-06-21T10:58:03Z</time>
      </trkpt>
      <trkpt lat="47.00317" lon="6.01387">
        <ele>380.819458</ele>
        <time>2012-06-21T10:58:30Z</time>
      </trkpt>
      <trkpt lat="47.00325" lon="6.01419">
        <ele>384.184082</ele>
        <time>2012-06-21T10:58:51Z</time>
      </trkpt>
      <trkpt lat="47.00334" lon="6.01449">
        <ele>387.067993</ele>
        <time>2012-06-21T10:59:11Z</time>
      </trkpt>
      <trkpt lat="47.00336" lon="6.01461">
        <ele>388.029297</ele>
        <time>2012-06-21T10:59:20Z</time>
      </trkpt>
      <trkpt lat="47.00338" lon="6.01485">
        <ele>390.432617</ele>
        <time>2012-06-21T10:59:36Z</time>
      </trkpt>
      <trkpt lat="47.00341" lon="6.01503">
        <ele>392.355347</ele>
        <time>2012-06-21T10:59:51Z</time>
      </trkpt>
      <trkpt lat="47.00345" lon="6.01511">
        <ele>393.797241</ele>
        <time>2012-06-21T10:59:58Z</time>
      </trkpt>
      <trkpt lat="47.00346" lon="6.01516">
        <ele>394.277954</ele>
        <time>2012-06-21T11:00:01Z</time>
      </trkpt>
      <trkpt lat="47.0035" lon="6.01534">
        <ele>396.681152</ele>
        <time>2012-06-21T11:00:17Z</time>
      </trkpt>
      <trkpt lat="47.00358" lon="6.01563">
        <ele>400.045898</ele>
        <time>2012-06-21T11:00:42Z</time>
      </trkpt>
      <trkpt lat="47.00368" lon="6.01584">
        <ele>402.929688</ele>
        <time>2012-06-21T11:01:02Z</time>
      </trkpt>
      <trkpt lat="47.00372" lon="6.01615">
        <ele>405.813721</ele>
        <time>2012-06-21T11:01:20Z</time>
      </trkpt>
      <trkpt lat="47.00379" lon="6.01648">
        <ele>409.178345</ele>
        <time>2012-06-21T11:01:43Z</time>
      </trkpt>
      <trkpt lat="47.00381" lon="6.01656">
        <ele>410.139648</ele>
        <time>2012-06-21T11:01:49Z</time>
      </trkpt>
      <trkpt lat="47.00386" lon="6.01677">
        <ele>412.542847</ele>
        <time>2012-06-21T11:02:06Z</time>
      </trkpt>
      <trkpt lat="47.00395" lon="6.0171">
        <ele>415.42688</ele>
        <time>2012-06-21T11:02:28Z</time>
      </trkpt>
      <trkpt lat="47.00407" lon="6.01736">
        <ele>418.310791</ele>
        <time>2012-06-21T11:02:50Z</time>
      </trkpt>
      <trkpt lat="47.00423" lon="6.01757">
        <ele>420.714111</ele>
        <time>2012-06-21T11:03:11Z</time>
      </trkpt>
      <trkpt lat="47.00442" lon="6.01781">
        <ele>424.078735</ele>
        <time>2012-06-21T11:03:34Z</time>
      </trkpt>
      <trkpt lat="47.00453" lon="6.01804">
        <ele>426.962769</ele>
        <time>2012-06-21T11:03:53Z</time>
      </trkpt>
      <trkpt lat="47.00467" lon="6.01819">
        <ele>429.365967</ele>
        <time>2012-06-21T11:04:11Z</time>
      </trkpt>
      <trkpt lat="47.00486" lon="6.0184">
        <ele>431.769165</ele>
        <time>2012-06-21T11:04:32Z</time>
      </trkpt>
      <trkpt lat="47.005" lon="6.01858">
        <ele>434.65332</ele>
        <time>2012-06-21T11:04:52Z</time>
      </trkpt>
      <trkpt lat="47.00514" lon="6.01888">
        <ele>437.537109</ele>
        <time>2012-06-21T11:05:14Z</time>
      </trkpt>
      <trkpt lat="47.00524" lon="6.01906">
        <ele>438.979126</ele>
        <time>2012-06-21T11:05:30Z</time>
      </trkpt>
      <trkpt lat="47.00538" lon="6.01934">
        <ele>439.94043</ele>
        <time>2012-06-21T11:05:50Z</time>
      </trkpt>
      <trkpt lat="47.00572" lon="6.0195">
        <ele>440.421265</ele>
        <time>2012-06-21T11:06:15Z</time>
      </trkpt>
      <trkpt lat="47.00601" lon="6.01959">
        <ele>441.863159</ele>
        <time>2012-06-21T11:06:37Z</time>
      </trkpt>
      <trkpt lat="47.00614" lon="6.01961">
        <ele>443.305054</ele>
        <time>2012-06-21T11:06:52Z</time>
      </trkpt>
      <trkpt lat="47.00636" lon="6.01968">
        <ele>444.266479</ele>
        <time>2012-06-21T11:07:10Z</time>
      </trkpt>
      <trkpt lat="47.0066" lon="6.01979">
        <ele>445.227661</ele>
        <time>2012-06-21T11:07:32Z</time>
      </trkpt>
      <trkpt lat="47.00678" lon="6.0199">
        <ele>446.669678</ele>
        <time>2012-06-21T11:07:51Z</time>
      </trkpt>
      <trkpt lat="47.00707" lon="6.01992">
        <ele>447.630981</ele>
        <time>2012-06-21T11:08:17Z</time>
      </trkpt>
      <trkpt lat="47.00732" lon="6.02012">
        <ele>448.592407</ele>
        <time>2012-06-21T11:08:36Z</time>
      </trkpt>
      <trkpt lat="47.00753" lon="6.02014">
        <ele>448.592407</ele>
        <time>2012-06-21T11:08:42Z</time>
      </trkpt>
      <trkpt lat="47.00766" lon="6.02034">
        <ele>449.072998</ele>
        <time>2012-06-21T11:08:58Z</time>
      </trkpt>
      <trkpt lat="47.00789" lon="6.02053">
        <ele>449.553711</ele>
        <time>2012-06-21T11:09:16Z</time>
      </trkpt>
      <trkpt lat="47.00795" lon="6.0206">
        <ele>449.553711</ele>
        <time>2012-06-21T11:09:31Z</time>
      </trkpt>
      <trkpt lat="47.00799" lon="6.02064">
        <ele>450.515015</ele>
        <time>2012-06-21T11:09:51Z</time>
      </trkpt>
      <trkpt lat="47.00807" lon="6.0208">
        <ele>450.995605</ele>
        <time>2012-06-21T11:10:02Z</time>
      </trkpt>
      <trkpt lat="47.00819" lon="6.02122">
        <ele>452.437622</ele>
        <time>2012-06-21T11:10:26Z</time>
      </trkpt>
      <trkpt lat="47.00832" lon="6.02162">
        <ele>453.879639</ele>
        <time>2012-06-21T11:10:48Z</time>
      </trkpt>
      <trkpt lat="47.00833" lon="6.02164">
        <ele>453.879639</ele>
        <time>2012-06-21T11:10:49Z</time>
      </trkpt>
      <trkpt lat="47.00837" lon="6.02172">
        <ele>454.360229</ele>
        <time>2012-06-21T11:10:54Z</time>
      </trkpt>
      <trkpt lat="47.00861" lon="6.0219">
        <ele>455.321533</ele>
        <time>2012-06-21T11:11:13Z</time>
      </trkpt>
      <trkpt lat="47.00875" lon="6.02189">
        <ele>455.321533</ele>
        <time>2012-06-21T11:11:24Z</time>
      </trkpt>
      <trkpt lat="47.00885" lon="6.02184">
        <ele>455.802246</ele>
        <time>2012-06-21T11:11:35Z</time>
      </trkpt>
      <trkpt lat="47.00886" lon="6.0218">
        <ele>455.802246</ele>
        <time>2012-06-21T11:11:37Z</time>
      </trkpt>
      <trkpt lat="47.00899" lon="6.02174">
        <ele>455.802246</ele>
        <time>2012-06-21T11:11:47Z</time>
      </trkpt>
      <trkpt lat="47.00905" lon="6.02176">
        <ele>455.802246</ele>
        <time>2012-06-21T11:11:51Z</time>
      </trkpt>
      <trkpt lat="47.00909" lon="6.02183">
        <ele>456.282959</ele>
        <time>2012-06-21T11:11:55Z</time>
      </trkpt>
      <trkpt lat="47.0092" lon="6.022">
        <ele>456.76355</ele>
        <time>2012-06-21T11:12:04Z</time>
      </trkpt>
      <trkpt lat="47.00924" lon="6.02205">
        <ele>456.76355</ele>
        <time>2012-06-21T11:12:08Z</time>
      </trkpt>
      <trkpt lat="47.0093" lon="6.02216">
        <ele>456.76355</ele>
        <time>2012-06-21T11:12:15Z</time>
      </trkpt>
      <trkpt lat="47.00935" lon="6.02228">
        <ele>456.282959</ele>
        <time>2012-06-21T11:12:23Z</time>
      </trkpt>
      <trkpt lat="47.00942" lon="6.02243">
        <ele>456.282959</ele>
        <time>2012-06-21T11:12:33Z</time>
      </trkpt>
      <trkpt lat="47.00944" lon="6.0225">
        <ele>456.282959</ele>
        <time>2012-06-21T11:12:36Z</time>
      </trkpt>
      <trkpt lat="47.00947" lon="6.02264">
        <ele>455.802246</ele>
        <time>2012-06-21T11:12:43Z</time>
      </trkpt>
      <trkpt lat="47.00947" lon="6.02284">
        <ele>456.282959</ele>
        <time>2012-06-21T11:12:51Z</time>
      </trkpt>
      <trkpt lat="47.00947" lon="6.02318">
        <ele>456.76355</ele>
        <time>2012-06-21T11:13:07Z</time>
      </trkpt>
      <trkpt lat="47.00949" lon="6.02329">
        <ele>456.76355</ele>
        <time>2012-06-21T11:13:14Z</time>
      </trkpt>
      <trkpt lat="47.00951" lon="6.02337">
        <ele>456.76355</ele>
        <time>2012-06-21T11:13:19Z</time>
      </trkpt>
      <trkpt lat="47.00952" lon="6.02351">
        <ele>456.76355</ele>
        <time>2012-06-21T11:13:26Z</time>
      </trkpt>
      <trkpt lat="47.00952" lon="6.02359">
        <ele>457.244263</ele>
        <time>2012-06-21T11:13:29Z</time>
      </trkpt>
      <trkpt lat="47.00954" lon="6.02366">
        <ele>457.244263</ele>
        <time>2012-06-21T11:13:33Z</time>
      </trkpt>
      <trkpt lat="47.00953" lon="6.02373">
        <ele>457.244263</ele>
        <time>2012-06-21T11:13:37Z</time>
      </trkpt>
      <trkpt lat="47.00952" lon="6.02381">
        <ele>457.724976</ele>
        <time>2012-06-21T11:13:42Z</time>
      </trkpt>
      <trkpt lat="47.0095" lon="6.0239">
        <ele>457.724976</ele>
        <time>2012-06-21T11:13:45Z</time>
      </trkpt>
      <trkpt lat="47.0096" lon="6.02441">
        <ele>458.686157</ele>
        <time>2012-06-21T11:14:14Z</time>
      </trkpt>
      <trkpt lat="47.00958" lon="6.02479">
        <ele>459.647583</ele>
        <time>2012-06-21T11:14:38Z</time>
      </trkpt>
      <trkpt lat="47.00957" lon="6.02483">
        <ele>460.608765</ele>
        <time>2012-06-21T11:14:41Z</time>
      </trkpt>
      <trkpt lat="47.00956" lon="6.02489">
        <ele>460.128174</ele>
        <time>2012-06-21T11:14:44Z</time>
      </trkpt>
      <trkpt lat="47.00955" lon="6.025">
        <ele>460.128174</ele>
        <time>2012-06-21T11:14:49Z</time>
      </trkpt>
      <trkpt lat="47.00953" lon="6.02505">
        <ele>460.608765</ele>
        <time>2012-06-21T11:14:52Z</time>
      </trkpt>
      <trkpt lat="47.00952" lon="6.02513">
        <ele>460.608765</ele>
        <time>2012-06-21T11:14:55Z</time>
      </trkpt>
      <trkpt lat="47.00945" lon="6.02534">
        <ele>461.089478</ele>
        <time>2012-06-21T11:15:08Z</time>
      </trkpt>
      <trkpt lat="47.00934" lon="6.02562">
        <ele>461.089478</ele>
        <time>2012-06-21T11:15:25Z</time>
      </trkpt>
      <trkpt lat="47.00925" lon="6.02581">
        <ele>461.57019</ele>
        <time>2012-06-21T11:15:38Z</time>
      </trkpt>
      <trkpt lat="47.00925" lon="6.02583">
        <ele>461.57019</ele>
        <time>2012-06-21T11:15:39Z</time>
      </trkpt>
      <trkpt lat="47.00909" lon="6.02606">
        <ele>462.050781</ele>
        <time>2012-06-21T11:15:55Z</time>
      </trkpt>
      <trkpt lat="47.00894" lon="6.02629">
        <ele>462.531372</ele>
        <time>2012-06-21T11:16:12Z</time>
      </trkpt>
      <trkpt lat="47.0088" lon="6.02655">
        <ele>462.531372</ele>
        <time>2012-06-21T11:16:31Z</time>
      </trkpt>
      <trkpt lat="47.0087" lon="6.02671">
        <ele>463.012085</ele>
        <time>2012-06-21T11:16:45Z</time>
      </trkpt>
      <trkpt lat="47.00862" lon="6.02689">
        <ele>463.492798</ele>
        <time>2012-06-21T11:16:59Z</time>
      </trkpt>
      <trkpt lat="47.0086" lon="6.02696">
        <ele>463.492798</ele>
        <time>2012-06-21T11:17:02Z</time>
      </trkpt>
      <trkpt lat="47.00852" lon="6.02715">
        <ele>463.492798</ele>
        <time>2012-06-21T11:17:15Z</time>
      </trkpt>
      <trkpt lat="47.00841" lon="6.02737">
        <ele>463.012085</ele>
        <time>2012-06-21T11:17:30Z</time>
      </trkpt>
      <trkpt lat="47.00836" lon="6.02749">
        <ele>463.012085</ele>
        <time>2012-06-21T11:17:40Z</time>
      </trkpt>
      <trkpt lat="47.00833" lon="6.02759">
        <ele>463.012085</ele>
        <time>2012-06-21T11:17:59Z</time>
      </trkpt>
      <trkpt lat="47.00825" lon="6.02778">
        <ele>463.012085</ele>
        <time>2012-06-21T11:18:15Z</time>
      </trkpt>
      <trkpt lat="47.00822" lon="6.02783">
        <ele>463.492798</ele>
        <time>2012-06-21T11:18:34Z</time>
      </trkpt>
      <trkpt lat="47.00822" lon="6.02784">
        <ele>464.934814</ele>
        <time>2012-06-21T11:19:05Z</time>
      </trkpt>
      <trkpt lat="47.00821" lon="6.02784">
        <ele>466.376709</ele>
        <time>2012-06-21T11:19:50Z</time>
      </trkpt>
      <trkpt lat="47.00818" lon="6.02789">
        <ele>467.338135</ele>
        <time>2012-06-21T11:20:36Z</time>
      </trkpt>
      <trkpt lat="47.00815" lon="6.02794">
        <ele>468.299316</ele>
        <time>2012-06-21T11:21:08Z</time>
      </trkpt>
      <trkpt lat="47.00817" lon="6.02795">
        <ele>468.780029</ele>
        <time>2012-06-21T11:21:30Z</time>
      </trkpt>
      <trkpt lat="47.00812" lon="6.02806">
        <ele>470.702637</ele>
        <time>2012-06-21T11:22:46Z</time>
      </trkpt>
      <trkpt lat="47.00805" lon="6.02828">
        <ele>470.702637</ele>
        <time>2012-06-21T11:23:12Z</time>
      </trkpt>
      <trkpt lat="47.00798" lon="6.02846">
        <ele>470.702637</ele>
        <time>2012-06-21T11:23:26Z</time>
      </trkpt>
      <trkpt lat="47.00797" lon="6.02849">
        <ele>470.702637</ele>
        <time>2012-06-21T11:23:28Z</time>
      </trkpt>
      <trkpt lat="47.00787" lon="6.02882">
        <ele>471.18335</ele>
        <time>2012-06-21T11:23:46Z</time>
      </trkpt>
      <trkpt lat="47.00779" lon="6.02907">
        <ele>470.702637</ele>
        <time>2012-06-21T11:24:00Z</time>
      </trkpt>
      <trkpt lat="47.00777" lon="6.02916">
        <ele>471.18335</ele>
        <time>2012-06-21T11:24:06Z</time>
      </trkpt>
      <trkpt lat="47.00775" lon="6.02922">
        <ele>471.18335</ele>
        <time>2012-06-21T11:24:09Z</time>
      </trkpt>
      <trkpt lat="47.00772" lon="6.02927">
        <ele>471.66394</ele>
        <time>2012-06-21T11:24:13Z</time>
      </trkpt>
      <trkpt lat="47.00772" lon="6.0293">
        <ele>471.66394</ele>
        <time>2012-06-21T11:24:15Z</time>
      </trkpt>
      <trkpt lat="47.00766" lon="6.02939">
        <ele>471.66394</ele>
        <time>2012-06-21T11:24:30Z</time>
      </trkpt>
      <trkpt lat="47.00756" lon="6.02936">
        <ele>472.144653</ele>
        <time>2012-06-21T11:24:42Z</time>
      </trkpt>
      <trkpt lat="47.00742" lon="6.02936">
        <ele>473.58667</ele>
        <time>2012-06-21T11:24:51Z</time>
      </trkpt>
      <trkpt lat="47.00734" lon="6.02935">
        <ele>473.106079</ele>
        <time>2012-06-21T11:24:58Z</time>
      </trkpt>
      <trkpt lat="47.00716" lon="6.02929">
        <ele>471.66394</ele>
        <time>2012-06-21T11:25:17Z</time>
      </trkpt>
      <trkpt lat="47.007" lon="6.02927">
        <ele>470.702637</ele>
        <time>2012-06-21T11:25:31Z</time>
      </trkpt>
      <trkpt lat="47.00687" lon="6.02935">
        <ele>469.260742</ele>
        <time>2012-06-21T11:25:44Z</time>
      </trkpt>
      <trkpt lat="47.00674" lon="6.02937">
        <ele>467.818726</ele>
        <time>2012-06-21T11:26:02Z</time>
      </trkpt>
      <trkpt lat="47.00669" lon="6.02935">
        <ele>466.376709</ele>
        <time>2012-06-21T11:26:21Z</time>
      </trkpt>
      <trkpt lat="47.00663" lon="6.02936">
        <ele>464.454102</ele>
        <time>2012-06-21T11:26:28Z</time>
      </trkpt>
      <trkpt lat="47.00654" lon="6.02945">
        <ele>461.57019</ele>
        <time>2012-06-21T11:26:44Z</time>
      </trkpt>
      <trkpt lat="47.0065" lon="6.02949">
        <ele>460.608765</ele>
        <time>2012-06-21T11:26:50Z</time>
      </trkpt>
      <trkpt lat="47.00642" lon="6.02957">
        <ele>460.608765</ele>
        <time>2012-06-21T11:26:58Z</time>
      </trkpt>
      <trkpt lat="47.00641" lon="6.0296">
        <ele>460.608765</ele>
        <time>2012-06-21T11:27:00Z</time>
      </trkpt>
      <trkpt lat="47.00633" lon="6.02971">
        <ele>461.089478</ele>
        <time>2012-06-21T11:27:08Z</time>
      </trkpt>
      <trkpt lat="47.00621" lon="6.02992">
        <ele>462.050781</ele>
        <time>2012-06-21T11:27:24Z</time>
      </trkpt>
      <trkpt lat="47.00619" lon="6.02995">
        <ele>462.050781</ele>
        <time>2012-06-21T11:27:26Z</time>
      </trkpt>
      <trkpt lat="47.00618" lon="6.03006">
        <ele>462.050781</ele>
        <time>2012-06-21T11:27:35Z</time>
      </trkpt>
      <trkpt lat="47.00618" lon="6.03017">
        <ele>462.050781</ele>
        <time>2012-06-21T11:27:42Z</time>
      </trkpt>
      <trkpt lat="47.00619" lon="6.03034">
        <ele>462.531372</ele>
        <time>2012-06-21T11:27:54Z</time>
      </trkpt>
      <trkpt lat="47.0062" lon="6.03037">
        <ele>462.531372</ele>
        <time>2012-06-21T11:27:56Z</time>
      </trkpt>
      <trkpt lat="47.00612" lon="6.03068">
        <ele>462.531372</ele>
        <time>2012-06-21T11:28:10Z</time>
      </trkpt>
      <trkpt lat="47.00603" lon="6.03088">
        <ele>463.492798</ele>
        <time>2012-06-21T11:28:26Z</time>
      </trkpt>
      <trkpt lat="47.00587" lon="6.031">
        <ele>464.454102</ele>
        <time>2012-06-21T11:28:49Z</time>
      </trkpt>
      <trkpt lat="47.00556" lon="6.03106">
        <ele>466.857422</ele>
        <time>2012-06-21T11:29:16Z</time>
      </trkpt>
      <trkpt lat="47.0055" lon="6.03102">
        <ele>467.338135</ele>
        <time>2012-06-21T11:29:21Z</time>
      </trkpt>
      <trkpt lat="47.00534" lon="6.03089">
        <ele>468.299316</ele>
        <time>2012-06-21T11:29:36Z</time>
      </trkpt>
      <trkpt lat="47.00532" lon="6.03088">
        <ele>468.780029</ele>
        <time>2012-06-21T11:29:38Z</time>
      </trkpt>
      <trkpt lat="47.00511" lon="6.03076">
        <ele>471.66394</ele>
        <time>2012-06-21T11:30:00Z</time>
      </trkpt>
      <trkpt lat="47.00486" lon="6.03082">
        <ele>474.547974</ele>
        <time>2012-06-21T11:30:22Z</time>
      </trkpt>
      <trkpt lat="47.00467" lon="6.03088">
        <ele>475.989868</ele>
        <time>2012-06-21T11:30:40Z</time>
      </trkpt>
      <trkpt lat="47.00443" lon="6.03085">
        <ele>478.873901</ele>
        <time>2012-06-21T11:31:01Z</time>
      </trkpt>
      <trkpt lat="47.00423" lon="6.03081">
        <ele>481.757813</ele>
        <time>2012-06-21T11:31:24Z</time>
      </trkpt>
      <trkpt lat="47.00405" lon="6.03075">
        <ele>485.122437</ele>
        <time>2012-06-21T11:31:45Z</time>
      </trkpt>
      <trkpt lat="47.00384" lon="6.03074">
        <ele>488.487183</ele>
        <time>2012-06-21T11:32:04Z</time>
      </trkpt>
      <trkpt lat="47.00366" lon="6.03073">
        <ele>490.890381</ele>
        <time>2012-06-21T11:32:24Z</time>
      </trkpt>
      <trkpt lat="47.00349" lon="6.03072">
        <ele>492.332397</ele>
        <time>2012-06-21T11:32:39Z</time>
      </trkpt>
      <trkpt lat="47.00346" lon="6.03072">
        <ele>492.812988</ele>
        <time>2012-06-21T11:32:43Z</time>
      </trkpt>
      <trkpt lat="47.00326" lon="6.03073">
        <ele>494.735596</ele>
        <time>2012-06-21T11:32:59Z</time>
      </trkpt>
      <trkpt lat="47.00325" lon="6.03074">
        <ele>494.735596</ele>
        <time>2012-06-21T11:33:01Z</time>
      </trkpt>
      <trkpt lat="47.00312" lon="6.03079">
        <ele>496.658325</ele>
        <time>2012-06-21T11:33:14Z</time>
      </trkpt>
      <trkpt lat="47.00299" lon="6.03085">
        <ele>499.061523</ele>
        <time>2012-06-21T11:33:29Z</time>
      </trkpt>
      <trkpt lat="47.00293" lon="6.03086">
        <ele>499.061523</ele>
        <time>2012-06-21T11:33:34Z</time>
      </trkpt>
      <trkpt lat="47.00284" lon="6.03098">
        <ele>500.984131</ele>
        <time>2012-06-21T11:33:50Z</time>
      </trkpt>
      <trkpt lat="47.00278" lon="6.03104">
        <ele>502.906738</ele>
        <time>2012-06-21T11:34:06Z</time>
      </trkpt>
      <trkpt lat="47.00266" lon="6.03113">
        <ele>504.829468</ele>
        <time>2012-06-21T11:34:28Z</time>
      </trkpt>
      <trkpt lat="47.00255" lon="6.0313">
        <ele>507.713501</ele>
        <time>2012-06-21T11:34:50Z</time>
      </trkpt>
      <trkpt lat="47.00249" lon="6.03143">
        <ele>510.116699</ele>
        <time>2012-06-21T11:35:08Z</time>
      </trkpt>
      <trkpt lat="47.0024" lon="6.03157">
        <ele>513.481445</ele>
        <time>2012-06-21T11:35:27Z</time>
      </trkpt>
      <trkpt lat="47.00232" lon="6.03151">
        <ele>516.365234</ele>
        <time>2012-06-21T11:35:45Z</time>
      </trkpt>
      <trkpt lat="47.00219" lon="6.03141">
        <ele>519.249268</ele>
        <time>2012-06-21T11:36:03Z</time>
      </trkpt>
      <trkpt lat="47.00203" lon="6.03134">
        <ele>521.171997</ele>
        <time>2012-06-21T11:36:23Z</time>
      </trkpt>
      <trkpt lat="47.00185" lon="6.03141">
        <ele>523.094604</ele>
        <time>2012-06-21T11:36:51Z</time>
      </trkpt>
      <trkpt lat="47.0018" lon="6.0314">
        <ele>525.978394</ele>
        <time>2012-06-21T11:37:15Z</time>
      </trkpt>
      <trkpt lat="47.00179" lon="6.0314">
        <ele>525.497803</ele>
        <time>2012-06-21T11:37:17Z</time>
      </trkpt>
      <trkpt lat="47.00169" lon="6.03135">
        <ele>526.939819</ele>
        <time>2012-06-21T11:37:33Z</time>
      </trkpt>
      <trkpt lat="47.00159" lon="6.0314">
        <ele>530.304443</ele>
        <time>2012-06-21T11:37:47Z</time>
      </trkpt>
      <trkpt lat="47.00145" lon="6.03129">
        <ele>533.188354</ele>
        <time>2012-06-21T11:38:07Z</time>
      </trkpt>
      <trkpt lat="47.00125" lon="6.0312">
        <ele>536.072388</ele>
        <time>2012-06-21T11:38:33Z</time>
      </trkpt>
      <trkpt lat="47.00103" lon="6.0312">
        <ele>539.43689</ele>
        <time>2012-06-21T11:38:57Z</time>
      </trkpt>
      <trkpt lat="47.00085" lon="6.03108">
        <ele>542.320923</ele>
        <time>2012-06-21T11:39:24Z</time>
      </trkpt>
      <trkpt lat="47.0006" lon="6.03081">
        <ele>545.685547</ele>
        <time>2012-06-21T11:39:55Z</time>
      </trkpt>
      <trkpt lat="47.00047" lon="6.03063">
        <ele>548.569336</ele>
        <time>2012-06-21T11:40:17Z</time>
      </trkpt>
      <trkpt lat="47.0003" lon="6.03042">
        <ele>551.453369</ele>
        <time>2012-06-21T11:40:44Z</time>
      </trkpt>
      <trkpt lat="47.00013" lon="6.03028">
        <ele>554.337402</ele>
        <time>2012-06-21T11:41:05Z</time>
      </trkpt>
      <trkpt lat="46.99998" lon="6.03009">
        <ele>557.221436</ele>
        <time>2012-06-21T11:41:25Z</time>
      </trkpt>
      <trkpt lat="46.99988" lon="6.02998">
        <ele>560.105225</ele>
        <time>2012-06-21T11:41:44Z</time>
      </trkpt>
      <trkpt lat="46.99971" lon="6.02981">
        <ele>563.469971</ele>
        <time>2012-06-21T11:42:07Z</time>
      </trkpt>
      <trkpt lat="46.99958" lon="6.0296">
        <ele>566.834473</ele>
        <time>2012-06-21T11:42:29Z</time>
      </trkpt>
      <trkpt lat="46.99942" lon="6.02939">
        <ele>568.276367</ele>
        <time>2012-06-21T11:42:54Z</time>
      </trkpt>
      <trkpt lat="46.99946" lon="6.0294">
        <ele>569.237793</ele>
        <time>2012-06-21T11:43:39Z</time>
      </trkpt>
      <trkpt lat="46.99946" lon="6.02942">
        <ele>572.121826</ele>
        <time>2012-06-21T11:46:13Z</time>
      </trkpt>
      <trkpt lat="46.99934" lon="6.02941">
        <ele>573.563965</ele>
        <time>2012-06-21T11:46:28Z</time>
      </trkpt>
      <trkpt lat="46.99932" lon="6.02942">
        <ele>573.563965</ele>
        <time>2012-06-21T11:46:29Z</time>
      </trkpt>
      <trkpt lat="46.99929" lon="6.02941">
        <ele>573.563965</ele>
        <time>2012-06-21T11:46:32Z</time>
      </trkpt>
      <trkpt lat="46.99925" lon="6.02942">
        <ele>574.044434</ele>
        <time>2012-06-21T11:46:37Z</time>
      </trkpt>
      <trkpt lat="46.99902" lon="6.02943">
        <ele>575.486328</ele>
        <time>2012-06-21T11:46:56Z</time>
      </trkpt>
      <trkpt lat="46.99875" lon="6.02944">
        <ele>576.928467</ele>
        <time>2012-06-21T11:47:16Z</time>
      </trkpt>
      <trkpt lat="46.99851" lon="6.02942">
        <ele>578.370361</ele>
        <time>2012-06-21T11:47:33Z</time>
      </trkpt>
      <trkpt lat="46.99823" lon="6.02937">
        <ele>579.812256</ele>
        <time>2012-06-21T11:47:53Z</time>
      </trkpt>
      <trkpt lat="46.99799" lon="6.02935">
        <ele>581.254395</ele>
        <time>2012-06-21T11:48:13Z</time>
      </trkpt>
      <trkpt lat="46.99783" lon="6.02936">
        <ele>582.696289</ele>
        <time>2012-06-21T11:48:27Z</time>
      </trkpt>
      <trkpt lat="46.99756" lon="6.02945">
        <ele>584.138184</ele>
        <time>2012-06-21T11:48:50Z</time>
      </trkpt>
      <trkpt lat="46.99726" lon="6.02964">
        <ele>585.580078</ele>
        <time>2012-06-21T11:49:18Z</time>
      </trkpt>
      <trkpt lat="46.99703" lon="6.02987">
        <ele>587.021973</ele>
        <time>2012-06-21T11:49:44Z</time>
      </trkpt>
      <trkpt lat="46.99686" lon="6.0302">
        <ele>588.464355</ele>
        <time>2012-06-21T11:50:06Z</time>
      </trkpt>
      <trkpt lat="46.99666" lon="6.03054">
        <ele>589.90625</ele>
        <time>2012-06-21T11:50:31Z</time>
      </trkpt>
      <trkpt lat="46.9965" lon="6.03082">
        <ele>591.348145</ele>
        <time>2012-06-21T11:50:52Z</time>
      </trkpt>
      <trkpt lat="46.99629" lon="6.03118">
        <ele>593.270752</ele>
        <time>2012-06-21T11:51:19Z</time>
      </trkpt>
      <trkpt lat="46.99609" lon="6.03143">
        <ele>594.712646</ele>
        <time>2012-06-21T11:51:41Z</time>
      </trkpt>
      <trkpt lat="46.9958" lon="6.03164">
        <ele>597.115967</ele>
        <time>2012-06-21T11:52:09Z</time>
      </trkpt>
      <trkpt lat="46.99566" lon="6.03164">
        <ele>598.077393</ele>
        <time>2012-06-21T11:52:27Z</time>
      </trkpt>
      <trkpt lat="46.99553" lon="6.03138">
        <ele>598.557861</ele>
        <time>2012-06-21T11:52:46Z</time>
      </trkpt>
      <trkpt lat="46.99548" lon="6.03113">
        <ele>598.557861</ele>
        <time>2012-06-21T11:52:58Z</time>
      </trkpt>
      <trkpt lat="46.9954" lon="6.03089">
        <ele>599.519287</ele>
        <time>2012-06-21T11:53:11Z</time>
      </trkpt>
      <trkpt lat="46.99536" lon="6.03055">
        <ele>600</ele>
        <time>2012-06-21T11:53:30Z</time>
      </trkpt>
      <trkpt lat="46.99531" lon="6.03028">
        <ele>600</ele>
        <time>2012-06-21T11:53:45Z</time>
      </trkpt>
      <trkpt lat="46.99533" lon="6.03009">
        <ele>600.961182</ele>
        <time>2012-06-21T11:53:53Z</time>
      </trkpt>
      <trkpt lat="46.99527" lon="6.02968">
        <ele>600.480713</ele>
        <time>2012-06-21T11:54:15Z</time>
      </trkpt>
      <trkpt lat="46.99517" lon="6.0292">
        <ele>600</ele>
        <time>2012-06-21T11:54:41Z</time>
      </trkpt>
      <trkpt lat="46.99508" lon="6.02868">
        <ele>600</ele>
        <time>2012-06-21T11:55:08Z</time>
      </trkpt>
      <trkpt lat="46.99504" lon="6.02848">
        <ele>599.038574</ele>
        <time>2012-06-21T11:55:20Z</time>
      </trkpt>
      <trkpt lat="46.99503" lon="6.02841">
        <ele>598.557861</ele>
        <time>2012-06-21T11:55:24Z</time>
      </trkpt>
      <trkpt lat="46.99497" lon="6.0282">
        <ele>598.077393</ele>
        <time>2012-06-21T11:55:35Z</time>
      </trkpt>
      <trkpt lat="46.99489" lon="6.02793">
        <ele>597.115967</ele>
        <time>2012-06-21T11:55:50Z</time>
      </trkpt>
      <trkpt lat="46.9948" lon="6.02761">
        <ele>597.115967</ele>
        <time>2012-06-21T11:56:06Z</time>
      </trkpt>
      <trkpt lat="46.99475" lon="6.02743">
        <ele>598.077393</ele>
        <time>2012-06-21T11:56:17Z</time>
      </trkpt>
      <trkpt lat="46.99469" lon="6.02708">
        <ele>598.557861</ele>
        <time>2012-06-21T11:56:36Z</time>
      </trkpt>
      <trkpt lat="46.99467" lon="6.02683">
        <ele>598.557861</ele>
        <time>2012-06-21T11:56:49Z</time>
      </trkpt>
      <trkpt lat="46.99468" lon="6.02656">
        <ele>597.115967</ele>
        <time>2012-06-21T11:57:02Z</time>
      </trkpt>
      <trkpt lat="46.99468" lon="6.02654">
        <ele>597.115967</ele>
        <time>2012-06-21T11:57:03Z</time>
      </trkpt>
      <trkpt lat="46.99469" lon="6.02634">
        <ele>596.635498</ele>
        <time>2012-06-21T11:57:13Z</time>
      </trkpt>
      <trkpt lat="46.99469" lon="6.02595">
        <ele>596.635498</ele>
        <time>2012-06-21T11:57:31Z</time>
      </trkpt>
      <trkpt lat="46.99471" lon="6.02558">
        <ele>597.115967</ele>
        <time>2012-06-21T11:57:51Z</time>
      </trkpt>
      <trkpt lat="46.99472" lon="6.02549">
        <ele>597.115967</ele>
        <time>2012-06-21T11:57:55Z</time>
      </trkpt>
      <trkpt lat="46.99472" lon="6.0254">
        <ele>598.077393</ele>
        <time>2012-06-21T11:57:59Z</time>
      </trkpt>
      <trkpt lat="46.99472" lon="6.02536">
        <ele>598.077393</ele>
        <time>2012-06-21T11:58:01Z</time>
      </trkpt>
      <trkpt lat="46.99475" lon="6.02498">
        <ele>598.077393</ele>
        <time>2012-06-21T11:58:21Z</time>
      </trkpt>
      <trkpt lat="46.99478" lon="6.02456">
        <ele>597.59668</ele>
        <time>2012-06-21T11:58:44Z</time>
      </trkpt>
      <trkpt lat="46.99481" lon="6.02424">
        <ele>597.115967</ele>
        <time>2012-06-21T11:59:01Z</time>
      </trkpt>
      <trkpt lat="46.99481" lon="6.02391">
        <ele>596.635498</ele>
        <time>2012-06-21T11:59:18Z</time>
      </trkpt>
      <trkpt lat="46.99484" lon="6.02349">
        <ele>596.635498</ele>
        <time>2012-06-21T11:59:38Z</time>
      </trkpt>
      <trkpt lat="46.99483" lon="6.02305">
        <ele>597.59668</ele>
        <time>2012-06-21T12:00:00Z</time>
      </trkpt>
      <trkpt lat="46.99481" lon="6.02274">
        <ele>599.038574</ele>
        <time>2012-06-21T12:00:17Z</time>
      </trkpt>
      <trkpt lat="46.99476" lon="6.02241">
        <ele>600.480713</ele>
        <time>2012-06-21T12:00:35Z</time>
      </trkpt>
      <trkpt lat="46.9947" lon="6.02222">
        <ele>600.961182</ele>
        <time>2012-06-21T12:00:46Z</time>
      </trkpt>
      <trkpt lat="46.9946" lon="6.02207">
        <ele>602.883789</ele>
        <time>2012-06-21T12:00:59Z</time>
      </trkpt>
      <trkpt lat="46.99453" lon="6.02185">
        <ele>601.922607</ele>
        <time>2012-06-21T12:01:11Z</time>
      </trkpt>
      <trkpt lat="46.99449" lon="6.02168">
        <ele>602.883789</ele>
        <time>2012-06-21T12:01:20Z</time>
      </trkpt>
      <trkpt lat="46.99447" lon="6.02161">
        <ele>602.883789</ele>
        <time>2012-06-21T12:01:24Z</time>
      </trkpt>
      <trkpt lat="46.99439" lon="6.02135">
        <ele>603.364502</ele>
        <time>2012-06-21T12:01:40Z</time>
      </trkpt>
      <trkpt lat="46.99431" lon="6.02112">
        <ele>603.845215</ele>
        <time>2012-06-21T12:01:52Z</time>
      </trkpt>
      <trkpt lat="46.99428" lon="6.02088">
        <ele>604.326172</ele>
        <time>2012-06-21T12:02:05Z</time>
      </trkpt>
      <trkpt lat="46.99421" lon="6.0206">
        <ele>604.326172</ele>
        <time>2012-06-21T12:02:19Z</time>
      </trkpt>
      <trkpt lat="46.99416" lon="6.02032">
        <ele>604.326172</ele>
        <time>2012-06-21T12:02:34Z</time>
      </trkpt>
      <trkpt lat="46.99413" lon="6.02004">
        <ele>604.326172</ele>
        <time>2012-06-21T12:02:49Z</time>
      </trkpt>
      <trkpt lat="46.99409" lon="6.01978">
        <ele>604.326172</ele>
        <time>2012-06-21T12:03:02Z</time>
      </trkpt>
      <trkpt lat="46.99407" lon="6.01966">
        <ele>604.326172</ele>
        <time>2012-06-21T12:03:08Z</time>
      </trkpt>
      <trkpt lat="46.99406" lon="6.01935">
        <ele>603.364502</ele>
        <time>2012-06-21T12:03:24Z</time>
      </trkpt>
      <trkpt lat="46.99407" lon="6.01929">
        <ele>603.364502</ele>
        <time>2012-06-21T12:03:28Z</time>
      </trkpt>
      <trkpt lat="46.99406" lon="6.01925">
        <ele>603.364502</ele>
        <time>2012-06-21T12:03:30Z</time>
      </trkpt>
      <trkpt lat="46.99404" lon="6.01884">
        <ele>601.922607</ele>
        <time>2012-06-21T12:03:51Z</time>
      </trkpt>
      <trkpt lat="46.99402" lon="6.01856">
        <ele>601.922607</ele>
        <time>2012-06-21T12:04:02Z</time>
      </trkpt>
      <trkpt lat="46.99401" lon="6.01823">
        <ele>601.441895</ele>
        <time>2012-06-21T12:04:20Z</time>
      </trkpt>
      <trkpt lat="46.99402" lon="6.01817">
        <ele>601.441895</ele>
        <time>2012-06-21T12:04:23Z</time>
      </trkpt>
      <trkpt lat="46.994" lon="6.01813">
        <ele>601.441895</ele>
        <time>2012-06-21T12:04:25Z</time>
      </trkpt>
      <trkpt lat="46.99399" lon="6.01802">
        <ele>601.922607</ele>
        <time>2012-06-21T12:04:31Z</time>
      </trkpt>
      <trkpt lat="46.99399" lon="6.01791">
        <ele>601.922607</ele>
        <time>2012-06-21T12:04:38Z</time>
      </trkpt>
      <trkpt lat="46.99397" lon="6.01773">
        <ele>602.883789</ele>
        <time>2012-06-21T12:04:49Z</time>
      </trkpt>
      <trkpt lat="46.99398" lon="6.01764">
        <ele>602.883789</ele>
        <time>2012-06-21T12:04:54Z</time>
      </trkpt>
      <trkpt lat="46.99395" lon="6.01752">
        <ele>603.845215</ele>
        <time>2012-06-21T12:05:03Z</time>
      </trkpt>
      <trkpt lat="46.99393" lon="6.01744">
        <ele>603.845215</ele>
        <time>2012-06-21T12:05:08Z</time>
      </trkpt>
      <trkpt lat="46.99392" lon="6.01732">
        <ele>604.326172</ele>
        <time>2012-06-21T12:05:15Z</time>
      </trkpt>
      <trkpt lat="46.99393" lon="6.01707">
        <ele>604.326172</ele>
        <time>2012-06-21T12:05:24Z</time>
      </trkpt>
      <trkpt lat="46.99391" lon="6.01685">
        <ele>605.287354</ele>
        <time>2012-06-21T12:05:37Z</time>
      </trkpt>
      <trkpt lat="46.9939" lon="6.01668">
        <ele>605.287354</ele>
        <time>2012-06-21T12:05:45Z</time>
      </trkpt>
      <trkpt lat="46.99389" lon="6.01659">
        <ele>605.287354</ele>
        <time>2012-06-21T12:05:50Z</time>
      </trkpt>
      <trkpt lat="46.9939" lon="6.01645">
        <ele>605.768066</ele>
        <time>2012-06-21T12:05:57Z</time>
      </trkpt>
      <trkpt lat="46.99386" lon="6.01605">
        <ele>606.248535</ele>
        <time>2012-06-21T12:06:16Z</time>
      </trkpt>
      <trkpt lat="46.99381" lon="6.01576">
        <ele>607.209961</ele>
        <time>2012-06-21T12:06:30Z</time>
      </trkpt>
      <trkpt lat="46.99375" lon="6.01546">
        <ele>608.171387</ele>
        <time>2012-06-21T12:06:45Z</time>
      </trkpt>
      <trkpt lat="46.99373" lon="6.01533">
        <ele>608.651855</ele>
        <time>2012-06-21T12:06:52Z</time>
      </trkpt>
      <trkpt lat="46.99371" lon="6.01515">
        <ele>609.132568</ele>
        <time>2012-06-21T12:07:01Z</time>
      </trkpt>
      <trkpt lat="46.99366" lon="6.01486">
        <ele>609.132568</ele>
        <time>2012-06-21T12:07:17Z</time>
      </trkpt>
      <trkpt lat="46.99365" lon="6.01479">
        <ele>609.132568</ele>
        <time>2012-06-21T12:07:21Z</time>
      </trkpt>
      <trkpt lat="46.99357" lon="6.0144">
        <ele>609.132568</ele>
        <time>2012-06-21T12:07:43Z</time>
      </trkpt>
      <trkpt lat="46.99343" lon="6.01406">
        <ele>609.132568</ele>
        <time>2012-06-21T12:08:03Z</time>
      </trkpt>
      <trkpt lat="46.9934" lon="6.01403">
        <ele>609.613281</ele>
        <time>2012-06-21T12:08:07Z</time>
      </trkpt>
      <trkpt lat="46.99333" lon="6.01392">
        <ele>608.651855</ele>
        <time>2012-06-21T12:08:14Z</time>
      </trkpt>
      <trkpt lat="46.99331" lon="6.0138">
        <ele>609.132568</ele>
        <time>2012-06-21T12:08:21Z</time>
      </trkpt>
      <trkpt lat="46.99328" lon="6.01376">
        <ele>609.132568</ele>
        <time>2012-06-21T12:08:26Z</time>
      </trkpt>
      <trkpt lat="46.99326" lon="6.01373">
        <ele>608.651855</ele>
        <time>2012-06-21T12:08:28Z</time>
      </trkpt>
      <trkpt lat="46.99321" lon="6.0134">
        <ele>608.171387</ele>
        <time>2012-06-21T12:08:49Z</time>
      </trkpt>
      <trkpt lat="46.99321" lon="6.01322">
        <ele>608.171387</ele>
        <time>2012-06-21T12:08:54Z</time>
      </trkpt>
      <trkpt lat="46.99314" lon="6.0129">
        <ele>607.209961</ele>
        <time>2012-06-21T12:09:12Z</time>
      </trkpt>
      <trkpt lat="46.99298" lon="6.0126">
        <ele>606.729248</ele>
        <time>2012-06-21T12:09:30Z</time>
      </trkpt>
      <trkpt lat="46.9928" lon="6.01236">
        <ele>606.729248</ele>
        <time>2012-06-21T12:09:46Z</time>
      </trkpt>
      <trkpt lat="46.99265" lon="6.0119">
        <ele>606.248535</ele>
        <time>2012-06-21T12:10:11Z</time>
      </trkpt>
      <trkpt lat="46.99248" lon="6.01154">
        <ele>606.248535</ele>
        <time>2012-06-21T12:10:42Z</time>
      </trkpt>
      <trkpt lat="46.9924" lon="6.01128">
        <ele>606.248535</ele>
        <time>2012-06-21T12:10:58Z</time>
      </trkpt>
      <trkpt lat="46.99232" lon="6.01099">
        <ele>606.248535</ele>
        <time>2012-06-21T12:11:19Z</time>
      </trkpt>
      <trkpt lat="46.99234" lon="6.01076">
        <ele>606.248535</ele>
        <time>2012-06-21T12:11:39Z</time>
      </trkpt>
      <trkpt lat="46.99239" lon="6.01069">
        <ele>605.768066</ele>
        <time>2012-06-21T12:11:44Z</time>
      </trkpt>
      <trkpt lat="46.99239" lon="6.01054">
        <ele>604.806641</ele>
        <time>2012-06-21T12:11:59Z</time>
      </trkpt>
      <trkpt lat="46.99247" lon="6.01048">
        <ele>606.248535</ele>
        <time>2012-06-21T12:12:15Z</time>
      </trkpt>
      <trkpt lat="46.99247" lon="6.01052">
        <ele>607.209961</ele>
        <time>2012-06-21T12:14:00Z</time>
      </trkpt>
      <trkpt lat="46.99239" lon="6.01081">
        <ele>608.651855</ele>
        <time>2012-06-21T12:15:47Z</time>
      </trkpt>
      <trkpt lat="46.9924" lon="6.0112">
        <ele>609.613281</ele>
        <time>2012-06-21T12:16:09Z</time>
      </trkpt>
      <trkpt lat="46.99252" lon="6.01154">
        <ele>610.574463</ele>
        <time>2012-06-21T12:16:34Z</time>
      </trkpt>
      <trkpt lat="46.99257" lon="6.01164">
        <ele>612.016602</ele>
        <time>2012-06-21T12:16:51Z</time>
      </trkpt>
      <trkpt lat="46.99238" lon="6.01157">
        <ele>614.419678</ele>
        <time>2012-06-21T12:17:13Z</time>
      </trkpt>
      <trkpt lat="46.99216" lon="6.01146">
        <ele>617.78418</ele>
        <time>2012-06-21T12:17:34Z</time>
      </trkpt>
      <trkpt lat="46.99198" lon="6.01149">
        <ele>619.226318</ele>
        <time>2012-06-21T12:17:54Z</time>
      </trkpt>
      <trkpt lat="46.99175" lon="6.01127">
        <ele>621.629639</ele>
        <time>2012-06-21T12:18:21Z</time>
      </trkpt>
      <trkpt lat="46.99159" lon="6.01126">
        <ele>623.55249</ele>
        <time>2012-06-21T12:18:41Z</time>
      </trkpt>
      <trkpt lat="46.99138" lon="6.01116">
        <ele>625.474854</ele>
        <time>2012-06-21T12:19:03Z</time>
      </trkpt>
      <trkpt lat="46.99116" lon="6.0113">
        <ele>626.916992</ele>
        <time>2012-06-21T12:19:22Z</time>
      </trkpt>
      <trkpt lat="46.99102" lon="6.0115">
        <ele>628.358887</ele>
        <time>2012-06-21T12:19:39Z</time>
      </trkpt>
      <trkpt lat="46.99103" lon="6.01172">
        <ele>631.24292</ele>
        <time>2012-06-21T12:19:57Z</time>
      </trkpt>
      <trkpt lat="46.99101" lon="6.01189">
        <ele>634.126709</ele>
        <time>2012-06-21T12:20:16Z</time>
      </trkpt>
      <trkpt lat="46.99089" lon="6.01221">
        <ele>636.049561</ele>
        <time>2012-06-21T12:20:38Z</time>
      </trkpt>
      <trkpt lat="46.99081" lon="6.01246">
        <ele>638.452881</ele>
        <time>2012-06-21T12:20:56Z</time>
      </trkpt>
      <trkpt lat="46.99071" lon="6.01251">
        <ele>641.817383</ele>
        <time>2012-06-21T12:21:16Z</time>
      </trkpt>
      <trkpt lat="46.99059" lon="6.01249">
        <ele>644.701172</ele>
        <time>2012-06-21T12:21:36Z</time>
      </trkpt>
      <trkpt lat="46.99046" lon="6.01239">
        <ele>647.104492</ele>
        <time>2012-06-21T12:21:54Z</time>
      </trkpt>
      <trkpt lat="46.99036" lon="6.01234">
        <ele>649.988525</ele>
        <time>2012-06-21T12:22:13Z</time>
      </trkpt>
      <trkpt lat="46.9902" lon="6.01214">
        <ele>652.872559</ele>
        <time>2012-06-21T12:22:38Z</time>
      </trkpt>
      <trkpt lat="46.99007" lon="6.01212">
        <ele>655.275879</ele>
        <time>2012-06-21T12:22:56Z</time>
      </trkpt>
      <trkpt lat="46.9901" lon="6.01227">
        <ele>656.237061</ele>
        <time>2012-06-21T12:23:09Z</time>
      </trkpt>
      <trkpt lat="46.99015" lon="6.01248">
        <ele>657.679199</ele>
        <time>2012-06-21T12:23:30Z</time>
      </trkpt>
      <trkpt lat="46.99017" lon="6.01261">
        <ele>658.159912</ele>
        <time>2012-06-21T12:23:37Z</time>
      </trkpt>
      <trkpt lat="46.99015" lon="6.01278">
        <ele>659.601807</ele>
        <time>2012-06-21T12:23:49Z</time>
      </trkpt>
      <trkpt lat="46.99007" lon="6.01307">
        <ele>660.562988</ele>
        <time>2012-06-21T12:24:09Z</time>
      </trkpt>
      <trkpt lat="46.98999" lon="6.01327">
        <ele>662.005127</ele>
        <time>2012-06-21T12:24:26Z</time>
      </trkpt>
      <trkpt lat="46.98987" lon="6.01352">
        <ele>662.966309</ele>
        <time>2012-06-21T12:24:45Z</time>
      </trkpt>
      <trkpt lat="46.98967" lon="6.01384">
        <ele>664.408203</ele>
        <time>2012-06-21T12:25:13Z</time>
      </trkpt>
      <trkpt lat="46.98955" lon="6.01406">
        <ele>665.369629</ele>
        <time>2012-06-21T12:25:33Z</time>
      </trkpt>
      <trkpt lat="46.98943" lon="6.01428">
        <ele>667.292236</ele>
        <time>2012-06-21T12:25:52Z</time>
      </trkpt>
      <trkpt lat="46.9893" lon="6.01451">
        <ele>670.656982</ele>
        <time>2012-06-21T12:26:17Z</time>
      </trkpt>
      <trkpt lat="46.98921" lon="6.01472">
        <ele>673.541016</ele>
        <time>2012-06-21T12:26:39Z</time>
      </trkpt>
      <trkpt lat="46.9891" lon="6.0149">
        <ele>674.98291</ele>
        <time>2012-06-21T12:26:53Z</time>
      </trkpt>
      <trkpt lat="46.98904" lon="6.01509">
        <ele>676.905518</ele>
        <time>2012-06-21T12:27:10Z</time>
      </trkpt>
      <trkpt lat="46.98905" lon="6.01529">
        <ele>679.308594</ele>
        <time>2012-06-21T12:27:30Z</time>
      </trkpt>
      <trkpt lat="46.98903" lon="6.01564">
        <ele>679.789307</ele>
        <time>2012-06-21T12:27:50Z</time>
      </trkpt>
      <trkpt lat="46.98905" lon="6.01583">
        <ele>680.750732</ele>
        <time>2012-06-21T12:28:02Z</time>
      </trkpt>
      <trkpt lat="46.98902" lon="6.01614">
        <ele>683.634521</ele>
        <time>2012-06-21T12:28:25Z</time>
      </trkpt>
      <trkpt lat="46.98897" lon="6.0165">
        <ele>685.557373</ele>
        <time>2012-06-21T12:28:50Z</time>
      </trkpt>
      <trkpt lat="46.989" lon="6.01657">
        <ele>685.557373</ele>
        <time>2012-06-21T12:28:58Z</time>
      </trkpt>
      <trkpt lat="46.98899" lon="6.01676">
        <ele>686.038086</ele>
        <time>2012-06-21T12:29:07Z</time>
      </trkpt>
      <trkpt lat="46.98895" lon="6.01708">
        <ele>686.999268</ele>
        <time>2012-06-21T12:29:23Z</time>
      </trkpt>
      <trkpt lat="46.98894" lon="6.01727">
        <ele>687.960693</ele>
        <time>2012-06-21T12:29:35Z</time>
      </trkpt>
      <trkpt lat="46.98898" lon="6.0175">
        <ele>688.441406</ele>
        <time>2012-06-21T12:29:51Z</time>
      </trkpt>
      <trkpt lat="46.98902" lon="6.01754">
        <ele>688.441406</ele>
        <time>2012-06-21T12:30:23Z</time>
      </trkpt>
      <trkpt lat="46.98913" lon="6.01756">
        <ele>688.441406</ele>
        <time>2012-06-21T12:30:55Z</time>
      </trkpt>
      <trkpt lat="46.9892" lon="6.01755">
        <ele>688.441406</ele>
        <time>2012-06-21T12:31:25Z</time>
      </trkpt>
      <trkpt lat="46.98909" lon="6.01782">
        <ele>689.883301</ele>
        <time>2012-06-21T12:37:42Z</time>
      </trkpt>
      <trkpt lat="46.98909" lon="6.01796">
        <ele>689.402588</ele>
        <time>2012-06-21T12:37:51Z</time>
      </trkpt>
      <trkpt lat="46.9891" lon="6.01812">
        <ele>689.402588</ele>
        <time>2012-06-21T12:37:59Z</time>
      </trkpt>
      <trkpt lat="46.98913" lon="6.01839">
        <ele>689.402588</ele>
        <time>2012-06-21T12:38:14Z</time>
      </trkpt>
      <trkpt lat="46.98919" lon="6.01869">
        <ele>689.883301</ele>
        <time>2012-06-21T12:38:30Z</time>
      </trkpt>
      <trkpt lat="46.9892" lon="6.01898">
        <ele>690.844482</ele>
        <time>2012-06-21T12:38:47Z</time>
      </trkpt>
      <trkpt lat="46.98921" lon="6.01925">
        <ele>691.325195</ele>
        <time>2012-06-21T12:39:01Z</time>
      </trkpt>
      <trkpt lat="46.98921" lon="6.01956">
        <ele>691.805908</ele>
        <time>2012-06-21T12:39:17Z</time>
      </trkpt>
      <trkpt lat="46.9891" lon="6.01985">
        <ele>692.767334</ele>
        <time>2012-06-21T12:39:34Z</time>
      </trkpt>
      <trkpt lat="46.98909" lon="6.01987">
        <ele>692.767334</ele>
        <time>2012-06-21T12:39:36Z</time>
      </trkpt>
      <trkpt lat="46.98897" lon="6.01996">
        <ele>694.689697</ele>
        <time>2012-06-21T12:39:50Z</time>
      </trkpt>
      <trkpt lat="46.98893" lon="6.01998">
        <ele>694.689697</ele>
        <time>2012-06-21T12:39:54Z</time>
      </trkpt>
      <trkpt lat="46.98877" lon="6.01997">
        <ele>695.651123</ele>
        <time>2012-06-21T12:40:08Z</time>
      </trkpt>
      <trkpt lat="46.98848" lon="6.01991">
        <ele>698.534912</ele>
        <time>2012-06-21T12:40:34Z</time>
      </trkpt>
      <trkpt lat="46.98845" lon="6.01991">
        <ele>699.015625</ele>
        <time>2012-06-21T12:40:38Z</time>
      </trkpt>
      <trkpt lat="46.98826" lon="6.02006">
        <ele>700.938477</ele>
        <time>2012-06-21T12:40:57Z</time>
      </trkpt>
      <trkpt lat="46.98825" lon="6.02007">
        <ele>700.938477</ele>
        <time>2012-06-21T12:40:58Z</time>
      </trkpt>
      <trkpt lat="46.98822" lon="6.02014">
        <ele>700.938477</ele>
        <time>2012-06-21T12:41:03Z</time>
      </trkpt>
      <trkpt lat="46.98819" lon="6.02026">
        <ele>700.458008</ele>
        <time>2012-06-21T12:41:09Z</time>
      </trkpt>
      <trkpt lat="46.98807" lon="6.02059">
        <ele>700.938477</ele>
        <time>2012-06-21T12:41:30Z</time>
      </trkpt>
      <trkpt lat="46.98806" lon="6.02067">
        <ele>701.419189</ele>
        <time>2012-06-21T12:41:34Z</time>
      </trkpt>
      <trkpt lat="46.98792" lon="6.02101">
        <ele>701.899902</ele>
        <time>2012-06-21T12:41:57Z</time>
      </trkpt>
      <trkpt lat="46.98792" lon="6.02116">
        <ele>701.899902</ele>
        <time>2012-06-21T12:42:07Z</time>
      </trkpt>
      <trkpt lat="46.98793" lon="6.02135">
        <ele>701.419189</ele>
        <time>2012-06-21T12:42:17Z</time>
      </trkpt>
      <trkpt lat="46.98793" lon="6.02141">
        <ele>701.419189</ele>
        <time>2012-06-21T12:42:21Z</time>
      </trkpt>
      <trkpt lat="46.98789" lon="6.02186">
        <ele>701.899902</ele>
        <time>2012-06-21T12:42:45Z</time>
      </trkpt>
      <trkpt lat="46.98789" lon="6.02208">
        <ele>702.861084</ele>
        <time>2012-06-21T12:42:59Z</time>
      </trkpt>
      <trkpt lat="46.98788" lon="6.02252">
        <ele>704.783691</ele>
        <time>2012-06-21T12:43:26Z</time>
      </trkpt>
      <trkpt lat="46.98787" lon="6.02267">
        <ele>705.264404</ele>
        <time>2012-06-21T12:43:35Z</time>
      </trkpt>
      <trkpt lat="46.98769" lon="6.02291">
        <ele>706.225586</ele>
        <time>2012-06-21T12:43:53Z</time>
      </trkpt>
      <trkpt lat="46.98767" lon="6.02293">
        <ele>706.225586</ele>
        <time>2012-06-21T12:43:55Z</time>
      </trkpt>
      <trkpt lat="46.98748" lon="6.02297">
        <ele>707.187012</ele>
        <time>2012-06-21T12:44:10Z</time>
      </trkpt>
      <trkpt lat="46.98734" lon="6.02302">
        <ele>707.187012</ele>
        <time>2012-06-21T12:44:24Z</time>
      </trkpt>
      <trkpt lat="46.98704" lon="6.02311">
        <ele>710.070801</ele>
        <time>2012-06-21T12:44:53Z</time>
      </trkpt>
      <trkpt lat="46.98687" lon="6.02313">
        <ele>711.993652</ele>
        <time>2012-06-21T12:45:10Z</time>
      </trkpt>
      <trkpt lat="46.98659" lon="6.02315">
        <ele>713.916016</ele>
        <time>2012-06-21T12:45:32Z</time>
      </trkpt>
      <trkpt lat="46.98653" lon="6.02322">
        <ele>714.396729</ele>
        <time>2012-06-21T12:45:40Z</time>
      </trkpt>
      <trkpt lat="46.98652" lon="6.02329">
        <ele>715.358154</ele>
        <time>2012-06-21T12:45:45Z</time>
      </trkpt>
      <trkpt lat="46.9865" lon="6.02354">
        <ele>715.838867</ele>
        <time>2012-06-21T12:46:01Z</time>
      </trkpt>
      <trkpt lat="46.98645" lon="6.02369">
        <ele>716.31958</ele>
        <time>2012-06-21T12:46:11Z</time>
      </trkpt>
      <trkpt lat="46.98644" lon="6.02386">
        <ele>715.838867</ele>
        <time>2012-06-21T12:46:21Z</time>
      </trkpt>
      <trkpt lat="46.9864" lon="6.02406">
        <ele>714.877441</ele>
        <time>2012-06-21T12:46:35Z</time>
      </trkpt>
      <trkpt lat="46.98646" lon="6.02438">
        <ele>713.435547</ele>
        <time>2012-06-21T12:46:52Z</time>
      </trkpt>
      <trkpt lat="46.98644" lon="6.02484">
        <ele>711.993652</ele>
        <time>2012-06-21T12:47:15Z</time>
      </trkpt>
      <trkpt lat="46.98644" lon="6.02493">
        <ele>711.512939</ele>
        <time>2012-06-21T12:47:20Z</time>
      </trkpt>
      <trkpt lat="46.98642" lon="6.02502">
        <ele>711.512939</ele>
        <time>2012-06-21T12:47:24Z</time>
      </trkpt>
      <trkpt lat="46.98642" lon="6.02511">
        <ele>711.512939</ele>
        <time>2012-06-21T12:47:29Z</time>
      </trkpt>
      <trkpt lat="46.9864" lon="6.02522">
        <ele>711.032227</ele>
        <time>2012-06-21T12:47:34Z</time>
      </trkpt>
      <trkpt lat="46.98629" lon="6.02551">
        <ele>710.551514</ele>
        <time>2012-06-21T12:47:49Z</time>
      </trkpt>
      <trkpt lat="46.98625" lon="6.02573">
        <ele>709.590332</ele>
        <time>2012-06-21T12:48:03Z</time>
      </trkpt>
      <trkpt lat="46.98622" lon="6.02615">
        <ele>709.109619</ele>
        <time>2012-06-21T12:48:25Z</time>
      </trkpt>
      <trkpt lat="46.98621" lon="6.02641">
        <ele>708.148438</ele>
        <time>2012-06-21T12:48:40Z</time>
      </trkpt>
      <trkpt lat="46.98614" lon="6.02674">
        <ele>707.187012</ele>
        <time>2012-06-21T12:48:57Z</time>
      </trkpt>
      <trkpt lat="46.98613" lon="6.02685">
        <ele>706.706299</ele>
        <time>2012-06-21T12:49:02Z</time>
      </trkpt>
      <trkpt lat="46.98606" lon="6.02711">
        <ele>706.706299</ele>
        <time>2012-06-21T12:49:19Z</time>
      </trkpt>
      <trkpt lat="46.98594" lon="6.02736">
        <ele>706.706299</ele>
        <time>2012-06-21T12:49:34Z</time>
      </trkpt>
      <trkpt lat="46.98593" lon="6.02743">
        <ele>706.706299</ele>
        <time>2012-06-21T12:49:38Z</time>
      </trkpt>
      <trkpt lat="46.98586" lon="6.02759">
        <ele>707.667725</ele>
        <time>2012-06-21T12:49:48Z</time>
      </trkpt>
      <trkpt lat="46.98584" lon="6.02765">
        <ele>707.667725</ele>
        <time>2012-06-21T12:49:52Z</time>
      </trkpt>
      <trkpt lat="46.98573" lon="6.02786">
        <ele>709.109619</ele>
        <time>2012-06-21T12:50:07Z</time>
      </trkpt>
      <trkpt lat="46.98566" lon="6.02793">
        <ele>709.109619</ele>
        <time>2012-06-21T12:50:14Z</time>
      </trkpt>
      <trkpt lat="46.9855" lon="6.02803">
        <ele>709.109619</ele>
        <time>2012-06-21T12:50:26Z</time>
      </trkpt>
      <trkpt lat="46.98524" lon="6.02819">
        <ele>707.667725</ele>
        <time>2012-06-21T12:50:47Z</time>
      </trkpt>
      <trkpt lat="46.98519" lon="6.02837">
        <ele>706.706299</ele>
        <time>2012-06-21T12:50:57Z</time>
      </trkpt>
      <trkpt lat="46.98506" lon="6.02865">
        <ele>705.745117</ele>
        <time>2012-06-21T12:51:14Z</time>
      </trkpt>
      <trkpt lat="46.98497" lon="6.02901">
        <ele>706.225586</ele>
        <time>2012-06-21T12:51:35Z</time>
      </trkpt>
      <trkpt lat="46.98497" lon="6.02931">
        <ele>706.706299</ele>
        <time>2012-06-21T12:51:51Z</time>
      </trkpt>
      <trkpt lat="46.985" lon="6.02952">
        <ele>707.187012</ele>
        <time>2012-06-21T12:52:04Z</time>
      </trkpt>
      <trkpt lat="46.98502" lon="6.02983">
        <ele>708.628906</ele>
        <time>2012-06-21T12:52:21Z</time>
      </trkpt>
      <trkpt lat="46.98495" lon="6.03008">
        <ele>710.070801</ele>
        <time>2012-06-21T12:52:37Z</time>
      </trkpt>
      <trkpt lat="46.98494" lon="6.0301">
        <ele>710.070801</ele>
        <time>2012-06-21T12:52:38Z</time>
      </trkpt>
      <trkpt lat="46.98487" lon="6.03023">
        <ele>711.993652</ele>
        <time>2012-06-21T12:52:51Z</time>
      </trkpt>
      <trkpt lat="46.9848" lon="6.0303">
        <ele>712.474121</ele>
        <time>2012-06-21T12:52:58Z</time>
      </trkpt>
      <trkpt lat="46.98461" lon="6.0304">
        <ele>713.435547</ele>
        <time>2012-06-21T12:53:16Z</time>
      </trkpt>
      <trkpt lat="46.98458" lon="6.03041">
        <ele>713.916016</ele>
        <time>2012-06-21T12:53:19Z</time>
      </trkpt>
      <trkpt lat="46.9844" lon="6.03053">
        <ele>714.877441</ele>
        <time>2012-06-21T12:53:38Z</time>
      </trkpt>
      <trkpt lat="46.98421" lon="6.03059">
        <ele>716.31958</ele>
        <time>2012-06-21T12:53:50Z</time>
      </trkpt>
      <trkpt lat="46.98406" lon="6.03068">
        <ele>716.800293</ele>
        <time>2012-06-21T12:54:04Z</time>
      </trkpt>
      <trkpt lat="46.98392" lon="6.03079">
        <ele>718.242188</ele>
        <time>2012-06-21T12:54:20Z</time>
      </trkpt>
      <trkpt lat="46.98371" lon="6.03093">
        <ele>719.684326</ele>
        <time>2012-06-21T12:54:38Z</time>
      </trkpt>
      <trkpt lat="46.98367" lon="6.03096">
        <ele>719.684326</ele>
        <time>2012-06-21T12:54:42Z</time>
      </trkpt>
      <trkpt lat="46.98349" lon="6.03109">
        <ele>720.645508</ele>
        <time>2012-06-21T12:54:59Z</time>
      </trkpt>
      <trkpt lat="46.98346" lon="6.03113">
        <ele>721.126221</ele>
        <time>2012-06-21T12:55:02Z</time>
      </trkpt>
      <trkpt lat="46.98339" lon="6.03143">
        <ele>722.568115</ele>
        <time>2012-06-21T12:55:20Z</time>
      </trkpt>
      <trkpt lat="46.98334" lon="6.03167">
        <ele>723.529541</ele>
        <time>2012-06-21T12:55:37Z</time>
      </trkpt>
      <trkpt lat="46.98334" lon="6.03191">
        <ele>724.490723</ele>
        <time>2012-06-21T12:55:53Z</time>
      </trkpt>
      <trkpt lat="46.98338" lon="6.03222">
        <ele>725.451904</ele>
        <time>2012-06-21T12:56:08Z</time>
      </trkpt>
      <trkpt lat="46.98342" lon="6.03245">
        <ele>726.41333</ele>
        <time>2012-06-21T12:56:26Z</time>
      </trkpt>
      <trkpt lat="46.98339" lon="6.03247">
        <ele>726.894043</ele>
        <time>2012-06-21T12:56:30Z</time>
      </trkpt>
      <trkpt lat="46.98333" lon="6.0325">
        <ele>727.374756</ele>
        <time>2012-06-21T12:56:35Z</time>
      </trkpt>
      <trkpt lat="46.98322" lon="6.03239">
        <ele>728.335938</ele>
        <time>2012-06-21T12:56:46Z</time>
      </trkpt>
      <trkpt lat="46.98308" lon="6.03229">
        <ele>728.81665</ele>
        <time>2012-06-21T12:56:57Z</time>
      </trkpt>
      <trkpt lat="46.98308" lon="6.0323">
        <ele>728.81665</ele>
        <time>2012-06-21T12:56:58Z</time>
      </trkpt>
      <trkpt lat="46.98293" lon="6.0323">
        <ele>730.739258</ele>
        <time>2012-06-21T12:57:14Z</time>
      </trkpt>
      <trkpt lat="46.98286" lon="6.03229">
        <ele>731.700439</ele>
        <time>2012-06-21T12:57:23Z</time>
      </trkpt>
      <trkpt lat="46.98274" lon="6.03231">
        <ele>732.181396</ele>
        <time>2012-06-21T12:57:34Z</time>
      </trkpt>
      <trkpt lat="46.98267" lon="6.0323">
        <ele>732.662109</ele>
        <time>2012-06-21T12:57:39Z</time>
      </trkpt>
      <trkpt lat="46.98254" lon="6.03234">
        <ele>733.142578</ele>
        <time>2012-06-21T12:57:53Z</time>
      </trkpt>
      <trkpt lat="46.98239" lon="6.03234">
        <ele>734.104004</ele>
        <time>2012-06-21T12:58:06Z</time>
      </trkpt>
      <trkpt lat="46.98227" lon="6.0324">
        <ele>735.06543</ele>
        <time>2012-06-21T12:58:22Z</time>
      </trkpt>
      <trkpt lat="46.98215" lon="6.03237">
        <ele>736.026611</ele>
        <time>2012-06-21T12:58:30Z</time>
      </trkpt>
      <trkpt lat="46.98211" lon="6.03237">
        <ele>736.026611</ele>
        <time>2012-06-21T12:58:34Z</time>
      </trkpt>
      <trkpt lat="46.98205" lon="6.03237">
        <ele>736.507324</ele>
        <time>2012-06-21T12:58:39Z</time>
      </trkpt>
      <trkpt lat="46.9819" lon="6.03235">
        <ele>737.949219</ele>
        <time>2012-06-21T12:58:50Z</time>
      </trkpt>
      <trkpt lat="46.98171" lon="6.03231">
        <ele>739.391113</ele>
        <time>2012-06-21T12:59:04Z</time>
      </trkpt>
      <trkpt lat="46.98156" lon="6.03228">
        <ele>740.833008</ele>
        <time>2012-06-21T12:59:17Z</time>
      </trkpt>
      <trkpt lat="46.98145" lon="6.03229">
        <ele>742.275146</ele>
        <time>2012-06-21T12:59:29Z</time>
      </trkpt>
      <trkpt lat="46.98142" lon="6.03228">
        <ele>742.275146</ele>
        <time>2012-06-21T12:59:31Z</time>
      </trkpt>
      <trkpt lat="46.98139" lon="6.03222">
        <ele>743.717041</ele>
        <time>2012-06-21T12:59:42Z</time>
      </trkpt>
      <trkpt lat="46.98143" lon="6.03208">
        <ele>744.678223</ele>
        <time>2012-06-21T12:59:51Z</time>
      </trkpt>
      <trkpt lat="46.98152" lon="6.03193">
        <ele>744.678223</ele>
        <time>2012-06-21T13:00:01Z</time>
      </trkpt>
      <trkpt lat="46.98154" lon="6.03186">
        <ele>744.678223</ele>
        <time>2012-06-21T13:00:05Z</time>
      </trkpt>
      <trkpt lat="46.98163" lon="6.03177">
        <ele>745.158936</ele>
        <time>2012-06-21T13:00:12Z</time>
      </trkpt>
      <trkpt lat="46.98174" lon="6.03158">
        <ele>745.639648</ele>
        <time>2012-06-21T13:00:25Z</time>
      </trkpt>
      <trkpt lat="46.98174" lon="6.03155">
        <ele>745.639648</ele>
        <time>2012-06-21T13:00:27Z</time>
      </trkpt>
      <trkpt lat="46.98186" lon="6.03138">
        <ele>746.120361</ele>
        <time>2012-06-21T13:00:38Z</time>
      </trkpt>
      <trkpt lat="46.98195" lon="6.03122">
        <ele>746.120361</ele>
        <time>2012-06-21T13:00:47Z</time>
      </trkpt>
      <trkpt lat="46.98195" lon="6.0312">
        <ele>746.120361</ele>
        <time>2012-06-21T13:00:48Z</time>
      </trkpt>
      <trkpt lat="46.98197" lon="6.03115">
        <ele>746.120361</ele>
        <time>2012-06-21T13:00:51Z</time>
      </trkpt>
      <trkpt lat="46.98198" lon="6.0311">
        <ele>746.601074</ele>
        <time>2012-06-21T13:00:55Z</time>
      </trkpt>
      <trkpt lat="46.98197" lon="6.03109">
        <ele>746.601074</ele>
        <time>2012-06-21T13:00:57Z</time>
      </trkpt>
      <trkpt lat="46.982" lon="6.03099">
        <ele>747.081543</ele>
        <time>2012-06-21T13:01:04Z</time>
      </trkpt>
      <trkpt lat="46.98201" lon="6.03092">
        <ele>747.081543</ele>
        <time>2012-06-21T13:01:08Z</time>
      </trkpt>
      <trkpt lat="46.982" lon="6.03083">
        <ele>747.081543</ele>
        <time>2012-06-21T13:01:13Z</time>
      </trkpt>
      <trkpt lat="46.98188" lon="6.03052">
        <ele>749.004395</ele>
        <time>2012-06-21T13:01:34Z</time>
      </trkpt>
      <trkpt lat="46.98185" lon="6.03035">
        <ele>750.927002</ele>
        <time>2012-06-21T13:01:46Z</time>
      </trkpt>
      <trkpt lat="46.98187" lon="6.0302">
        <ele>752.368896</ele>
        <time>2012-06-21T13:01:54Z</time>
      </trkpt>
      <trkpt lat="46.98188" lon="6.03006">
        <ele>752.849609</ele>
        <time>2012-06-21T13:02:01Z</time>
      </trkpt>
      <trkpt lat="46.98188" lon="6.03002">
        <ele>752.849609</ele>
        <time>2012-06-21T13:02:04Z</time>
      </trkpt>
      <trkpt lat="46.98192" lon="6.02986">
        <ele>753.811035</ele>
        <time>2012-06-21T13:02:15Z</time>
      </trkpt>
      <trkpt lat="46.982" lon="6.02947">
        <ele>754.291748</ele>
        <time>2012-06-21T13:02:36Z</time>
      </trkpt>
      <trkpt lat="46.98202" lon="6.02934">
        <ele>754.772217</ele>
        <time>2012-06-21T13:02:44Z</time>
      </trkpt>
      <trkpt lat="46.98203" lon="6.02929">
        <ele>754.772217</ele>
        <time>2012-06-21T13:02:47Z</time>
      </trkpt>
      <trkpt lat="46.98207" lon="6.02912">
        <ele>754.291748</ele>
        <time>2012-06-21T13:02:59Z</time>
      </trkpt>
      <trkpt lat="46.98207" lon="6.0291">
        <ele>754.291748</ele>
        <time>2012-06-21T13:03:00Z</time>
      </trkpt>
      <trkpt lat="46.98212" lon="6.02888">
        <ele>754.291748</ele>
        <time>2012-06-21T13:03:12Z</time>
      </trkpt>
      <trkpt lat="46.98212" lon="6.02886">
        <ele>754.291748</ele>
        <time>2012-06-21T13:03:13Z</time>
      </trkpt>
      <trkpt lat="46.98217" lon="6.02879">
        <ele>753.811035</ele>
        <time>2012-06-21T13:03:19Z</time>
      </trkpt>
      <trkpt lat="46.98217" lon="6.02869">
        <ele>753.811035</ele>
        <time>2012-06-21T13:03:23Z</time>
      </trkpt>
      <trkpt lat="46.98199" lon="6.02872">
        <ele>756.694824</ele>
        <time>2012-06-21T13:03:39Z</time>
      </trkpt>
      <trkpt lat="46.98187" lon="6.02882">
        <ele>759.578857</ele>
        <time>2012-06-21T13:03:54Z</time>
      </trkpt>
      <trkpt lat="46.98179" lon="6.02893">
        <ele>762.462646</ele>
        <time>2012-06-21T13:04:09Z</time>
      </trkpt>
      <trkpt lat="46.98167" lon="6.02903">
        <ele>765.827637</ele>
        <time>2012-06-21T13:04:26Z</time>
      </trkpt>
      <trkpt lat="46.98162" lon="6.02912">
        <ele>768.230713</ele>
        <time>2012-06-21T13:04:40Z</time>
      </trkpt>
      <trkpt lat="46.98156" lon="6.02921">
        <ele>770.15332</ele>
        <time>2012-06-21T13:04:56Z</time>
      </trkpt>
      <trkpt lat="46.98148" lon="6.02937">
        <ele>772.556641</ele>
        <time>2012-06-21T13:05:12Z</time>
      </trkpt>
      <trkpt lat="46.98144" lon="6.0295">
        <ele>775.44043</ele>
        <time>2012-06-21T13:05:30Z</time>
      </trkpt>
      <trkpt lat="46.98135" lon="6.02963">
        <ele>778.324463</ele>
        <time>2012-06-21T13:05:49Z</time>
      </trkpt>
      <trkpt lat="46.98128" lon="6.02975">
        <ele>780.247314</ele>
        <time>2012-06-21T13:06:03Z</time>
      </trkpt>
      <trkpt lat="46.98125" lon="6.02985">
        <ele>782.169922</ele>
        <time>2012-06-21T13:06:18Z</time>
      </trkpt>
      <trkpt lat="46.98122" lon="6.03003">
        <ele>785.053955</ele>
        <time>2012-06-21T13:06:37Z</time>
      </trkpt>
      <trkpt lat="46.98112" lon="6.03019">
        <ele>786.976318</ele>
        <time>2012-06-21T13:06:56Z</time>
      </trkpt>
      <trkpt lat="46.98102" lon="6.03031">
        <ele>789.860352</ele>
        <time>2012-06-21T13:07:15Z</time>
      </trkpt>
      <trkpt lat="46.98097" lon="6.03048">
        <ele>792.263672</ele>
        <time>2012-06-21T13:07:35Z</time>
      </trkpt>
      <trkpt lat="46.98091" lon="6.03063">
        <ele>794.666748</ele>
        <time>2012-06-21T13:07:54Z</time>
      </trkpt>
      <trkpt lat="46.98083" lon="6.03074">
        <ele>797.551025</ele>
        <time>2012-06-21T13:08:13Z</time>
      </trkpt>
      <trkpt lat="46.98077" lon="6.03081">
        <ele>800.435059</ele>
        <time>2012-06-21T13:08:36Z</time>
      </trkpt>
      <trkpt lat="46.98072" lon="6.03079">
        <ele>801.876953</ele>
        <time>2012-06-21T13:08:49Z</time>
      </trkpt>
      <trkpt lat="46.98069" lon="6.03071">
        <ele>802.838135</ele>
        <time>2012-06-21T13:08:54Z</time>
      </trkpt>
      <trkpt lat="46.9807" lon="6.03066">
        <ele>803.318848</ele>
        <time>2012-06-21T13:08:58Z</time>
      </trkpt>
      <trkpt lat="46.98067" lon="6.03057">
        <ele>804.280273</ele>
        <time>2012-06-21T13:09:03Z</time>
      </trkpt>
      <trkpt lat="46.98069" lon="6.03048">
        <ele>805.241455</ele>
        <time>2012-06-21T13:09:11Z</time>
      </trkpt>
      <trkpt lat="46.9807" lon="6.03044">
        <ele>805.722168</ele>
        <time>2012-06-21T13:09:15Z</time>
      </trkpt>
      <trkpt lat="46.98067" lon="6.03035">
        <ele>806.68335</ele>
        <time>2012-06-21T13:09:21Z</time>
      </trkpt>
      <trkpt lat="46.98068" lon="6.0302">
        <ele>807.644775</ele>
        <time>2012-06-21T13:09:31Z</time>
      </trkpt>
      <trkpt lat="46.98068" lon="6.03014">
        <ele>808.125488</ele>
        <time>2012-06-21T13:09:34Z</time>
      </trkpt>
      <trkpt lat="46.98059" lon="6.0302">
        <ele>809.567383</ele>
        <time>2012-06-21T13:09:44Z</time>
      </trkpt>
      <trkpt lat="46.98059" lon="6.03025">
        <ele>810.047852</ele>
        <time>2012-06-21T13:09:49Z</time>
      </trkpt>
      <trkpt lat="46.98046" lon="6.03043">
        <ele>811.48999</ele>
        <time>2012-06-21T13:10:04Z</time>
      </trkpt>
      <trkpt lat="46.98038" lon="6.03045">
        <ele>812.451416</ele>
        <time>2012-06-21T13:10:10Z</time>
      </trkpt>
      <trkpt lat="46.98032" lon="6.03041">
        <ele>812.932129</ele>
        <time>2012-06-21T13:10:16Z</time>
      </trkpt>
      <trkpt lat="46.98035" lon="6.03016">
        <ele>814.854736</ele>
        <time>2012-06-21T13:10:31Z</time>
      </trkpt>
      <trkpt lat="46.98036" lon="6.03012">
        <ele>815.335449</ele>
        <time>2012-06-21T13:10:34Z</time>
      </trkpt>
      <trkpt lat="46.98036" lon="6.03002">
        <ele>815.816162</ele>
        <time>2012-06-21T13:10:38Z</time>
      </trkpt>
      <trkpt lat="46.98027" lon="6.02991">
        <ele>818.699951</ele>
        <time>2012-06-21T13:10:51Z</time>
      </trkpt>
      <trkpt lat="46.9802" lon="6.02989">
        <ele>821.103271</ele>
        <time>2012-06-21T13:11:03Z</time>
      </trkpt>
      <trkpt lat="46.98012" lon="6.02983">
        <ele>821.103271</ele>
        <time>2012-06-21T13:11:16Z</time>
      </trkpt>
      <trkpt lat="46.98011" lon="6.02984">
        <ele>820.622559</ele>
        <time>2012-06-21T13:12:05Z</time>
      </trkpt>
      <trkpt lat="46.9801" lon="6.02985">
        <ele>821.58374</ele>
        <time>2012-06-21T13:12:38Z</time>
      </trkpt>
      <trkpt lat="46.98008" lon="6.02967">
        <ele>820.622559</ele>
        <time>2012-06-21T13:13:11Z</time>
      </trkpt>
      <trkpt lat="46.98009" lon="6.02955">
        <ele>820.622559</ele>
        <time>2012-06-21T13:13:31Z</time>
      </trkpt>
      <trkpt lat="46.98012" lon="6.02956">
        <ele>820.622559</ele>
        <time>2012-06-21T13:14:13Z</time>
      </trkpt>
      <trkpt lat="46.98014" lon="6.02957">
        <ele>821.103271</ele>
        <time>2012-06-21T13:14:53Z</time>
      </trkpt>
      <trkpt lat="46.98014" lon="6.02957">
        <ele>820.141846</ele>
        <time>2012-06-21T13:15:01Z</time>
      </trkpt>
      <trkpt lat="46.98008" lon="6.02953">
        <ele>823.506592</ele>
        <time>2012-06-21T13:30:52Z</time>
      </trkpt>
      <trkpt lat="46.98007" lon="6.02954">
        <ele>820.622559</ele>
        <time>2012-06-21T13:31:02Z</time>
      </trkpt>
      <trkpt lat="46.98007" lon="6.02954">
        <ele>824.467773</ele>
        <time>2012-06-21T13:31:04Z</time>
      </trkpt>
      <trkpt lat="46.98007" lon="6.02954">
        <ele>820.622559</ele>
        <time>2012-06-21T13:31:08Z</time>
      </trkpt>
      <trkpt lat="46.98007" lon="6.0295">
        <ele>822.545166</ele>
        <time>2012-06-21T13:36:38Z</time>
      </trkpt>
      <trkpt lat="46.98004" lon="6.02959">
        <ele>821.103271</ele>
        <time>2012-06-21T13:45:03Z</time>
      </trkpt>
      <trkpt lat="46.97992" lon="6.02945">
        <ele>821.103271</ele>
        <time>2012-06-21T13:45:20Z</time>
      </trkpt>
      <trkpt lat="46.97985" lon="6.02937">
        <ele>821.58374</ele>
        <time>2012-06-21T13:45:36Z</time>
      </trkpt>
      <trkpt lat="46.97985" lon="6.02938">
        <ele>822.064453</ele>
        <time>2012-06-21T13:46:11Z</time>
      </trkpt>
      <trkpt lat="46.97985" lon="6.02939">
        <ele>822.545166</ele>
        <time>2012-06-21T13:46:20Z</time>
      </trkpt>
      <trkpt lat="46.97989" lon="6.02945">
        <ele>821.58374</ele>
        <time>2012-06-21T13:46:38Z</time>
      </trkpt>
      <trkpt lat="46.98004" lon="6.02952">
        <ele>821.58374</ele>
        <time>2012-06-21T13:46:57Z</time>
      </trkpt>
      <trkpt lat="46.98002" lon="6.02952">
        <ele>821.103271</ele>
        <time>2012-06-21T13:47:12Z</time>
      </trkpt>
      <trkpt lat="46.98006" lon="6.02955">
        <ele>820.622559</ele>
        <time>2012-06-21T13:47:24Z</time>
      </trkpt>
      <trkpt lat="46.98016" lon="6.02957">
        <ele>821.58374</ele>
        <time>2012-06-21T13:47:46Z</time>
      </trkpt>
      <trkpt lat="46.98012" lon="6.02955">
        <ele>820.622559</ele>
        <time>2012-06-21T13:55:38Z</time>
      </trkpt>
      <trkpt lat="46.98009" lon="6.02955">
        <ele>821.103271</ele>
        <time>2012-06-21T13:57:02Z</time>
      </trkpt>
      <trkpt lat="46.98003" lon="6.02955">
        <ele>820.622559</ele>
        <time>2012-06-21T13:57:48Z</time>
      </trkpt>
      <trkpt lat="46.98004" lon="6.02956">
        <ele>821.103271</ele>
        <time>2012-06-21T13:58:23Z</time>
      </trkpt>
      <trkpt lat="46.98003" lon="6.02955">
        <ele>821.103271</ele>
        <time>2012-06-21T13:59:42Z</time>
      </trkpt>
      <trkpt lat="46.98002" lon="6.02954">
        <ele>821.58374</ele>
        <time>2012-06-21T14:00:19Z</time>
      </trkpt>
      <trkpt lat="46.98005" lon="6.02956">
        <ele>821.103271</ele>
        <time>2012-06-21T14:00:59Z</time>
      </trkpt>
      <trkpt lat="46.98004" lon="6.0295">
        <ele>820.622559</ele>
        <time>2012-06-21T14:01:39Z</time>
      </trkpt>
      <trkpt lat="46.98008" lon="6.0294">
        <ele>820.141846</ele>
        <time>2012-06-21T14:01:53Z</time>
      </trkpt>
      <trkpt lat="46.98013" lon="6.02935">
        <ele>820.141846</ele>
        <time>2012-06-21T14:02:02Z</time>
      </trkpt>
      <trkpt lat="46.98016" lon="6.02933">
        <ele>819.180664</ele>
        <time>2012-06-21T14:02:05Z</time>
      </trkpt>
      <trkpt lat="46.98034" lon="6.02944">
        <ele>818.699951</ele>
        <time>2012-06-21T14:02:24Z</time>
      </trkpt>
      <trkpt lat="46.98035" lon="6.02945">
        <ele>818.699951</ele>
        <time>2012-06-21T14:02:25Z</time>
      </trkpt>
      <trkpt lat="46.98039" lon="6.02954">
        <ele>818.219238</ele>
        <time>2012-06-21T14:02:31Z</time>
      </trkpt>
      <trkpt lat="46.98043" lon="6.02978">
        <ele>817.258057</ele>
        <time>2012-06-21T14:02:46Z</time>
      </trkpt>
      <trkpt lat="46.98044" lon="6.02991">
        <ele>816.777344</ele>
        <time>2012-06-21T14:02:54Z</time>
      </trkpt>
      <trkpt lat="46.98038" lon="6.0302">
        <ele>814.854736</ele>
        <time>2012-06-21T14:03:09Z</time>
      </trkpt>
      <trkpt lat="46.98037" lon="6.03039">
        <ele>813.893311</ele>
        <time>2012-06-21T14:03:19Z</time>
      </trkpt>
      <trkpt lat="46.98045" lon="6.03046">
        <ele>813.412842</ele>
        <time>2012-06-21T14:03:28Z</time>
      </trkpt>
      <trkpt lat="46.98049" lon="6.03045">
        <ele>812.932129</ele>
        <time>2012-06-21T14:03:32Z</time>
      </trkpt>
      <trkpt lat="46.98058" lon="6.03038">
        <ele>809.08667</ele>
        <time>2012-06-21T14:03:39Z</time>
      </trkpt>
      <trkpt lat="46.98059" lon="6.03037">
        <ele>811.48999</ele>
        <time>2012-06-21T14:03:40Z</time>
      </trkpt>
      <trkpt lat="46.98065" lon="6.03025">
        <ele>810.528564</ele>
        <time>2012-06-21T14:03:48Z</time>
      </trkpt>
      <trkpt lat="46.98072" lon="6.03004">
        <ele>809.567383</ele>
        <time>2012-06-21T14:04:03Z</time>
      </trkpt>
      <trkpt lat="46.98079" lon="6.03011">
        <ele>808.605957</ele>
        <time>2012-06-21T14:04:10Z</time>
      </trkpt>
      <trkpt lat="46.98076" lon="6.03042">
        <ele>806.202637</ele>
        <time>2012-06-21T14:04:26Z</time>
      </trkpt>
      <trkpt lat="46.98074" lon="6.03066">
        <ele>803.799561</ele>
        <time>2012-06-21T14:04:41Z</time>
      </trkpt>
      <trkpt lat="46.98073" lon="6.03089">
        <ele>801.39624</ele>
        <time>2012-06-21T14:04:55Z</time>
      </trkpt>
      <trkpt lat="46.98069" lon="6.03097">
        <ele>800.435059</ele>
        <time>2012-06-21T14:05:02Z</time>
      </trkpt>
      <trkpt lat="46.98062" lon="6.03101">
        <ele>799.473633</ele>
        <time>2012-06-21T14:05:09Z</time>
      </trkpt>
      <trkpt lat="46.98053" lon="6.03098">
        <ele>798.512207</ele>
        <time>2012-06-21T14:05:19Z</time>
      </trkpt>
      <trkpt lat="46.98044" lon="6.03101">
        <ele>798.031738</ele>
        <time>2012-06-21T14:05:25Z</time>
      </trkpt>
      <trkpt lat="46.9805" lon="6.03116">
        <ele>797.070313</ele>
        <time>2012-06-21T14:05:35Z</time>
      </trkpt>
      <trkpt lat="46.98058" lon="6.03125">
        <ele>796.109131</ele>
        <time>2012-06-21T14:05:44Z</time>
      </trkpt>
      <trkpt lat="46.98059" lon="6.03133">
        <ele>794.666748</ele>
        <time>2012-06-21T14:05:52Z</time>
      </trkpt>
      <trkpt lat="46.98043" lon="6.03134">
        <ele>792.263672</ele>
        <time>2012-06-21T14:06:09Z</time>
      </trkpt>
      <trkpt lat="46.98024" lon="6.03126">
        <ele>789.860352</ele>
        <time>2012-06-21T14:06:27Z</time>
      </trkpt>
      <trkpt lat="46.98012" lon="6.03122">
        <ele>788.418457</ele>
        <time>2012-06-21T14:06:36Z</time>
      </trkpt>
      <trkpt lat="46.97994" lon="6.03112">
        <ele>785.053955</ele>
        <time>2012-06-21T14:06:52Z</time>
      </trkpt>
      <trkpt lat="46.97972" lon="6.03096">
        <ele>782.169922</ele>
        <time>2012-06-21T14:07:11Z</time>
      </trkpt>
      <trkpt lat="46.97959" lon="6.03075">
        <ele>778.805176</ele>
        <time>2012-06-21T14:07:28Z</time>
      </trkpt>
      <trkpt lat="46.97939" lon="6.0305">
        <ele>775.44043</ele>
        <time>2012-06-21T14:07:49Z</time>
      </trkpt>
      <trkpt lat="46.97928" lon="6.03028">
        <ele>773.037354</ele>
        <time>2012-06-21T14:08:06Z</time>
      </trkpt>
      <trkpt lat="46.9792" lon="6.03009">
        <ele>770.634033</ele>
        <time>2012-06-21T14:08:20Z</time>
      </trkpt>
      <trkpt lat="46.97915" lon="6.0299">
        <ele>768.711426</ele>
        <time>2012-06-21T14:08:31Z</time>
      </trkpt>
      <trkpt lat="46.97913" lon="6.02983">
        <ele>768.230713</ele>
        <time>2012-06-21T14:08:35Z</time>
      </trkpt>
      <trkpt lat="46.97909" lon="6.02954">
        <ele>764.866211</ele>
        <time>2012-06-21T14:08:53Z</time>
      </trkpt>
      <trkpt lat="46.97896" lon="6.02947">
        <ele>762.943359</ele>
        <time>2012-06-21T14:09:06Z</time>
      </trkpt>
      <trkpt lat="46.97873" lon="6.02968">
        <ele>759.578857</ele>
        <time>2012-06-21T14:09:27Z</time>
      </trkpt>
      <trkpt lat="46.97869" lon="6.0298">
        <ele>758.136963</ele>
        <time>2012-06-21T14:09:34Z</time>
      </trkpt>
      <trkpt lat="46.97871" lon="6.03001">
        <ele>757.65625</ele>
        <time>2012-06-21T14:09:45Z</time>
      </trkpt>
      <trkpt lat="46.97874" lon="6.03014">
        <ele>757.65625</ele>
        <time>2012-06-21T14:09:56Z</time>
      </trkpt>
      <trkpt lat="46.9787" lon="6.03013">
        <ele>757.175537</ele>
        <time>2012-06-21T14:10:00Z</time>
      </trkpt>
      <trkpt lat="46.97859" lon="6.02988">
        <ele>754.772217</ele>
        <time>2012-06-21T14:10:20Z</time>
      </trkpt>
      <trkpt lat="46.97855" lon="6.02983">
        <ele>754.291748</ele>
        <time>2012-06-21T14:10:25Z</time>
      </trkpt>
      <trkpt lat="46.97844" lon="6.02983">
        <ele>752.849609</ele>
        <time>2012-06-21T14:10:34Z</time>
      </trkpt>
      <trkpt lat="46.97833" lon="6.02993">
        <ele>750.927002</ele>
        <time>2012-06-21T14:10:46Z</time>
      </trkpt>
      <trkpt lat="46.97823" lon="6.03017">
        <ele>748.523682</ele>
        <time>2012-06-21T14:10:59Z</time>
      </trkpt>
      <trkpt lat="46.97814" lon="6.03024">
        <ele>747.081543</ele>
        <time>2012-06-21T14:11:06Z</time>
      </trkpt>
      <trkpt lat="46.97812" lon="6.03028">
        <ele>746.120361</ele>
        <time>2012-06-21T14:11:08Z</time>
      </trkpt>
      <trkpt lat="46.97807" lon="6.03031">
        <ele>745.639648</ele>
        <time>2012-06-21T14:11:13Z</time>
      </trkpt>
      <trkpt lat="46.97788" lon="6.03037">
        <ele>744.678223</ele>
        <time>2012-06-21T14:11:27Z</time>
      </trkpt>
      <trkpt lat="46.97769" lon="6.03033">
        <ele>744.197754</ele>
        <time>2012-06-21T14:11:40Z</time>
      </trkpt>
      <trkpt lat="46.97755" lon="6.03027">
        <ele>744.197754</ele>
        <time>2012-06-21T14:11:50Z</time>
      </trkpt>
      <trkpt lat="46.97747" lon="6.03023">
        <ele>744.197754</ele>
        <time>2012-06-21T14:11:56Z</time>
      </trkpt>
      <trkpt lat="46.97733" lon="6.03022">
        <ele>745.158936</ele>
        <time>2012-06-21T14:12:08Z</time>
      </trkpt>
      <trkpt lat="46.97722" lon="6.03026">
        <ele>745.158936</ele>
        <time>2012-06-21T14:12:18Z</time>
      </trkpt>
      <trkpt lat="46.97702" lon="6.03041">
        <ele>745.639648</ele>
        <time>2012-06-21T14:12:36Z</time>
      </trkpt>
      <trkpt lat="46.97691" lon="6.03054">
        <ele>746.120361</ele>
        <time>2012-06-21T14:12:52Z</time>
      </trkpt>
      <trkpt lat="46.97674" lon="6.03078">
        <ele>747.081543</ele>
        <time>2012-06-21T14:13:09Z</time>
      </trkpt>
      <trkpt lat="46.97657" lon="6.03101">
        <ele>748.523682</ele>
        <time>2012-06-21T14:13:27Z</time>
      </trkpt>
      <trkpt lat="46.9765" lon="6.03106">
        <ele>749.004395</ele>
        <time>2012-06-21T14:13:44Z</time>
      </trkpt>
      <trkpt lat="46.97641" lon="6.03103">
        <ele>750.927002</ele>
        <time>2012-06-21T14:14:00Z</time>
      </trkpt>
      <trkpt lat="46.97624" lon="6.03101">
        <ele>753.330322</ele>
        <time>2012-06-21T14:14:21Z</time>
      </trkpt>
      <trkpt lat="46.97612" lon="6.03108">
        <ele>755.25293</ele>
        <time>2012-06-21T14:14:36Z</time>
      </trkpt>
      <trkpt lat="46.97602" lon="6.03127">
        <ele>758.136963</ele>
        <time>2012-06-21T14:15:01Z</time>
      </trkpt>
      <trkpt lat="46.97602" lon="6.03136">
        <ele>761.020752</ele>
        <time>2012-06-21T14:15:20Z</time>
      </trkpt>
      <trkpt lat="46.97596" lon="6.0316">
        <ele>763.904541</ele>
        <time>2012-06-21T14:15:41Z</time>
      </trkpt>
      <trkpt lat="46.97591" lon="6.03179">
        <ele>767.269531</ele>
        <time>2012-06-21T14:16:02Z</time>
      </trkpt>
      <trkpt lat="46.97584" lon="6.032">
        <ele>770.15332</ele>
        <time>2012-06-21T14:16:22Z</time>
      </trkpt>
      <trkpt lat="46.97583" lon="6.03229">
        <ele>773.518066</ele>
        <time>2012-06-21T14:16:43Z</time>
      </trkpt>
      <trkpt lat="46.97585" lon="6.03254">
        <ele>775.921143</ele>
        <time>2012-06-21T14:17:04Z</time>
      </trkpt>
      <trkpt lat="46.97584" lon="6.03276">
        <ele>777.363281</ele>
        <time>2012-06-21T14:17:20Z</time>
      </trkpt>
      <trkpt lat="46.97572" lon="6.03295">
        <ele>779.285645</ele>
        <time>2012-06-21T14:17:40Z</time>
      </trkpt>
      <trkpt lat="46.9757" lon="6.03289">
        <ele>780.728027</ele>
        <time>2012-06-21T14:18:12Z</time>
      </trkpt>
      <trkpt lat="46.97543" lon="6.03286">
        <ele>782.650635</ele>
        <time>2012-06-21T14:19:19Z</time>
      </trkpt>
      <trkpt lat="46.9753" lon="6.03289">
        <ele>782.169922</ele>
        <time>2012-06-21T14:19:40Z</time>
      </trkpt>
      <trkpt lat="46.97526" lon="6.03293">
        <ele>782.650635</ele>
        <time>2012-06-21T14:20:37Z</time>
      </trkpt>
      <trkpt lat="46.9753" lon="6.0331">
        <ele>782.650635</ele>
        <time>2012-06-21T14:20:49Z</time>
      </trkpt>
      <trkpt lat="46.97533" lon="6.03342">
        <ele>781.689209</ele>
        <time>2012-06-21T14:21:08Z</time>
      </trkpt>
      <trkpt lat="46.97535" lon="6.03377">
        <ele>781.689209</ele>
        <time>2012-06-21T14:21:28Z</time>
      </trkpt>
      <trkpt lat="46.97538" lon="6.03406">
        <ele>782.650635</ele>
        <time>2012-06-21T14:21:45Z</time>
      </trkpt>
      <trkpt lat="46.97538" lon="6.03436">
        <ele>782.169922</ele>
        <time>2012-06-21T14:22:00Z</time>
      </trkpt>
      <trkpt lat="46.97539" lon="6.03465">
        <ele>781.20874</ele>
        <time>2012-06-21T14:22:18Z</time>
      </trkpt>
      <trkpt lat="46.97535" lon="6.03502">
        <ele>781.20874</ele>
        <time>2012-06-21T14:22:39Z</time>
      </trkpt>
      <trkpt lat="46.97533" lon="6.03528">
        <ele>781.689209</ele>
        <time>2012-06-21T14:22:52Z</time>
      </trkpt>
      <trkpt lat="46.97533" lon="6.03549">
        <ele>781.20874</ele>
        <time>2012-06-21T14:23:05Z</time>
      </trkpt>
      <trkpt lat="46.97533" lon="6.03558">
        <ele>781.20874</ele>
        <time>2012-06-21T14:23:11Z</time>
      </trkpt>
      <trkpt lat="46.9753" lon="6.03582">
        <ele>780.247314</ele>
        <time>2012-06-21T14:23:25Z</time>
      </trkpt>
      <trkpt lat="46.9753" lon="6.03587">
        <ele>780.247314</ele>
        <time>2012-06-21T14:23:28Z</time>
      </trkpt>
      <trkpt lat="46.97529" lon="6.03616">
        <ele>779.766357</ele>
        <time>2012-06-21T14:23:47Z</time>
      </trkpt>
      <trkpt lat="46.9753" lon="6.03623">
        <ele>779.285645</ele>
        <time>2012-06-21T14:23:51Z</time>
      </trkpt>
      <trkpt lat="46.97529" lon="6.03636">
        <ele>778.324463</ele>
        <time>2012-06-21T14:23:57Z</time>
      </trkpt>
      <trkpt lat="46.9753" lon="6.03663">
        <ele>776.882568</ele>
        <time>2012-06-21T14:24:13Z</time>
      </trkpt>
      <trkpt lat="46.97531" lon="6.03664">
        <ele>776.401855</ele>
        <time>2012-06-21T14:24:14Z</time>
      </trkpt>
      <trkpt lat="46.97531" lon="6.03687">
        <ele>774.479248</ele>
        <time>2012-06-21T14:24:29Z</time>
      </trkpt>
      <trkpt lat="46.97536" lon="6.0372">
        <ele>772.556641</ele>
        <time>2012-06-21T14:24:45Z</time>
      </trkpt>
      <trkpt lat="46.9753" lon="6.03761">
        <ele>769.192139</ele>
        <time>2012-06-21T14:25:08Z</time>
      </trkpt>
      <trkpt lat="46.9753" lon="6.03785">
        <ele>767.75</ele>
        <time>2012-06-21T14:25:22Z</time>
      </trkpt>
      <trkpt lat="46.9753" lon="6.03796">
        <ele>766.308105</ele>
        <time>2012-06-21T14:25:29Z</time>
      </trkpt>
      <trkpt lat="46.97522" lon="6.03816">
        <ele>764.385498</ele>
        <time>2012-06-21T14:25:43Z</time>
      </trkpt>
      <trkpt lat="46.97515" lon="6.03805">
        <ele>763.904541</ele>
        <time>2012-06-21T14:25:55Z</time>
      </trkpt>
      <trkpt lat="46.97515" lon="6.0379">
        <ele>763.904541</ele>
        <time>2012-06-21T14:26:05Z</time>
      </trkpt>
      <trkpt lat="46.97507" lon="6.03743">
        <ele>762.943359</ele>
        <time>2012-06-21T14:26:28Z</time>
      </trkpt>
      <trkpt lat="46.97491" lon="6.03704">
        <ele>762.462646</ele>
        <time>2012-06-21T14:26:50Z</time>
      </trkpt>
      <trkpt lat="46.97482" lon="6.03697">
        <ele>762.462646</ele>
        <time>2012-06-21T14:26:59Z</time>
      </trkpt>
      <trkpt lat="46.97459" lon="6.03675">
        <ele>761.501465</ele>
        <time>2012-06-21T14:27:20Z</time>
      </trkpt>
      <trkpt lat="46.97447" lon="6.03643">
        <ele>760.540039</ele>
        <time>2012-06-21T14:27:40Z</time>
      </trkpt>
      <trkpt lat="46.97442" lon="6.03617">
        <ele>760.059326</ele>
        <time>2012-06-21T14:27:56Z</time>
      </trkpt>
      <trkpt lat="46.9744" lon="6.03612">
        <ele>760.059326</ele>
        <time>2012-06-21T14:27:58Z</time>
      </trkpt>
      <trkpt lat="46.97435" lon="6.03581">
        <ele>759.098145</ele>
        <time>2012-06-21T14:28:15Z</time>
      </trkpt>
      <trkpt lat="46.97423" lon="6.03537">
        <ele>757.65625</ele>
        <time>2012-06-21T14:28:38Z</time>
      </trkpt>
      <trkpt lat="46.9741" lon="6.03493">
        <ele>755.733643</ele>
        <time>2012-06-21T14:29:03Z</time>
      </trkpt>
      <trkpt lat="46.97401" lon="6.03453">
        <ele>754.772217</ele>
        <time>2012-06-21T14:29:26Z</time>
      </trkpt>
      <trkpt lat="46.97397" lon="6.03434">
        <ele>753.811035</ele>
        <time>2012-06-21T14:29:36Z</time>
      </trkpt>
      <trkpt lat="46.97387" lon="6.034">
        <ele>752.368896</ele>
        <time>2012-06-21T14:29:55Z</time>
      </trkpt>
      <trkpt lat="46.97384" lon="6.03387">
        <ele>751.888428</ele>
        <time>2012-06-21T14:30:02Z</time>
      </trkpt>
      <trkpt lat="46.97382" lon="6.03374">
        <ele>750.927002</ele>
        <time>2012-06-21T14:30:11Z</time>
      </trkpt>
      <trkpt lat="46.97381" lon="6.03372">
        <ele>750.927002</ele>
        <time>2012-06-21T14:30:13Z</time>
      </trkpt>
      <trkpt lat="46.9738" lon="6.03368">
        <ele>750.446533</ele>
        <time>2012-06-21T14:30:15Z</time>
      </trkpt>
      <trkpt lat="46.9737" lon="6.03343">
        <ele>749.485107</ele>
        <time>2012-06-21T14:30:31Z</time>
      </trkpt>
      <trkpt lat="46.9737" lon="6.03338">
        <ele>749.485107</ele>
        <time>2012-06-21T14:30:34Z</time>
      </trkpt>
      <trkpt lat="46.97363" lon="6.03322">
        <ele>747.562256</ele>
        <time>2012-06-21T14:30:54Z</time>
      </trkpt>
      <trkpt lat="46.97361" lon="6.03321">
        <ele>746.601074</ele>
        <time>2012-06-21T14:30:57Z</time>
      </trkpt>
      <trkpt lat="46.97354" lon="6.03319">
        <ele>744.678223</ele>
        <time>2012-06-21T14:31:04Z</time>
      </trkpt>
      <trkpt lat="46.97349" lon="6.03321">
        <ele>744.197754</ele>
        <time>2012-06-21T14:31:09Z</time>
      </trkpt>
      <trkpt lat="46.97342" lon="6.0333">
        <ele>741.794434</ele>
        <time>2012-06-21T14:31:23Z</time>
      </trkpt>
      <trkpt lat="46.9734" lon="6.03356">
        <ele>740.352539</ele>
        <time>2012-06-21T14:31:43Z</time>
      </trkpt>
      <trkpt lat="46.9732" lon="6.03347">
        <ele>737.468506</ele>
        <time>2012-06-21T14:31:59Z</time>
      </trkpt>
      <trkpt lat="46.97319" lon="6.03343">
        <ele>736.987793</ele>
        <time>2012-06-21T14:32:02Z</time>
      </trkpt>
      <trkpt lat="46.97318" lon="6.03326">
        <ele>735.545898</ele>
        <time>2012-06-21T14:32:16Z</time>
      </trkpt>
      <trkpt lat="46.97307" lon="6.03293">
        <ele>733.623291</ele>
        <time>2012-06-21T14:32:35Z</time>
      </trkpt>
      <trkpt lat="46.97303" lon="6.03286">
        <ele>732.662109</ele>
        <time>2012-06-21T14:32:41Z</time>
      </trkpt>
      <trkpt lat="46.973" lon="6.03262">
        <ele>730.258545</ele>
        <time>2012-06-21T14:32:56Z</time>
      </trkpt>
      <trkpt lat="46.97288" lon="6.03246">
        <ele>727.855225</ele>
        <time>2012-06-21T14:33:09Z</time>
      </trkpt>
      <trkpt lat="46.97275" lon="6.03235">
        <ele>724.971436</ele>
        <time>2012-06-21T14:33:26Z</time>
      </trkpt>
      <trkpt lat="46.9727" lon="6.0325">
        <ele>722.087402</ele>
        <time>2012-06-21T14:33:44Z</time>
      </trkpt>
      <trkpt lat="46.97269" lon="6.03266">
        <ele>721.606689</ele>
        <time>2012-06-21T14:33:51Z</time>
      </trkpt>
      <trkpt lat="46.97265" lon="6.03278">
        <ele>720.645508</ele>
        <time>2012-06-21T14:33:58Z</time>
      </trkpt>
      <trkpt lat="46.97255" lon="6.03304">
        <ele>719.203613</ele>
        <time>2012-06-21T14:34:12Z</time>
      </trkpt>
      <trkpt lat="46.97249" lon="6.0334">
        <ele>716.800293</ele>
        <time>2012-06-21T14:34:29Z</time>
      </trkpt>
      <trkpt lat="46.97247" lon="6.03372">
        <ele>714.877441</ele>
        <time>2012-06-21T14:34:46Z</time>
      </trkpt>
      <trkpt lat="46.9725" lon="6.03392">
        <ele>713.435547</ele>
        <time>2012-06-21T14:35:00Z</time>
      </trkpt>
      <trkpt lat="46.97245" lon="6.03419">
        <ele>711.512939</ele>
        <time>2012-06-21T14:35:13Z</time>
      </trkpt>
      <trkpt lat="46.97246" lon="6.03446">
        <ele>710.070801</ele>
        <time>2012-06-21T14:35:31Z</time>
      </trkpt>
      <trkpt lat="46.9725" lon="6.03477">
        <ele>708.628906</ele>
        <time>2012-06-21T14:35:48Z</time>
      </trkpt>
      <trkpt lat="46.97261" lon="6.03518">
        <ele>707.667725</ele>
        <time>2012-06-21T14:36:04Z</time>
      </trkpt>
      <trkpt lat="46.97267" lon="6.03543">
        <ele>704.303223</ele>
        <time>2012-06-21T14:36:22Z</time>
      </trkpt>
      <trkpt lat="46.97267" lon="6.03572">
        <ele>701.419189</ele>
        <time>2012-06-21T14:36:40Z</time>
      </trkpt>
      <trkpt lat="46.97253" lon="6.0359">
        <ele>698.054443</ele>
        <time>2012-06-21T14:36:54Z</time>
      </trkpt>
      <trkpt lat="46.97249" lon="6.036">
        <ele>697.093018</ele>
        <time>2012-06-21T14:37:00Z</time>
      </trkpt>
      <trkpt lat="46.97233" lon="6.0361">
        <ele>695.651123</ele>
        <time>2012-06-21T14:37:12Z</time>
      </trkpt>
      <trkpt lat="46.97224" lon="6.03612">
        <ele>694.209229</ele>
        <time>2012-06-21T14:37:22Z</time>
      </trkpt>
      <trkpt lat="46.97224" lon="6.03608">
        <ele>694.209229</ele>
        <time>2012-06-21T14:37:24Z</time>
      </trkpt>
      <trkpt lat="46.9722" lon="6.0359">
        <ele>693.247803</ele>
        <time>2012-06-21T14:37:36Z</time>
      </trkpt>
      <trkpt lat="46.97224" lon="6.03573">
        <ele>693.247803</ele>
        <time>2012-06-21T14:37:42Z</time>
      </trkpt>
      <trkpt lat="46.97225" lon="6.03554">
        <ele>693.247803</ele>
        <time>2012-06-21T14:37:49Z</time>
      </trkpt>
      <trkpt lat="46.97225" lon="6.0355">
        <ele>693.247803</ele>
        <time>2012-06-21T14:37:51Z</time>
      </trkpt>
      <trkpt lat="46.97224" lon="6.03548">
        <ele>693.247803</ele>
        <time>2012-06-21T14:37:53Z</time>
      </trkpt>
      <trkpt lat="46.97223" lon="6.03533">
        <ele>693.728516</ele>
        <time>2012-06-21T14:38:00Z</time>
      </trkpt>
      <trkpt lat="46.9722" lon="6.03514">
        <ele>693.728516</ele>
        <time>2012-06-21T14:38:10Z</time>
      </trkpt>
      <trkpt lat="46.97212" lon="6.03481">
        <ele>693.728516</ele>
        <time>2012-06-21T14:38:27Z</time>
      </trkpt>
      <trkpt lat="46.97208" lon="6.03441">
        <ele>694.689697</ele>
        <time>2012-06-21T14:38:46Z</time>
      </trkpt>
      <trkpt lat="46.97205" lon="6.034">
        <ele>696.612549</ele>
        <time>2012-06-21T14:39:07Z</time>
      </trkpt>
      <trkpt lat="46.97195" lon="6.03377">
        <ele>696.131836</ele>
        <time>2012-06-21T14:39:29Z</time>
      </trkpt>
      <trkpt lat="46.97192" lon="6.03382">
        <ele>696.131836</ele>
        <time>2012-06-21T14:40:25Z</time>
      </trkpt>
      <trkpt lat="46.97192" lon="6.03392">
        <ele>696.612549</ele>
        <time>2012-06-21T14:41:39Z</time>
      </trkpt>
      <trkpt lat="46.97181" lon="6.03396">
        <ele>696.612549</ele>
        <time>2012-06-21T14:42:02Z</time>
      </trkpt>
      <trkpt lat="46.97199" lon="6.03386">
        <ele>696.131836</ele>
        <time>2012-06-21T14:42:30Z</time>
      </trkpt>
      <trkpt lat="46.97195" lon="6.0337">
        <ele>696.131836</ele>
        <time>2012-06-21T14:42:44Z</time>
      </trkpt>
      <trkpt lat="46.97195" lon="6.03351">
        <ele>695.651123</ele>
        <time>2012-06-21T14:43:17Z</time>
      </trkpt>
      <trkpt lat="46.97187" lon="6.03341">
        <ele>694.689697</ele>
        <time>2012-06-21T14:43:26Z</time>
      </trkpt>
      <trkpt lat="46.97179" lon="6.0332">
        <ele>692.286621</ele>
        <time>2012-06-21T14:43:41Z</time>
      </trkpt>
      <trkpt lat="46.97174" lon="6.03309">
        <ele>691.325195</ele>
        <time>2012-06-21T14:43:49Z</time>
      </trkpt>
      <trkpt lat="46.97166" lon="6.03289">
        <ele>688.922119</ele>
        <time>2012-06-21T14:44:03Z</time>
      </trkpt>
      <trkpt lat="46.97163" lon="6.03267">
        <ele>686.999268</ele>
        <time>2012-06-21T14:44:16Z</time>
      </trkpt>
      <trkpt lat="46.97161" lon="6.03263">
        <ele>686.518799</ele>
        <time>2012-06-21T14:44:18Z</time>
      </trkpt>
      <trkpt lat="46.9716" lon="6.03257">
        <ele>686.038086</ele>
        <time>2012-06-21T14:44:22Z</time>
      </trkpt>
      <trkpt lat="46.97158" lon="6.03252">
        <ele>685.557373</ele>
        <time>2012-06-21T14:44:25Z</time>
      </trkpt>
      <trkpt lat="46.97155" lon="6.03237">
        <ele>683.634521</ele>
        <time>2012-06-21T14:44:33Z</time>
      </trkpt>
      <trkpt lat="46.9715" lon="6.03224">
        <ele>681.711914</ele>
        <time>2012-06-21T14:44:42Z</time>
      </trkpt>
      <trkpt lat="46.97146" lon="6.03218">
        <ele>681.231445</ele>
        <time>2012-06-21T14:44:46Z</time>
      </trkpt>
      <trkpt lat="46.97145" lon="6.03211">
        <ele>680.750732</ele>
        <time>2012-06-21T14:44:50Z</time>
      </trkpt>
      <trkpt lat="46.97143" lon="6.03203">
        <ele>679.308594</ele>
        <time>2012-06-21T14:44:55Z</time>
      </trkpt>
      <trkpt lat="46.97142" lon="6.03193">
        <ele>678.347412</ele>
        <time>2012-06-21T14:45:01Z</time>
      </trkpt>
      <trkpt lat="46.97139" lon="6.03186">
        <ele>677.38623</ele>
        <time>2012-06-21T14:45:06Z</time>
      </trkpt>
      <trkpt lat="46.97138" lon="6.03181">
        <ele>676.905518</ele>
        <time>2012-06-21T14:45:09Z</time>
      </trkpt>
      <trkpt lat="46.97136" lon="6.03162">
        <ele>675.463379</ele>
        <time>2012-06-21T14:45:21Z</time>
      </trkpt>
      <trkpt lat="46.97135" lon="6.03156">
        <ele>674.98291</ele>
        <time>2012-06-21T14:45:24Z</time>
      </trkpt>
      <trkpt lat="46.97137" lon="6.03151">
        <ele>674.98291</ele>
        <time>2012-06-21T14:45:26Z</time>
      </trkpt>
      <trkpt lat="46.97137" lon="6.03145">
        <ele>674.502197</ele>
        <time>2012-06-21T14:45:29Z</time>
      </trkpt>
      <trkpt lat="46.97135" lon="6.03142">
        <ele>674.502197</ele>
        <time>2012-06-21T14:45:31Z</time>
      </trkpt>
      <trkpt lat="46.97135" lon="6.03127">
        <ele>674.021484</ele>
        <time>2012-06-21T14:45:39Z</time>
      </trkpt>
      <trkpt lat="46.97126" lon="6.03108">
        <ele>673.541016</ele>
        <time>2012-06-21T14:45:50Z</time>
      </trkpt>
      <trkpt lat="46.97126" lon="6.03106">
        <ele>673.541016</ele>
        <time>2012-06-21T14:45:51Z</time>
      </trkpt>
      <trkpt lat="46.97116" lon="6.03094">
        <ele>672.57959</ele>
        <time>2012-06-21T14:45:59Z</time>
      </trkpt>
      <trkpt lat="46.97112" lon="6.0308">
        <ele>672.098877</ele>
        <time>2012-06-21T14:46:05Z</time>
      </trkpt>
      <trkpt lat="46.9711" lon="6.03062">
        <ele>671.618164</ele>
        <time>2012-06-21T14:46:13Z</time>
      </trkpt>
      <trkpt lat="46.97107" lon="6.03055">
        <ele>671.618164</ele>
        <time>2012-06-21T14:46:16Z</time>
      </trkpt>
      <trkpt lat="46.97102" lon="6.03052">
        <ele>671.137695</ele>
        <time>2012-06-21T14:46:19Z</time>
      </trkpt>
      <trkpt lat="46.97096" lon="6.03033">
        <ele>670.656982</ele>
        <time>2012-06-21T14:46:28Z</time>
      </trkpt>
      <trkpt lat="46.97095" lon="6.03024">
        <ele>670.17627</ele>
        <time>2012-06-21T14:46:33Z</time>
      </trkpt>
      <trkpt lat="46.97091" lon="6.03013">
        <ele>670.17627</ele>
        <time>2012-06-21T14:46:39Z</time>
      </trkpt>
      <trkpt lat="46.97086" lon="6.03">
        <ele>669.215088</ele>
        <time>2012-06-21T14:46:47Z</time>
      </trkpt>
      <trkpt lat="46.97084" lon="6.02992">
        <ele>669.215088</ele>
        <time>2012-06-21T14:46:51Z</time>
      </trkpt>
      <trkpt lat="46.97083" lon="6.02986">
        <ele>668.734375</ele>
        <time>2012-06-21T14:46:55Z</time>
      </trkpt>
      <trkpt lat="46.97082" lon="6.0298">
        <ele>668.734375</ele>
        <time>2012-06-21T14:46:58Z</time>
      </trkpt>
      <trkpt lat="46.97079" lon="6.02959">
        <ele>667.772705</ele>
        <time>2012-06-21T14:47:07Z</time>
      </trkpt>
      <trkpt lat="46.97077" lon="6.02951">
        <ele>667.772705</ele>
        <time>2012-06-21T14:47:11Z</time>
      </trkpt>
      <trkpt lat="46.97077" lon="6.02942">
        <ele>667.292236</ele>
        <time>2012-06-21T14:47:15Z</time>
      </trkpt>
      <trkpt lat="46.97074" lon="6.02933">
        <ele>667.292236</ele>
        <time>2012-06-21T14:47:20Z</time>
      </trkpt>
      <trkpt lat="46.97073" lon="6.02926">
        <ele>666.811523</ele>
        <time>2012-06-21T14:47:24Z</time>
      </trkpt>
      <trkpt lat="46.97072" lon="6.02922">
        <ele>666.330811</ele>
        <time>2012-06-21T14:47:26Z</time>
      </trkpt>
      <trkpt lat="46.97069" lon="6.02893">
        <ele>665.369629</ele>
        <time>2012-06-21T14:47:41Z</time>
      </trkpt>
      <trkpt lat="46.97067" lon="6.02886">
        <ele>664.888916</ele>
        <time>2012-06-21T14:47:45Z</time>
      </trkpt>
      <trkpt lat="46.97068" lon="6.0288">
        <ele>664.888916</ele>
        <time>2012-06-21T14:47:48Z</time>
      </trkpt>
      <trkpt lat="46.9706" lon="6.0286">
        <ele>664.888916</ele>
        <time>2012-06-21T14:47:58Z</time>
      </trkpt>
      <trkpt lat="46.97058" lon="6.02858">
        <ele>664.408203</ele>
        <time>2012-06-21T14:48:00Z</time>
      </trkpt>
      <trkpt lat="46.97054" lon="6.02827">
        <ele>663.92749</ele>
        <time>2012-06-21T14:48:14Z</time>
      </trkpt>
      <trkpt lat="46.97051" lon="6.02808">
        <ele>663.92749</ele>
        <time>2012-06-21T14:48:23Z</time>
      </trkpt>
      <trkpt lat="46.9705" lon="6.02799">
        <ele>663.92749</ele>
        <time>2012-06-21T14:48:28Z</time>
      </trkpt>
      <trkpt lat="46.97047" lon="6.02779">
        <ele>663.447021</ele>
        <time>2012-06-21T14:48:38Z</time>
      </trkpt>
      <trkpt lat="46.97047" lon="6.02761">
        <ele>663.447021</ele>
        <time>2012-06-21T14:48:46Z</time>
      </trkpt>
      <trkpt lat="46.97044" lon="6.02753">
        <ele>663.447021</ele>
        <time>2012-06-21T14:48:51Z</time>
      </trkpt>
      <trkpt lat="46.97039" lon="6.02746">
        <ele>663.447021</ele>
        <time>2012-06-21T14:48:57Z</time>
      </trkpt>
      <trkpt lat="46.97037" lon="6.02738">
        <ele>662.966309</ele>
        <time>2012-06-21T14:49:02Z</time>
      </trkpt>
      <trkpt lat="46.97036" lon="6.02735">
        <ele>663.447021</ele>
        <time>2012-06-21T14:49:04Z</time>
      </trkpt>
      <trkpt lat="46.97034" lon="6.02729">
        <ele>663.447021</ele>
        <time>2012-06-21T14:49:08Z</time>
      </trkpt>
      <trkpt lat="46.97036" lon="6.02721">
        <ele>662.966309</ele>
        <time>2012-06-21T14:49:12Z</time>
      </trkpt>
      <trkpt lat="46.97032" lon="6.02684">
        <ele>662.485596</ele>
        <time>2012-06-21T14:49:31Z</time>
      </trkpt>
      <trkpt lat="46.9703" lon="6.02676">
        <ele>662.005127</ele>
        <time>2012-06-21T14:49:36Z</time>
      </trkpt>
      <trkpt lat="46.97028" lon="6.02672">
        <ele>662.485596</ele>
        <time>2012-06-21T14:49:38Z</time>
      </trkpt>
      <trkpt lat="46.97029" lon="6.02665">
        <ele>662.005127</ele>
        <time>2012-06-21T14:49:41Z</time>
      </trkpt>
      <trkpt lat="46.97027" lon="6.02654">
        <ele>662.485596</ele>
        <time>2012-06-21T14:49:47Z</time>
      </trkpt>
      <trkpt lat="46.97023" lon="6.02639">
        <ele>662.005127</ele>
        <time>2012-06-21T14:49:55Z</time>
      </trkpt>
      <trkpt lat="46.97022" lon="6.02635">
        <ele>662.005127</ele>
        <time>2012-06-21T14:49:58Z</time>
      </trkpt>
      <trkpt lat="46.9702" lon="6.02606">
        <ele>661.524414</ele>
        <time>2012-06-21T14:50:12Z</time>
      </trkpt>
      <trkpt lat="46.9702" lon="6.02591">
        <ele>661.524414</ele>
        <time>2012-06-21T14:50:19Z</time>
      </trkpt>
      <trkpt lat="46.97019" lon="6.02579">
        <ele>661.524414</ele>
        <time>2012-06-21T14:50:25Z</time>
      </trkpt>
      <trkpt lat="46.97019" lon="6.02572">
        <ele>661.524414</ele>
        <time>2012-06-21T14:50:29Z</time>
      </trkpt>
      <trkpt lat="46.97019" lon="6.02568">
        <ele>661.524414</ele>
        <time>2012-06-21T14:50:31Z</time>
      </trkpt>
      <trkpt lat="46.97017" lon="6.02551">
        <ele>661.524414</ele>
        <time>2012-06-21T14:50:39Z</time>
      </trkpt>
      <trkpt lat="46.97013" lon="6.02514">
        <ele>662.005127</ele>
        <time>2012-06-21T14:50:56Z</time>
      </trkpt>
      <trkpt lat="46.97008" lon="6.02482">
        <ele>662.966309</ele>
        <time>2012-06-21T14:51:13Z</time>
      </trkpt>
      <trkpt lat="46.97005" lon="6.02472">
        <ele>662.966309</ele>
        <time>2012-06-21T14:51:18Z</time>
      </trkpt>
      <trkpt lat="46.97003" lon="6.02439">
        <ele>662.485596</ele>
        <time>2012-06-21T14:51:34Z</time>
      </trkpt>
      <trkpt lat="46.96992" lon="6.02402">
        <ele>660.562988</ele>
        <time>2012-06-21T14:51:55Z</time>
      </trkpt>
      <trkpt lat="46.96988" lon="6.02382">
        <ele>659.601807</ele>
        <time>2012-06-21T14:52:06Z</time>
      </trkpt>
      <trkpt lat="46.96985" lon="6.02373">
        <ele>659.121094</ele>
        <time>2012-06-21T14:52:12Z</time>
      </trkpt>
      <trkpt lat="46.96982" lon="6.02362">
        <ele>658.640381</ele>
        <time>2012-06-21T14:52:19Z</time>
      </trkpt>
      <trkpt lat="46.96973" lon="6.0234">
        <ele>656.717773</ele>
        <time>2012-06-21T14:52:33Z</time>
      </trkpt>
      <trkpt lat="46.96968" lon="6.02325">
        <ele>655.275879</ele>
        <time>2012-06-21T14:52:41Z</time>
      </trkpt>
      <trkpt lat="46.96964" lon="6.02305">
        <ele>653.353271</ele>
        <time>2012-06-21T14:52:51Z</time>
      </trkpt>
      <trkpt lat="46.96959" lon="6.02289">
        <ele>651.911133</ele>
        <time>2012-06-21T14:53:00Z</time>
      </trkpt>
      <trkpt lat="46.96951" lon="6.02265">
        <ele>648.546387</ele>
        <time>2012-06-21T14:53:15Z</time>
      </trkpt>
      <trkpt lat="46.96947" lon="6.02253">
        <ele>646.624023</ele>
        <time>2012-06-21T14:53:23Z</time>
      </trkpt>
      <trkpt lat="46.96948" lon="6.0225">
        <ele>646.624023</ele>
        <time>2012-06-21T14:53:25Z</time>
      </trkpt>
      <trkpt lat="46.96948" lon="6.02234">
        <ele>644.701172</ele>
        <time>2012-06-21T14:53:34Z</time>
      </trkpt>
      <trkpt lat="46.96934" lon="6.02225">
        <ele>642.298096</ele>
        <time>2012-06-21T14:53:46Z</time>
      </trkpt>
      <trkpt lat="46.96923" lon="6.02194">
        <ele>638.933594</ele>
        <time>2012-06-21T14:54:05Z</time>
      </trkpt>
      <trkpt lat="46.96917" lon="6.0218">
        <ele>637.491455</ele>
        <time>2012-06-21T14:54:15Z</time>
      </trkpt>
      <trkpt lat="46.96917" lon="6.02164">
        <ele>636.049561</ele>
        <time>2012-06-21T14:54:22Z</time>
      </trkpt>
      <trkpt lat="46.96908" lon="6.02153">
        <ele>634.607422</ele>
        <time>2012-06-21T14:54:32Z</time>
      </trkpt>
      <trkpt lat="46.96904" lon="6.02138">
        <ele>633.165283</ele>
        <time>2012-06-21T14:54:42Z</time>
      </trkpt>
      <trkpt lat="46.96891" lon="6.02115">
        <ele>629.320068</ele>
        <time>2012-06-21T14:55:01Z</time>
      </trkpt>
      <trkpt lat="46.96881" lon="6.0209">
        <ele>626.436279</ele>
        <time>2012-06-21T14:55:16Z</time>
      </trkpt>
      <trkpt lat="46.96879" lon="6.0208">
        <ele>625.474854</ele>
        <time>2012-06-21T14:55:21Z</time>
      </trkpt>
      <trkpt lat="46.96875" lon="6.0207">
        <ele>624.513672</ele>
        <time>2012-06-21T14:55:27Z</time>
      </trkpt>
      <trkpt lat="46.96879" lon="6.02058">
        <ele>623.55249</ele>
        <time>2012-06-21T14:55:31Z</time>
      </trkpt>
      <trkpt lat="46.96869" lon="6.02051">
        <ele>621.629639</ele>
        <time>2012-06-21T14:55:40Z</time>
      </trkpt>
      <trkpt lat="46.96866" lon="6.02044">
        <ele>620.187744</ele>
        <time>2012-06-21T14:55:46Z</time>
      </trkpt>
      <trkpt lat="46.96862" lon="6.02032">
        <ele>619.226318</ele>
        <time>2012-06-21T14:55:52Z</time>
      </trkpt>
      <trkpt lat="46.96856" lon="6.02029">
        <ele>617.303711</ele>
        <time>2012-06-21T14:55:59Z</time>
      </trkpt>
      <trkpt lat="46.96856" lon="6.02008">
        <ele>614.419678</ele>
        <time>2012-06-21T14:56:14Z</time>
      </trkpt>
      <trkpt lat="46.96859" lon="6.01998">
        <ele>613.458496</ele>
        <time>2012-06-21T14:56:19Z</time>
      </trkpt>
      <trkpt lat="46.96859" lon="6.01985">
        <ele>612.016602</ele>
        <time>2012-06-21T14:56:25Z</time>
      </trkpt>
      <trkpt lat="46.96855" lon="6.01962">
        <ele>609.613281</ele>
        <time>2012-06-21T14:56:36Z</time>
      </trkpt>
      <trkpt lat="46.96847" lon="6.01938">
        <ele>607.209961</ele>
        <time>2012-06-21T14:56:50Z</time>
      </trkpt>
      <trkpt lat="46.9683" lon="6.01909">
        <ele>604.326172</ele>
        <time>2012-06-21T14:57:08Z</time>
      </trkpt>
      <trkpt lat="46.96819" lon="6.01881">
        <ele>602.403076</ele>
        <time>2012-06-21T14:57:24Z</time>
      </trkpt>
      <trkpt lat="46.96803" lon="6.01854">
        <ele>600</ele>
        <time>2012-06-21T14:57:43Z</time>
      </trkpt>
      <trkpt lat="46.96795" lon="6.01839">
        <ele>598.557861</ele>
        <time>2012-06-21T14:57:53Z</time>
      </trkpt>
      <trkpt lat="46.96788" lon="6.01832">
        <ele>597.59668</ele>
        <time>2012-06-21T14:58:01Z</time>
      </trkpt>
      <trkpt lat="46.96785" lon="6.01828">
        <ele>597.59668</ele>
        <time>2012-06-21T14:58:04Z</time>
      </trkpt>
      <trkpt lat="46.96764" lon="6.01818">
        <ele>595.193359</ele>
        <time>2012-06-21T14:58:21Z</time>
      </trkpt>
      <trkpt lat="46.96745" lon="6.01811">
        <ele>593.751465</ele>
        <time>2012-06-21T14:58:37Z</time>
      </trkpt>
      <trkpt lat="46.96732" lon="6.01813">
        <ele>592.790283</ele>
        <time>2012-06-21T14:58:48Z</time>
      </trkpt>
      <trkpt lat="46.96719" lon="6.01808">
        <ele>592.30957</ele>
        <time>2012-06-21T14:58:58Z</time>
      </trkpt>
      <trkpt lat="46.96694" lon="6.018">
        <ele>591.348145</ele>
        <time>2012-06-21T14:59:18Z</time>
      </trkpt>
      <trkpt lat="46.9669" lon="6.01796">
        <ele>591.348145</ele>
        <time>2012-06-21T14:59:21Z</time>
      </trkpt>
      <trkpt lat="46.96686" lon="6.01789">
        <ele>591.348145</ele>
        <time>2012-06-21T14:59:25Z</time>
      </trkpt>
      <trkpt lat="46.96678" lon="6.0178">
        <ele>590.867432</ele>
        <time>2012-06-21T14:59:30Z</time>
      </trkpt>
      <trkpt lat="46.96662" lon="6.01748">
        <ele>588.464355</ele>
        <time>2012-06-21T14:59:48Z</time>
      </trkpt>
      <trkpt lat="46.96659" lon="6.01745">
        <ele>587.983398</ele>
        <time>2012-06-21T14:59:52Z</time>
      </trkpt>
      <trkpt lat="46.96653" lon="6.01741">
        <ele>587.021973</ele>
        <time>2012-06-21T14:59:57Z</time>
      </trkpt>
      <trkpt lat="46.96648" lon="6.01727">
        <ele>585.580078</ele>
        <time>2012-06-21T15:00:06Z</time>
      </trkpt>
      <trkpt lat="46.96645" lon="6.01713">
        <ele>584.138184</ele>
        <time>2012-06-21T15:00:13Z</time>
      </trkpt>
      <trkpt lat="46.9664" lon="6.01661">
        <ele>581.734863</ele>
        <time>2012-06-21T15:00:38Z</time>
      </trkpt>
      <trkpt lat="46.96632" lon="6.01642">
        <ele>580.773682</ele>
        <time>2012-06-21T15:00:49Z</time>
      </trkpt>
      <trkpt lat="46.96626" lon="6.01621">
        <ele>578.370361</ele>
        <time>2012-06-21T15:01:06Z</time>
      </trkpt>
      <trkpt lat="46.96625" lon="6.01611">
        <ele>576.447754</ele>
        <time>2012-06-21T15:01:14Z</time>
      </trkpt>
      <trkpt lat="46.96622" lon="6.01583">
        <ele>573.083252</ele>
        <time>2012-06-21T15:01:33Z</time>
      </trkpt>
      <trkpt lat="46.96618" lon="6.01572">
        <ele>570.679688</ele>
        <time>2012-06-21T15:01:44Z</time>
      </trkpt>
      <trkpt lat="46.96607" lon="6.01549">
        <ele>567.315186</ele>
        <time>2012-06-21T15:02:01Z</time>
      </trkpt>
      <trkpt lat="46.96606" lon="6.01546">
        <ele>566.834473</ele>
        <time>2012-06-21T15:02:03Z</time>
      </trkpt>
      <trkpt lat="46.96597" lon="6.01524">
        <ele>564.431152</ele>
        <time>2012-06-21T15:02:19Z</time>
      </trkpt>
      <trkpt lat="46.96593" lon="6.01517">
        <ele>562.989258</ele>
        <time>2012-06-21T15:02:24Z</time>
      </trkpt>
      <trkpt lat="46.96589" lon="6.01511">
        <ele>562.028076</ele>
        <time>2012-06-21T15:02:29Z</time>
      </trkpt>
      <trkpt lat="46.96568" lon="6.01507">
        <ele>559.624756</ele>
        <time>2012-06-21T15:02:47Z</time>
      </trkpt>
      <trkpt lat="46.96555" lon="6.01517">
        <ele>558.182861</ele>
        <time>2012-06-21T15:03:02Z</time>
      </trkpt>
      <trkpt lat="46.96553" lon="6.01519">
        <ele>557.702148</ele>
        <time>2012-06-21T15:03:05Z</time>
      </trkpt>
      <trkpt lat="46.96544" lon="6.01527">
        <ele>556.740723</ele>
        <time>2012-06-21T15:03:10Z</time>
      </trkpt>
      <trkpt lat="46.96529" lon="6.0155">
        <ele>555.298584</ele>
        <time>2012-06-21T15:03:24Z</time>
      </trkpt>
      <trkpt lat="46.9652" lon="6.01558">
        <ele>554.337402</ele>
        <time>2012-06-21T15:03:33Z</time>
      </trkpt>
      <trkpt lat="46.96508" lon="6.01569">
        <ele>553.375977</ele>
        <time>2012-06-21T15:03:43Z</time>
      </trkpt>
      <trkpt lat="46.96486" lon="6.01583">
        <ele>551.934082</ele>
        <time>2012-06-21T15:04:00Z</time>
      </trkpt>
      <trkpt lat="46.96462" lon="6.01585">
        <ele>550.492188</ele>
        <time>2012-06-21T15:04:18Z</time>
      </trkpt>
      <trkpt lat="46.96433" lon="6.01585">
        <ele>548.569336</ele>
        <time>2012-06-21T15:04:38Z</time>
      </trkpt>
      <trkpt lat="46.96425" lon="6.01585">
        <ele>548.088867</ele>
        <time>2012-06-21T15:04:43Z</time>
      </trkpt>
      <trkpt lat="46.96399" lon="6.01587">
        <ele>547.127441</ele>
        <time>2012-06-21T15:05:00Z</time>
      </trkpt>
      <trkpt lat="46.96372" lon="6.01579">
        <ele>545.204834</ele>
        <time>2012-06-21T15:05:21Z</time>
      </trkpt>
      <trkpt lat="46.96358" lon="6.01559">
        <ele>543.762817</ele>
        <time>2012-06-21T15:05:39Z</time>
      </trkpt>
      <trkpt lat="46.96361" lon="6.01559">
        <ele>543.762817</ele>
        <time>2012-06-21T15:06:01Z</time>
      </trkpt>
      <trkpt lat="46.96361" lon="6.01546">
        <ele>543.282104</ele>
        <time>2012-06-21T15:06:54Z</time>
      </trkpt>
      <trkpt lat="46.96367" lon="6.0152">
        <ele>541.84021</ele>
        <time>2012-06-21T15:07:08Z</time>
      </trkpt>
      <trkpt lat="46.96371" lon="6.01513">
        <ele>541.359497</ele>
        <time>2012-06-21T15:07:13Z</time>
      </trkpt>
      <trkpt lat="46.964" lon="6.01506">
        <ele>539.43689</ele>
        <time>2012-06-21T15:07:37Z</time>
      </trkpt>
      <trkpt lat="46.96404" lon="6.01512">
        <ele>538.956299</ele>
        <time>2012-06-21T15:07:40Z</time>
      </trkpt>
      <trkpt lat="46.96425" lon="6.01531">
        <ele>537.033691</ele>
        <time>2012-06-21T15:07:59Z</time>
      </trkpt>
      <trkpt lat="46.9644" lon="6.01533">
        <ele>536.072388</ele>
        <time>2012-06-21T15:08:12Z</time>
      </trkpt>
      <trkpt lat="46.96469" lon="6.01516">
        <ele>534.149658</ele>
        <time>2012-06-21T15:08:30Z</time>
      </trkpt>
      <trkpt lat="46.96485" lon="6.01502">
        <ele>532.227051</ele>
        <time>2012-06-21T15:08:44Z</time>
      </trkpt>
      <trkpt lat="46.96489" lon="6.01495">
        <ele>531.746338</ele>
        <time>2012-06-21T15:08:48Z</time>
      </trkpt>
      <trkpt lat="46.96497" lon="6.01478">
        <ele>530.785156</ele>
        <time>2012-06-21T15:08:58Z</time>
      </trkpt>
      <trkpt lat="46.96504" lon="6.01445">
        <ele>529.34314</ele>
        <time>2012-06-21T15:09:14Z</time>
      </trkpt>
      <trkpt lat="46.96511" lon="6.0142">
        <ele>528.862549</ele>
        <time>2012-06-21T15:09:29Z</time>
      </trkpt>
      <trkpt lat="46.96515" lon="6.01411">
        <ele>528.381836</ele>
        <time>2012-06-21T15:09:54Z</time>
      </trkpt>
      <trkpt lat="46.96526" lon="6.01403">
        <ele>526.939819</ele>
        <time>2012-06-21T15:10:07Z</time>
      </trkpt>
      <trkpt lat="46.96541" lon="6.0141">
        <ele>525.978394</ele>
        <time>2012-06-21T15:10:23Z</time>
      </trkpt>
      <trkpt lat="46.96553" lon="6.01412">
        <ele>525.497803</ele>
        <time>2012-06-21T15:10:39Z</time>
      </trkpt>
      <trkpt lat="46.96553" lon="6.01409">
        <ele>525.017212</ele>
        <time>2012-06-21T15:10:59Z</time>
      </trkpt>
      <trkpt lat="46.96571" lon="6.01421">
        <ele>523.575195</ele>
        <time>2012-06-21T15:11:20Z</time>
      </trkpt>
      <trkpt lat="46.96584" lon="6.01419">
        <ele>522.133179</ele>
        <time>2012-06-21T15:11:33Z</time>
      </trkpt>
      <trkpt lat="46.96593" lon="6.01422">
        <ele>521.171997</ele>
        <time>2012-06-21T15:12:03Z</time>
      </trkpt>
      <trkpt lat="46.9662" lon="6.01424">
        <ele>519.249268</ele>
        <time>2012-06-21T15:12:30Z</time>
      </trkpt>
      <trkpt lat="46.96662" lon="6.01432">
        <ele>516.365234</ele>
        <time>2012-06-21T15:12:56Z</time>
      </trkpt>
      <trkpt lat="46.9669" lon="6.01461">
        <ele>514.92334</ele>
        <time>2012-06-21T15:13:21Z</time>
      </trkpt>
      <trkpt lat="46.9671" lon="6.01484">
        <ele>513.000732</ele>
        <time>2012-06-21T15:13:43Z</time>
      </trkpt>
      <trkpt lat="46.96745" lon="6.01509">
        <ele>510.59729</ele>
        <time>2012-06-21T15:14:09Z</time>
      </trkpt>
      <trkpt lat="46.9677" lon="6.01519">
        <ele>508.194092</ele>
        <time>2012-06-21T15:14:30Z</time>
      </trkpt>
      <trkpt lat="46.96783" lon="6.01513">
        <ele>507.232788</ele>
        <time>2012-06-21T15:14:41Z</time>
      </trkpt>
      <trkpt lat="46.968" lon="6.01494">
        <ele>505.790894</ele>
        <time>2012-06-21T15:15:02Z</time>
      </trkpt>
      <trkpt lat="46.96802" lon="6.01474">
        <ele>504.348877</ele>
        <time>2012-06-21T15:15:23Z</time>
      </trkpt>
      <trkpt lat="46.96803" lon="6.01465">
        <ele>501.464844</ele>
        <time>2012-06-21T15:15:34Z</time>
      </trkpt>
      <trkpt lat="46.96804" lon="6.01451">
        <ele>498.100342</ele>
        <time>2012-06-21T15:15:46Z</time>
      </trkpt>
      <trkpt lat="46.96816" lon="6.01419">
        <ele>494.735596</ele>
        <time>2012-06-21T15:16:06Z</time>
      </trkpt>
      <trkpt lat="46.96824" lon="6.01397">
        <ele>491.851685</ele>
        <time>2012-06-21T15:16:25Z</time>
      </trkpt>
      <trkpt lat="46.96829" lon="6.01367">
        <ele>488.487183</ele>
        <time>2012-06-21T15:16:44Z</time>
      </trkpt>
      <trkpt lat="46.96834" lon="6.01344">
        <ele>485.603027</ele>
        <time>2012-06-21T15:17:03Z</time>
      </trkpt>
      <trkpt lat="46.96842" lon="6.01317">
        <ele>482.719238</ele>
        <time>2012-06-21T15:17:22Z</time>
      </trkpt>
      <trkpt lat="46.96853" lon="6.01294">
        <ele>479.354492</ele>
        <time>2012-06-21T15:17:39Z</time>
      </trkpt>
      <trkpt lat="46.96866" lon="6.0126">
        <ele>476.470581</ele>
        <time>2012-06-21T15:17:57Z</time>
      </trkpt>
      <trkpt lat="46.96878" lon="6.01242">
        <ele>473.106079</ele>
        <time>2012-06-21T15:18:12Z</time>
      </trkpt>
      <trkpt lat="46.96893" lon="6.01224">
        <ele>470.702637</ele>
        <time>2012-06-21T15:18:28Z</time>
      </trkpt>
      <trkpt lat="46.96916" lon="6.01214">
        <ele>468.780029</ele>
        <time>2012-06-21T15:18:47Z</time>
      </trkpt>
      <trkpt lat="46.96931" lon="6.01186">
        <ele>465.896118</ele>
        <time>2012-06-21T15:19:04Z</time>
      </trkpt>
      <trkpt lat="46.96941" lon="6.01148">
        <ele>462.531372</ele>
        <time>2012-06-21T15:19:24Z</time>
      </trkpt>
      <trkpt lat="46.96943" lon="6.01116">
        <ele>459.647583</ele>
        <time>2012-06-21T15:19:43Z</time>
      </trkpt>
      <trkpt lat="46.96942" lon="6.01102">
        <ele>458.686157</ele>
        <time>2012-06-21T15:19:51Z</time>
      </trkpt>
      <trkpt lat="46.96943" lon="6.01087">
        <ele>456.76355</ele>
        <time>2012-06-21T15:20:04Z</time>
      </trkpt>
      <trkpt lat="46.96944" lon="6.0108">
        <ele>455.802246</ele>
        <time>2012-06-21T15:20:11Z</time>
      </trkpt>
      <trkpt lat="46.96945" lon="6.01077">
        <ele>454.84082</ele>
        <time>2012-06-21T15:20:13Z</time>
      </trkpt>
      <trkpt lat="46.96943" lon="6.01062">
        <ele>453.879639</ele>
        <time>2012-06-21T15:20:21Z</time>
      </trkpt>
      <trkpt lat="46.96944" lon="6.01038">
        <ele>450.515015</ele>
        <time>2012-06-21T15:20:35Z</time>
      </trkpt>
      <trkpt lat="46.96943" lon="6.01008">
        <ele>447.150269</ele>
        <time>2012-06-21T15:20:50Z</time>
      </trkpt>
      <trkpt lat="46.96945" lon="6.00984">
        <ele>444.74707</ele>
        <time>2012-06-21T15:21:12Z</time>
      </trkpt>
      <trkpt lat="46.96944" lon="6.00982">
        <ele>444.266479</ele>
        <time>2012-06-21T15:21:58Z</time>
      </trkpt>
      <trkpt lat="46.96943" lon="6.00978">
        <ele>442.824463</ele>
        <time>2012-06-21T15:25:08Z</time>
      </trkpt>
      <trkpt lat="46.96938" lon="6.00985">
        <ele>439.459717</ele>
        <time>2012-06-21T15:28:37Z</time>
      </trkpt>
      <trkpt lat="46.96938" lon="6.00986">
        <ele>439.459717</ele>
        <time>2012-06-21T15:28:38Z</time>
      </trkpt>
      <trkpt lat="46.96923" lon="6.00993">
        <ele>437.537109</ele>
        <time>2012-06-21T15:28:53Z</time>
      </trkpt>
      <trkpt lat="46.96906" lon="6.01002">
        <ele>434.65332</ele>
        <time>2012-06-21T15:29:12Z</time>
      </trkpt>
      <trkpt lat="46.96899" lon="6.01017">
        <ele>432.25</ele>
        <time>2012-06-21T15:29:28Z</time>
      </trkpt>
      <trkpt lat="46.96884" lon="6.01037">
        <ele>429.365967</ele>
        <time>2012-06-21T15:29:47Z</time>
      </trkpt>
      <trkpt lat="46.96881" lon="6.01048">
        <ele>427.443359</ele>
        <time>2012-06-21T15:29:59Z</time>
      </trkpt>
      <trkpt lat="46.96876" lon="6.01063">
        <ele>426.001343</ele>
        <time>2012-06-21T15:30:12Z</time>
      </trkpt>
      <trkpt lat="46.96874" lon="6.01079">
        <ele>424.078735</ele>
        <time>2012-06-21T15:30:25Z</time>
      </trkpt>
      <trkpt lat="46.96873" lon="6.01082">
        <ele>424.559448</ele>
        <time>2012-06-21T15:30:26Z</time>
      </trkpt>
      <trkpt lat="46.96864" lon="6.01105">
        <ele>422.636719</ele>
        <time>2012-06-21T15:30:45Z</time>
      </trkpt>
      <trkpt lat="46.96851" lon="6.01121">
        <ele>421.675415</ele>
        <time>2012-06-21T15:30:56Z</time>
      </trkpt>
      <trkpt lat="46.96829" lon="6.01125">
        <ele>420.714111</ele>
        <time>2012-06-21T15:31:08Z</time>
      </trkpt>
      <trkpt lat="46.96815" lon="6.01139">
        <ele>419.272217</ele>
        <time>2012-06-21T15:31:25Z</time>
      </trkpt>
      <trkpt lat="46.96817" lon="6.01163">
        <ele>417.349609</ele>
        <time>2012-06-21T15:31:44Z</time>
      </trkpt>
      <trkpt lat="46.96826" lon="6.01201">
        <ele>414.946167</ele>
        <time>2012-06-21T15:32:08Z</time>
      </trkpt>
      <trkpt lat="46.96809" lon="6.0122">
        <ele>413.504272</ele>
        <time>2012-06-21T15:32:27Z</time>
      </trkpt>
      <trkpt lat="46.96785" lon="6.01189">
        <ele>411.581665</ele>
        <time>2012-06-21T15:32:45Z</time>
      </trkpt>
      <trkpt lat="46.96782" lon="6.01178">
        <ele>411.100952</ele>
        <time>2012-06-21T15:32:50Z</time>
      </trkpt>
      <trkpt lat="46.96761" lon="6.01136">
        <ele>408.217041</ele>
        <time>2012-06-21T15:33:16Z</time>
      </trkpt>
      <trkpt lat="46.96716" lon="6.01125">
        <ele>405.333008</ele>
        <time>2012-06-21T15:33:42Z</time>
      </trkpt>
      <trkpt lat="46.96674" lon="6.01143">
        <ele>402.929688</ele>
        <time>2012-06-21T15:34:04Z</time>
      </trkpt>
      <trkpt lat="46.96647" lon="6.01153">
        <ele>401.968506</ele>
        <time>2012-06-21T15:34:21Z</time>
      </trkpt>
      <trkpt lat="46.96645" lon="6.01157">
        <ele>401.00708</ele>
        <time>2012-06-21T15:34:27Z</time>
      </trkpt>
      <trkpt lat="46.96637" lon="6.01171">
        <ele>400.045898</ele>
        <time>2012-06-21T15:34:41Z</time>
      </trkpt>
      <trkpt lat="46.9663" lon="6.01173">
        <ele>399.565063</ele>
        <time>2012-06-21T15:34:47Z</time>
      </trkpt>
      <trkpt lat="46.96614" lon="6.01182">
        <ele>398.60376</ele>
        <time>2012-06-21T15:34:58Z</time>
      </trkpt>
      <trkpt lat="46.96603" lon="6.01194">
        <ele>398.123169</ele>
        <time>2012-06-21T15:35:08Z</time>
      </trkpt>
      <trkpt lat="46.96592" lon="6.0121">
        <ele>396.681152</ele>
        <time>2012-06-21T15:35:20Z</time>
      </trkpt>
      <trkpt lat="46.96587" lon="6.0122">
        <ele>396.681152</ele>
        <time>2012-06-21T15:35:26Z</time>
      </trkpt>
      <trkpt lat="46.96574" lon="6.01236">
        <ele>395.719849</ele>
        <time>2012-06-21T15:35:41Z</time>
      </trkpt>
      <trkpt lat="46.96577" lon="6.01241">
        <ele>395.239136</ele>
        <time>2012-06-21T15:35:44Z</time>
      </trkpt>
      <trkpt lat="46.96571" lon="6.0126">
        <ele>394.277954</ele>
        <time>2012-06-21T15:35:59Z</time>
      </trkpt>
      <trkpt lat="46.9657" lon="6.01263">
        <ele>393.797241</ele>
        <time>2012-06-21T15:36:18Z</time>
      </trkpt>
      <trkpt lat="46.96549" lon="6.01237">
        <ele>390.913208</ele>
        <time>2012-06-21T15:37:12Z</time>
      </trkpt>
      <trkpt lat="46.9657" lon="6.01223">
        <ele>389.471191</ele>
        <time>2012-06-21T15:37:29Z</time>
      </trkpt>
      <trkpt lat="46.96573" lon="6.01207">
        <ele>388.990601</ele>
        <time>2012-06-21T15:37:51Z</time>
      </trkpt>
      <trkpt lat="46.96575" lon="6.01202">
        <ele>388.990601</ele>
        <time>2012-06-21T15:38:38Z</time>
      </trkpt>
      <trkpt lat="46.96579" lon="6.01197">
        <ele>388.990601</ele>
        <time>2012-06-21T15:39:02Z</time>
      </trkpt>
      <trkpt lat="46.96551" lon="6.01208">
        <ele>389.471191</ele>
        <time>2012-06-21T15:39:29Z</time>
      </trkpt>
      <trkpt lat="46.96566" lon="6.01191">
        <ele>389.471191</ele>
        <time>2012-06-21T15:40:04Z</time>
      </trkpt>
      <trkpt lat="46.9659" lon="6.01179">
        <ele>389.471191</ele>
        <time>2012-06-21T15:40:24Z</time>
      </trkpt>
      <trkpt lat="46.96598" lon="6.0117">
        <ele>386.587402</ele>
        <time>2012-06-21T15:40:43Z</time>
      </trkpt>
      <trkpt lat="46.96576" lon="6.01186">
        <ele>386.587402</ele>
        <time>2012-06-21T15:41:00Z</time>
      </trkpt>
      <trkpt lat="46.96593" lon="6.01195">
        <ele>386.106689</ele>
        <time>2012-06-21T15:41:29Z</time>
      </trkpt>
      <trkpt lat="46.96608" lon="6.01197">
        <ele>387.067993</ele>
        <time>2012-06-21T15:41:53Z</time>
      </trkpt>
      <trkpt lat="46.96617" lon="6.01198">
        <ele>386.587402</ele>
        <time>2012-06-21T15:42:14Z</time>
      </trkpt>
      <trkpt lat="46.96611" lon="6.012">
        <ele>386.587402</ele>
        <time>2012-06-21T15:42:42Z</time>
      </trkpt>
      <trkpt lat="46.96641" lon="6.01223">
        <ele>386.106689</ele>
        <time>2012-06-21T15:43:08Z</time>
      </trkpt>
      <trkpt lat="46.96624" lon="6.01238">
        <ele>386.106689</ele>
        <time>2012-06-21T15:43:25Z</time>
      </trkpt>
      <trkpt lat="46.9666" lon="6.01293">
        <ele>386.106689</ele>
        <time>2012-06-21T15:43:56Z</time>
      </trkpt>
      <trkpt lat="46.9665" lon="6.01238">
        <ele>384.184082</ele>
        <time>2012-06-21T15:44:20Z</time>
      </trkpt>
      <trkpt lat="46.9663" lon="6.01218">
        <ele>386.587402</ele>
        <time>2012-06-21T15:44:23Z</time>
      </trkpt>
      <trkpt lat="46.96608" lon="6.01197">
        <ele>385.145386</ele>
        <time>2012-06-21T15:46:25Z</time>
      </trkpt>
      <trkpt lat="46.96622" lon="6.01239">
        <ele>385.145386</ele>
        <time>2012-06-21T15:46:56Z</time>
      </trkpt>
      <trkpt lat="46.9658" lon="6.01189">
        <ele>384.664795</ele>
        <time>2012-06-21T15:47:29Z</time>
      </trkpt>
      <trkpt lat="46.966" lon="6.01201">
        <ele>384.664795</ele>
        <time>2012-06-21T15:47:52Z</time>
      </trkpt>
      <trkpt lat="46.96618" lon="6.01237">
        <ele>384.184082</ele>
        <time>2012-06-21T15:48:20Z</time>
      </trkpt>
      <trkpt lat="46.96597" lon="6.01212">
        <ele>384.184082</ele>
        <time>2012-06-21T15:48:45Z</time>
      </trkpt>
      <trkpt lat="46.96603" lon="6.01198">
        <ele>382.742065</ele>
        <time>2012-06-21T15:50:30Z</time>
      </trkpt>
      <trkpt lat="46.96608" lon="6.01199">
        <ele>381.300049</ele>
        <time>2012-06-21T15:51:41Z</time>
      </trkpt>
      <trkpt lat="46.96607" lon="6.012">
        <ele>380.338745</ele>
        <time>2012-06-21T15:52:51Z</time>
      </trkpt>
      <trkpt lat="46.96605" lon="6.012">
        <ele>378.896851</ele>
        <time>2012-06-21T15:54:04Z</time>
      </trkpt>
      <trkpt lat="46.96592" lon="6.01194">
        <ele>378.416138</ele>
        <time>2012-06-21T15:55:02Z</time>
      </trkpt>
      <trkpt lat="46.96559" lon="6.0118">
        <ele>377.935425</ele>
        <time>2012-06-21T15:55:39Z</time>
      </trkpt>
      <trkpt lat="46.96578" lon="6.01193">
        <ele>376.974243</ele>
        <time>2012-06-21T15:56:04Z</time>
      </trkpt>
      <trkpt lat="46.96593" lon="6.01202">
        <ele>376.974243</ele>
        <time>2012-06-21T15:56:33Z</time>
      </trkpt>
      <trkpt lat="46.96597" lon="6.01208">
        <ele>376.49353</ele>
        <time>2012-06-21T15:57:05Z</time>
      </trkpt>
      <trkpt lat="46.96596" lon="6.01203">
        <ele>375.532104</ele>
        <time>2012-06-21T15:58:05Z</time>
      </trkpt>
      <trkpt lat="46.96599" lon="6.01211">
        <ele>375.051514</ele>
        <time>2012-06-21T15:59:09Z</time>
      </trkpt>
      <trkpt lat="46.96582" lon="6.01182">
        <ele>374.570801</ele>
        <time>2012-06-21T15:59:53Z</time>
      </trkpt>
      <trkpt lat="46.96586" lon="6.01192">
        <ele>374.090088</ele>
        <time>2012-06-21T16:00:23Z</time>
      </trkpt>
      <trkpt lat="46.96605" lon="6.01164">
        <ele>373.609497</ele>
        <time>2012-06-21T16:02:05Z</time>
      </trkpt>
      <trkpt lat="46.96603" lon="6.01145">
        <ele>373.609497</ele>
        <time>2012-06-21T16:02:15Z</time>
      </trkpt>
      <trkpt lat="46.96612" lon="6.01147">
        <ele>373.609497</ele>
        <time>2012-06-21T16:02:18Z</time>
      </trkpt>
      <trkpt lat="46.96627" lon="6.01136">
        <ele>373.609497</ele>
        <time>2012-06-21T16:02:29Z</time>
      </trkpt>
      <trkpt lat="46.96632" lon="6.01132">
        <ele>373.609497</ele>
        <time>2012-06-21T16:02:34Z</time>
      </trkpt>
      <trkpt lat="46.96646" lon="6.01121">
        <ele>373.609497</ele>
        <time>2012-06-21T16:02:44Z</time>
      </trkpt>
      <trkpt lat="46.96667" lon="6.01109">
        <ele>373.128906</ele>
        <time>2012-06-21T16:02:57Z</time>
      </trkpt>
      <trkpt lat="46.96681" lon="6.01088">
        <ele>372.648193</ele>
        <time>2012-06-21T16:03:11Z</time>
      </trkpt>
      <trkpt lat="46.96686" lon="6.01072">
        <ele>373.128906</ele>
        <time>2012-06-21T16:03:23Z</time>
      </trkpt>
      <trkpt lat="46.96677" lon="6.01054">
        <ele>373.609497</ele>
        <time>2012-06-21T16:03:43Z</time>
      </trkpt>
      <trkpt lat="46.96676" lon="6.0105">
        <ele>373.128906</ele>
        <time>2012-06-21T16:03:46Z</time>
      </trkpt>
      <trkpt lat="46.9669" lon="6.01022">
        <ele>374.090088</ele>
        <time>2012-06-21T16:04:11Z</time>
      </trkpt>
      <trkpt lat="46.96724" lon="6.01008">
        <ele>372.648193</ele>
        <time>2012-06-21T16:04:38Z</time>
      </trkpt>
      <trkpt lat="46.96713" lon="6.01005">
        <ele>374.570801</ele>
        <time>2012-06-21T16:04:59Z</time>
      </trkpt>
      <trkpt lat="46.96685" lon="6.00979">
        <ele>374.570801</ele>
        <time>2012-06-21T16:05:25Z</time>
      </trkpt>
      <trkpt lat="46.96677" lon="6.00956">
        <ele>376.012817</ele>
        <time>2012-06-21T16:05:40Z</time>
      </trkpt>
      <trkpt lat="46.96672" lon="6.00936">
        <ele>375.051514</ele>
        <time>2012-06-21T16:05:51Z</time>
      </trkpt>
      <trkpt lat="46.96676" lon="6.00915">
        <ele>374.570801</ele>
        <time>2012-06-21T16:06:05Z</time>
      </trkpt>
      <trkpt lat="46.96675" lon="6.00905">
        <ele>374.090088</ele>
        <time>2012-06-21T16:06:17Z</time>
      </trkpt>
      <trkpt lat="46.96669" lon="6.00894">
        <ele>374.570801</ele>
        <time>2012-06-21T16:06:29Z</time>
      </trkpt>
      <trkpt lat="46.96665" lon="6.00892">
        <ele>374.570801</ele>
        <time>2012-06-21T16:06:39Z</time>
      </trkpt>
      <trkpt lat="46.96679" lon="6.009">
        <ele>375.532104</ele>
        <time>2012-06-21T16:06:50Z</time>
      </trkpt>
      <trkpt lat="46.96687" lon="6.00906">
        <ele>376.012817</ele>
        <time>2012-06-21T16:06:57Z</time>
      </trkpt>
      <trkpt lat="46.96699" lon="6.00919">
        <ele>376.012817</ele>
        <time>2012-06-21T16:07:11Z</time>
      </trkpt>
      <trkpt lat="46.96702" lon="6.0092">
        <ele>376.012817</ele>
        <time>2012-06-21T16:07:14Z</time>
      </trkpt>
      <trkpt lat="46.96724" lon="6.00917">
        <ele>374.090088</ele>
        <time>2012-06-21T16:07:26Z</time>
      </trkpt>
      <trkpt lat="46.96733" lon="6.009">
        <ele>371.206299</ele>
        <time>2012-06-21T16:07:40Z</time>
      </trkpt>
      <trkpt lat="46.96748" lon="6.00888">
        <ele>370.725586</ele>
        <time>2012-06-21T16:07:55Z</time>
      </trkpt>
      <trkpt lat="46.96749" lon="6.00882">
        <ele>370.725586</ele>
        <time>2012-06-21T16:07:58Z</time>
      </trkpt>
      <trkpt lat="46.96753" lon="6.00866">
        <ele>370.244873</ele>
        <time>2012-06-21T16:08:08Z</time>
      </trkpt>
      <trkpt lat="46.96751" lon="6.0085">
        <ele>370.244873</ele>
        <time>2012-06-21T16:08:15Z</time>
      </trkpt>
      <trkpt lat="46.96752" lon="6.00839">
        <ele>370.244873</ele>
        <time>2012-06-21T16:08:23Z</time>
      </trkpt>
      <trkpt lat="46.96752" lon="6.0082">
        <ele>370.725586</ele>
        <time>2012-06-21T16:08:37Z</time>
      </trkpt>
      <trkpt lat="46.96778" lon="6.00796">
        <ele>370.725586</ele>
        <time>2012-06-21T16:08:48Z</time>
      </trkpt>
      <trkpt lat="46.96793" lon="6.00785">
        <ele>370.725586</ele>
        <time>2012-06-21T16:08:58Z</time>
      </trkpt>
      <trkpt lat="46.96799" lon="6.00769">
        <ele>370.244873</ele>
        <time>2012-06-21T16:09:08Z</time>
      </trkpt>
      <trkpt lat="46.96811" lon="6.00757">
        <ele>370.725586</ele>
        <time>2012-06-21T16:09:21Z</time>
      </trkpt>
      <trkpt lat="46.96815" lon="6.00752">
        <ele>371.206299</ele>
        <time>2012-06-21T16:09:26Z</time>
      </trkpt>
      <trkpt lat="46.96818" lon="6.00746">
        <ele>371.206299</ele>
        <time>2012-06-21T16:09:31Z</time>
      </trkpt>
      <trkpt lat="46.9684" lon="6.00743">
        <ele>372.648193</ele>
        <time>2012-06-21T16:09:44Z</time>
      </trkpt>
      <trkpt lat="46.96852" lon="6.00721">
        <ele>373.128906</ele>
        <time>2012-06-21T16:09:57Z</time>
      </trkpt>
      <trkpt lat="46.96853" lon="6.00689">
        <ele>374.090088</ele>
        <time>2012-06-21T16:10:07Z</time>
      </trkpt>
      <trkpt lat="46.96852" lon="6.00681">
        <ele>374.090088</ele>
        <time>2012-06-21T16:10:11Z</time>
      </trkpt>
      <trkpt lat="46.96836" lon="6.00645">
        <ele>373.128906</ele>
        <time>2012-06-21T16:10:21Z</time>
      </trkpt>
      <trkpt lat="46.96837" lon="6.00624">
        <ele>373.128906</ele>
        <time>2012-06-21T16:10:34Z</time>
      </trkpt>
      <trkpt lat="46.96844" lon="6.00608">
        <ele>372.648193</ele>
        <time>2012-06-21T16:10:44Z</time>
      </trkpt>
      <trkpt lat="46.96841" lon="6.00601">
        <ele>373.128906</ele>
        <time>2012-06-21T16:10:49Z</time>
      </trkpt>
      <trkpt lat="46.96852" lon="6.00584">
        <ele>371.68689</ele>
        <time>2012-06-21T16:11:02Z</time>
      </trkpt>
      <trkpt lat="46.96873" lon="6.0056">
        <ele>370.244873</ele>
        <time>2012-06-21T16:11:17Z</time>
      </trkpt>
      <trkpt lat="46.96889" lon="6.00536">
        <ele>369.764282</ele>
        <time>2012-06-21T16:11:41Z</time>
      </trkpt>
      <trkpt lat="46.96926" lon="6.00523">
        <ele>370.244873</ele>
        <time>2012-06-21T16:12:09Z</time>
      </trkpt>
      <trkpt lat="46.96937" lon="6.00503">
        <ele>368.322266</ele>
        <time>2012-06-21T16:12:24Z</time>
      </trkpt>
      <trkpt lat="46.96946" lon="6.00484">
        <ele>367.841553</ele>
        <time>2012-06-21T16:12:33Z</time>
      </trkpt>
      <trkpt lat="46.96976" lon="6.00467">
        <ele>368.322266</ele>
        <time>2012-06-21T16:12:57Z</time>
      </trkpt>
      <trkpt lat="46.96992" lon="6.00441">
        <ele>366.880249</ele>
        <time>2012-06-21T16:13:15Z</time>
      </trkpt>
      <trkpt lat="46.96997" lon="6.00433">
        <ele>366.880249</ele>
        <time>2012-06-21T16:13:21Z</time>
      </trkpt>
      <trkpt lat="46.96994" lon="6.00427">
        <ele>366.880249</ele>
        <time>2012-06-21T16:13:25Z</time>
      </trkpt>
      <trkpt lat="46.96998" lon="6.0042">
        <ele>367.360962</ele>
        <time>2012-06-21T16:13:31Z</time>
      </trkpt>
      <trkpt lat="46.96998" lon="6.00403">
        <ele>368.322266</ele>
        <time>2012-06-21T16:13:43Z</time>
      </trkpt>
      <trkpt lat="46.96996" lon="6.00391">
        <ele>368.802979</ele>
        <time>2012-06-21T16:13:49Z</time>
      </trkpt>
      <trkpt lat="46.97005" lon="6.00382">
        <ele>369.283691</ele>
        <time>2012-06-21T16:13:59Z</time>
      </trkpt>
      <trkpt lat="46.97004" lon="6.00369">
        <ele>369.764282</ele>
        <time>2012-06-21T16:14:06Z</time>
      </trkpt>
      <trkpt lat="46.97016" lon="6.00354">
        <ele>371.68689</ele>
        <time>2012-06-21T16:14:20Z</time>
      </trkpt>
      <trkpt lat="46.97018" lon="6.00349">
        <ele>372.16748</ele>
        <time>2012-06-21T16:14:23Z</time>
      </trkpt>
      <trkpt lat="46.97021" lon="6.00344">
        <ele>372.16748</ele>
        <time>2012-06-21T16:14:27Z</time>
      </trkpt>
      <trkpt lat="46.97024" lon="6.00332">
        <ele>372.16748</ele>
        <time>2012-06-21T16:14:35Z</time>
      </trkpt>
      <trkpt lat="46.97049" lon="6.00324">
        <ele>372.648193</ele>
        <time>2012-06-21T16:14:44Z</time>
      </trkpt>
      <trkpt lat="46.97054" lon="6.00317">
        <ele>372.16748</ele>
        <time>2012-06-21T16:14:49Z</time>
      </trkpt>
      <trkpt lat="46.97059" lon="6.00299">
        <ele>371.68689</ele>
        <time>2012-06-21T16:15:05Z</time>
      </trkpt>
      <trkpt lat="46.97081" lon="6.00257">
        <ele>369.764282</ele>
        <time>2012-06-21T16:15:21Z</time>
      </trkpt>
      <trkpt lat="46.97091" lon="6.00222">
        <ele>366.880249</ele>
        <time>2012-06-21T16:15:34Z</time>
      </trkpt>
      <trkpt lat="46.97097" lon="6.0021">
        <ele>364.957642</ele>
        <time>2012-06-21T16:15:43Z</time>
      </trkpt>
      <trkpt lat="46.97098" lon="6.00183">
        <ele>364.957642</ele>
        <time>2012-06-21T16:16:01Z</time>
      </trkpt>
      <trkpt lat="46.97099" lon="6.00181">
        <ele>364.957642</ele>
        <time>2012-06-21T16:16:02Z</time>
      </trkpt>
      <trkpt lat="46.97097" lon="6.00173">
        <ele>364.476929</ele>
        <time>2012-06-21T16:16:08Z</time>
      </trkpt>
      <trkpt lat="46.97108" lon="6.00167">
        <ele>364.476929</ele>
        <time>2012-06-21T16:16:12Z</time>
      </trkpt>
      <trkpt lat="46.97112" lon="6.00157">
        <ele>364.476929</ele>
        <time>2012-06-21T16:16:22Z</time>
      </trkpt>
      <trkpt lat="46.97111" lon="6.00144">
        <ele>364.957642</ele>
        <time>2012-06-21T16:16:31Z</time>
      </trkpt>
      <trkpt lat="46.97114" lon="6.00141">
        <ele>364.957642</ele>
        <time>2012-06-21T16:16:35Z</time>
      </trkpt>
      <trkpt lat="46.9712" lon="6.00125">
        <ele>366.399536</ele>
        <time>2012-06-21T16:16:47Z</time>
      </trkpt>
      <trkpt lat="46.9712" lon="6.00112">
        <ele>367.841553</ele>
        <time>2012-06-21T16:16:59Z</time>
      </trkpt>
      <trkpt lat="46.97126" lon="6.00102">
        <ele>368.322266</ele>
        <time>2012-06-21T16:17:08Z</time>
      </trkpt>
      <trkpt lat="46.97127" lon="6.00098">
        <ele>368.322266</ele>
        <time>2012-06-21T16:17:10Z</time>
      </trkpt>
      <trkpt lat="46.97135" lon="6.00085">
        <ele>369.764282</ele>
        <time>2012-06-21T16:17:21Z</time>
      </trkpt>
      <trkpt lat="46.97146" lon="6.00072">
        <ele>371.206299</ele>
        <time>2012-06-21T16:17:32Z</time>
      </trkpt>
      <trkpt lat="46.97153" lon="6.00065">
        <ele>371.68689</ele>
        <time>2012-06-21T16:17:36Z</time>
      </trkpt>
      <trkpt lat="46.97159" lon="6.00055">
        <ele>371.68689</ele>
        <time>2012-06-21T16:17:46Z</time>
      </trkpt>
      <trkpt lat="46.97221" lon="6.00018">
        <ele>371.68689</ele>
        <time>2012-06-21T16:18:01Z</time>
      </trkpt>
      <trkpt lat="46.97233" lon="6.00006">
        <ele>371.206299</ele>
        <time>2012-06-21T16:18:16Z</time>
      </trkpt>
      <trkpt lat="46.97192" lon="5.99928">
        <ele>369.283691</ele>
        <time>2012-06-21T16:18:43Z</time>
      </trkpt>
      <trkpt lat="46.97219" lon="5.99904">
        <ele>367.360962</ele>
        <time>2012-06-21T16:19:11Z</time>
      </trkpt>
      <trkpt lat="46.9722" lon="5.99904">
        <ele>366.399536</ele>
        <time>2012-06-21T16:19:14Z</time>
      </trkpt>
      <trkpt lat="46.97235" lon="5.99896">
        <ele>364.476929</ele>
        <time>2012-06-21T16:19:30Z</time>
      </trkpt>
      <trkpt lat="46.9725" lon="5.99883">
        <ele>363.515747</ele>
        <time>2012-06-21T16:19:45Z</time>
      </trkpt>
      <trkpt lat="46.97265" lon="5.99868">
        <ele>363.035034</ele>
        <time>2012-06-21T16:19:58Z</time>
      </trkpt>
      <trkpt lat="46.97278" lon="5.99851">
        <ele>364.476929</ele>
        <time>2012-06-21T16:20:12Z</time>
      </trkpt>
      <trkpt lat="46.97279" lon="5.99843">
        <ele>364.957642</ele>
        <time>2012-06-21T16:20:15Z</time>
      </trkpt>
      <trkpt lat="46.97283" lon="5.99834">
        <ele>365.438354</ele>
        <time>2012-06-21T16:20:33Z</time>
      </trkpt>
      <trkpt lat="46.97283" lon="5.99824">
        <ele>365.918945</ele>
        <time>2012-06-21T16:20:52Z</time>
      </trkpt>
      <trkpt lat="46.97291" lon="5.99807">
        <ele>364.476929</ele>
        <time>2012-06-21T16:21:01Z</time>
      </trkpt>
      <trkpt lat="46.97292" lon="5.99786">
        <ele>361.59314</ele>
        <time>2012-06-21T16:21:16Z</time>
      </trkpt>
      <trkpt lat="46.97295" lon="5.99775">
        <ele>361.112427</ele>
        <time>2012-06-21T16:21:20Z</time>
      </trkpt>
      <trkpt lat="46.97295" lon="5.99771">
        <ele>361.112427</ele>
        <time>2012-06-21T16:21:22Z</time>
      </trkpt>
      <trkpt lat="46.97302" lon="5.99758">
        <ele>360.631714</ele>
        <time>2012-06-21T16:21:35Z</time>
      </trkpt>
      <trkpt lat="46.97322" lon="5.9974">
        <ele>359.67041</ele>
        <time>2012-06-21T16:21:55Z</time>
      </trkpt>
      <trkpt lat="46.97334" lon="5.99736">
        <ele>359.189697</ele>
        <time>2012-06-21T16:22:06Z</time>
      </trkpt>
      <trkpt lat="46.97361" lon="5.99735">
        <ele>358.708984</ele>
        <time>2012-06-21T16:22:27Z</time>
      </trkpt>
      <trkpt lat="46.97378" lon="5.99732">
        <ele>358.708984</ele>
        <time>2012-06-21T16:22:41Z</time>
      </trkpt>
      <trkpt lat="46.97398" lon="5.99729">
        <ele>358.708984</ele>
        <time>2012-06-21T16:22:57Z</time>
      </trkpt>
      <trkpt lat="46.97401" lon="5.99706">
        <ele>358.708984</ele>
        <time>2012-06-21T16:23:15Z</time>
      </trkpt>
      <trkpt lat="46.97398" lon="5.99688">
        <ele>358.708984</ele>
        <time>2012-06-21T16:23:31Z</time>
      </trkpt>
      <trkpt lat="46.97414" lon="5.99678">
        <ele>358.708984</ele>
        <time>2012-06-21T16:23:48Z</time>
      </trkpt>
      <trkpt lat="46.97436" lon="5.99669">
        <ele>358.708984</ele>
        <time>2012-06-21T16:24:05Z</time>
      </trkpt>
      <trkpt lat="46.97455" lon="5.99659">
        <ele>359.189697</ele>
        <time>2012-06-21T16:24:23Z</time>
      </trkpt>
      <trkpt lat="46.97471" lon="5.99649">
        <ele>359.67041</ele>
        <time>2012-06-21T16:24:41Z</time>
      </trkpt>
      <trkpt lat="46.97483" lon="5.99644">
        <ele>360.631714</ele>
        <time>2012-06-21T16:24:55Z</time>
      </trkpt>
      <trkpt lat="46.97499" lon="5.99637">
        <ele>362.07373</ele>
        <time>2012-06-21T16:25:09Z</time>
      </trkpt>
      <trkpt lat="46.97517" lon="5.99628">
        <ele>363.035034</ele>
        <time>2012-06-21T16:25:27Z</time>
      </trkpt>
      <trkpt lat="46.97547" lon="5.99615">
        <ele>365.918945</ele>
        <time>2012-06-21T16:25:55Z</time>
      </trkpt>
      <trkpt lat="46.97571" lon="5.99617">
        <ele>367.360962</ele>
        <time>2012-06-21T16:26:13Z</time>
      </trkpt>
      <trkpt lat="46.97575" lon="5.99627">
        <ele>367.360962</ele>
        <time>2012-06-21T16:26:30Z</time>
      </trkpt>
      <trkpt lat="46.97584" lon="5.99675">
        <ele>365.918945</ele>
        <time>2012-06-21T16:26:55Z</time>
      </trkpt>
      <trkpt lat="46.97589" lon="5.99694">
        <ele>364.957642</ele>
        <time>2012-06-21T16:27:07Z</time>
      </trkpt>
      <trkpt lat="46.97595" lon="5.99722">
        <ele>363.035034</ele>
        <time>2012-06-21T16:27:23Z</time>
      </trkpt>
      <trkpt lat="46.976" lon="5.99756">
        <ele>359.67041</ele>
        <time>2012-06-21T16:27:41Z</time>
      </trkpt>
      <trkpt lat="46.97604" lon="5.99791">
        <ele>356.305786</ele>
        <time>2012-06-21T16:27:59Z</time>
      </trkpt>
      <trkpt lat="46.9761" lon="5.99816">
        <ele>354.383179</ele>
        <time>2012-06-21T16:28:14Z</time>
      </trkpt>
      <trkpt lat="46.97617" lon="5.99824">
        <ele>354.383179</ele>
        <time>2012-06-21T16:28:21Z</time>
      </trkpt>
      <trkpt lat="46.97631" lon="5.99857">
        <ele>354.383179</ele>
        <time>2012-06-21T16:28:41Z</time>
      </trkpt>
      <trkpt lat="46.97649" lon="5.999">
        <ele>353.902588</ele>
        <time>2012-06-21T16:29:04Z</time>
      </trkpt>
      <trkpt lat="46.97655" lon="5.99905">
        <ele>354.383179</ele>
        <time>2012-06-21T16:29:10Z</time>
      </trkpt>
      <trkpt lat="46.97661" lon="5.99904">
        <ele>354.383179</ele>
        <time>2012-06-21T16:29:24Z</time>
      </trkpt>
      <trkpt lat="46.97666" lon="5.99904">
        <ele>353.902588</ele>
        <time>2012-06-21T16:29:31Z</time>
      </trkpt>
      <trkpt lat="46.97684" lon="5.99905">
        <ele>353.902588</ele>
        <time>2012-06-21T16:29:45Z</time>
      </trkpt>
      <trkpt lat="46.97685" lon="5.99907">
        <ele>353.902588</ele>
        <time>2012-06-21T16:30:04Z</time>
      </trkpt>
    </trkseg>
  </trk>
</gpx>